<?xml version="1.0" encoding="UTF-8" standalone="no" ?>
<gpx xmlns="http://www.topografix.com/GPX/1/1" xmlns:xsi="http://www.w3.org/2001/XMLSchema-instance" xsi:schemaLocation="http://www.topografix.com/GPX/1/1 http://www.topografix.com/GPX/1/1/gpx.xsd" version="1.1" creator="VisuGPX - https://www.visugpx.com">
  <metadata>
    <name>forêt de sous dîne</name>
    <desc><![CDATA[sortie faite par gros risque avalanche]]></desc>
  </metadata>
  <trk>
    <name><![CDATA[grosse poudre, a coté de sous-dine]]></name>
    <desc><![CDATA[pas allé plus haut avec hugo,gros risque et jour blanc. Mais bone foret a skier]]></desc>
    <trkseg>
      <trkpt lat="46.02101" lon="6.30451">
        <ele>1041.1999511719</ele>
        <time>2012-12-11T09:01:38.000Z</time>
      </trkpt>
      <trkpt lat="46.02098" lon="6.30452">
        <ele>1042.1999511719</ele>
        <time>2012-12-11T09:01:43.000Z</time>
      </trkpt>
      <trkpt lat="46.02094" lon="6.3045">
        <ele>1042.5999755859</ele>
        <time>2012-12-11T09:01:47.000Z</time>
      </trkpt>
      <trkpt lat="46.02089" lon="6.30446">
        <ele>1043.5999755859</ele>
        <time>2012-12-11T09:01:53.000Z</time>
      </trkpt>
      <trkpt lat="46.02084" lon="6.30446">
        <ele>1043.5999755859</ele>
        <time>2012-12-11T09:01:59.000Z</time>
      </trkpt>
      <trkpt lat="46.02078" lon="6.30449">
        <ele>1044</ele>
        <time>2012-12-11T09:02:06.000Z</time>
      </trkpt>
      <trkpt lat="46.02074" lon="6.30453">
        <ele>1044</ele>
        <time>2012-12-11T09:02:12.000Z</time>
      </trkpt>
      <trkpt lat="46.02067" lon="6.30457">
        <ele>1044.5999755859</ele>
        <time>2012-12-11T09:02:21.000Z</time>
      </trkpt>
      <trkpt lat="46.02062" lon="6.3046">
        <ele>1045.4000244141</ele>
        <time>2012-12-11T09:02:27.000Z</time>
      </trkpt>
      <trkpt lat="46.02056" lon="6.30463">
        <ele>1047</ele>
        <time>2012-12-11T09:02:34.000Z</time>
      </trkpt>
      <trkpt lat="46.02049" lon="6.30464">
        <ele>1048.4000244141</ele>
        <time>2012-12-11T09:02:41.000Z</time>
      </trkpt>
      <trkpt lat="46.02044" lon="6.30465">
        <ele>1048.4000244141</ele>
        <time>2012-12-11T09:02:46.000Z</time>
      </trkpt>
      <trkpt lat="46.02035" lon="6.30467">
        <ele>1048.4000244141</ele>
        <time>2012-12-11T09:02:55.000Z</time>
      </trkpt>
      <trkpt lat="46.02029" lon="6.30467">
        <ele>1049.4000244141</ele>
        <time>2012-12-11T09:03:01.000Z</time>
      </trkpt>
      <trkpt lat="46.02023" lon="6.30468">
        <ele>1049.8000488281</ele>
        <time>2012-12-11T09:03:08.000Z</time>
      </trkpt>
      <trkpt lat="46.02016" lon="6.30468">
        <ele>1050.1999511719</ele>
        <time>2012-12-11T09:03:15.000Z</time>
      </trkpt>
      <trkpt lat="46.02009" lon="6.30469">
        <ele>1051.1999511719</ele>
        <time>2012-12-11T09:03:22.000Z</time>
      </trkpt>
      <trkpt lat="46.02004" lon="6.30469">
        <ele>1052.5999755859</ele>
        <time>2012-12-11T09:03:28.000Z</time>
      </trkpt>
      <trkpt lat="46.01998" lon="6.30469">
        <ele>1053.1999511719</ele>
        <time>2012-12-11T09:03:35.000Z</time>
      </trkpt>
      <trkpt lat="46.01992" lon="6.3047">
        <ele>1054.5999755859</ele>
        <time>2012-12-11T09:03:41.000Z</time>
      </trkpt>
      <trkpt lat="46.01987" lon="6.30469">
        <ele>1056.5999755859</ele>
        <time>2012-12-11T09:03:47.000Z</time>
      </trkpt>
      <trkpt lat="46.0198" lon="6.30471">
        <ele>1059</ele>
        <time>2012-12-11T09:03:55.000Z</time>
      </trkpt>
      <trkpt lat="46.01973" lon="6.30474">
        <ele>1059.8000488281</ele>
        <time>2012-12-11T09:04:02.000Z</time>
      </trkpt>
      <trkpt lat="46.01966" lon="6.30476">
        <ele>1059.8000488281</ele>
        <time>2012-12-11T09:04:10.000Z</time>
      </trkpt>
      <trkpt lat="46.01962" lon="6.30477">
        <ele>1060.8000488281</ele>
        <time>2012-12-11T09:04:15.000Z</time>
      </trkpt>
      <trkpt lat="46.01956" lon="6.30477">
        <ele>1063.1999511719</ele>
        <time>2012-12-11T09:04:23.000Z</time>
      </trkpt>
      <trkpt lat="46.01951" lon="6.30478">
        <ele>1064.1999511719</ele>
        <time>2012-12-11T09:04:29.000Z</time>
      </trkpt>
      <trkpt lat="46.01945" lon="6.30477">
        <ele>1065.1999511719</ele>
        <time>2012-12-11T09:04:35.000Z</time>
      </trkpt>
      <trkpt lat="46.0194" lon="6.30477">
        <ele>1066.1999511719</ele>
        <time>2012-12-11T09:04:41.000Z</time>
      </trkpt>
      <trkpt lat="46.01935" lon="6.30477">
        <ele>1068</ele>
        <time>2012-12-11T09:04:48.000Z</time>
      </trkpt>
      <trkpt lat="46.0193" lon="6.30477">
        <ele>1070</ele>
        <time>2012-12-11T09:04:54.000Z</time>
      </trkpt>
      <trkpt lat="46.01928" lon="6.30477">
        <ele>1071.4000244141</ele>
        <time>2012-12-11T09:04:59.000Z</time>
      </trkpt>
      <trkpt lat="46.01924" lon="6.30478">
        <ele>1072.8000488281</ele>
        <time>2012-12-11T09:05:03.000Z</time>
      </trkpt>
      <trkpt lat="46.01919" lon="6.30478">
        <ele>1073.8000488281</ele>
        <time>2012-12-11T09:05:10.000Z</time>
      </trkpt>
      <trkpt lat="46.01913" lon="6.30479">
        <ele>1074.8000488281</ele>
        <time>2012-12-11T09:05:17.000Z</time>
      </trkpt>
      <trkpt lat="46.01911" lon="6.30478">
        <ele>1075.1999511719</ele>
        <time>2012-12-11T09:05:22.000Z</time>
      </trkpt>
      <trkpt lat="46.01912" lon="6.30479">
        <ele>1075.8000488281</ele>
        <time>2012-12-11T09:05:29.000Z</time>
      </trkpt>
      <trkpt lat="46.0191" lon="6.3048">
        <ele>1075.8000488281</ele>
        <time>2012-12-11T09:05:33.000Z</time>
      </trkpt>
      <trkpt lat="46.01904" lon="6.30479">
        <ele>1076.1999511719</ele>
        <time>2012-12-11T09:05:39.000Z</time>
      </trkpt>
      <trkpt lat="46.01899" lon="6.30479">
        <ele>1077.1999511719</ele>
        <time>2012-12-11T09:05:45.000Z</time>
      </trkpt>
      <trkpt lat="46.01893" lon="6.30478">
        <ele>1078.1999511719</ele>
        <time>2012-12-11T09:05:51.000Z</time>
      </trkpt>
      <trkpt lat="46.01886" lon="6.30477">
        <ele>1079.1999511719</ele>
        <time>2012-12-11T09:05:58.000Z</time>
      </trkpt>
      <trkpt lat="46.01881" lon="6.30477">
        <ele>1079.5999755859</ele>
        <time>2012-12-11T09:06:03.000Z</time>
      </trkpt>
      <trkpt lat="46.01876" lon="6.30478">
        <ele>1081</ele>
        <time>2012-12-11T09:06:09.000Z</time>
      </trkpt>
      <trkpt lat="46.01871" lon="6.30476">
        <ele>1082.4000244141</ele>
        <time>2012-12-11T09:06:16.000Z</time>
      </trkpt>
      <trkpt lat="46.01867" lon="6.30475">
        <ele>1083</ele>
        <time>2012-12-11T09:06:22.000Z</time>
      </trkpt>
      <trkpt lat="46.01864" lon="6.30472">
        <ele>1083</ele>
        <time>2012-12-11T09:06:26.000Z</time>
      </trkpt>
      <trkpt lat="46.0186" lon="6.30471">
        <ele>1083.4000244141</ele>
        <time>2012-12-11T09:06:32.000Z</time>
      </trkpt>
      <trkpt lat="46.01856" lon="6.3047">
        <ele>1084</ele>
        <time>2012-12-11T09:06:38.000Z</time>
      </trkpt>
      <trkpt lat="46.01853" lon="6.3047">
        <ele>1084.8000488281</ele>
        <time>2012-12-11T09:06:43.000Z</time>
      </trkpt>
      <trkpt lat="46.01849" lon="6.3047">
        <ele>1086.4000244141</ele>
        <time>2012-12-11T09:06:48.000Z</time>
      </trkpt>
      <trkpt lat="46.01843" lon="6.30471">
        <ele>1088.1999511719</ele>
        <time>2012-12-11T09:06:55.000Z</time>
      </trkpt>
      <trkpt lat="46.01838" lon="6.30471">
        <ele>1089.1999511719</ele>
        <time>2012-12-11T09:07:01.000Z</time>
      </trkpt>
      <trkpt lat="46.01833" lon="6.30472">
        <ele>1090.1999511719</ele>
        <time>2012-12-11T09:07:07.000Z</time>
      </trkpt>
      <trkpt lat="46.01828" lon="6.30473">
        <ele>1092</ele>
        <time>2012-12-11T09:07:13.000Z</time>
      </trkpt>
      <trkpt lat="46.01824" lon="6.30472">
        <ele>1093</ele>
        <time>2012-12-11T09:07:18.000Z</time>
      </trkpt>
      <trkpt lat="46.01818" lon="6.30473">
        <ele>1093.5999755859</ele>
        <time>2012-12-11T09:07:25.000Z</time>
      </trkpt>
      <trkpt lat="46.01812" lon="6.30473">
        <ele>1094</ele>
        <time>2012-12-11T09:07:31.000Z</time>
      </trkpt>
      <trkpt lat="46.01807" lon="6.30472">
        <ele>1094</ele>
        <time>2012-12-11T09:07:37.000Z</time>
      </trkpt>
      <trkpt lat="46.01802" lon="6.30473">
        <ele>1094.4000244141</ele>
        <time>2012-12-11T09:07:43.000Z</time>
      </trkpt>
      <trkpt lat="46.01798" lon="6.30473">
        <ele>1096</ele>
        <time>2012-12-11T09:07:48.000Z</time>
      </trkpt>
      <trkpt lat="46.01793" lon="6.30474">
        <ele>1096.4000244141</ele>
        <time>2012-12-11T09:07:55.000Z</time>
      </trkpt>
      <trkpt lat="46.01787" lon="6.30474">
        <ele>1097</ele>
        <time>2012-12-11T09:08:02.000Z</time>
      </trkpt>
      <trkpt lat="46.01783" lon="6.30475">
        <ele>1097</ele>
        <time>2012-12-11T09:08:08.000Z</time>
      </trkpt>
      <trkpt lat="46.01777" lon="6.30476">
        <ele>1097.8000488281</ele>
        <time>2012-12-11T09:08:16.000Z</time>
      </trkpt>
      <trkpt lat="46.01774" lon="6.30474">
        <ele>1097.8000488281</ele>
        <time>2012-12-11T09:08:20.000Z</time>
      </trkpt>
      <trkpt lat="46.01769" lon="6.30474">
        <ele>1099.4000244141</ele>
        <time>2012-12-11T09:08:27.000Z</time>
      </trkpt>
      <trkpt lat="46.01764" lon="6.30476">
        <ele>1099.4000244141</ele>
        <time>2012-12-11T09:08:34.000Z</time>
      </trkpt>
      <trkpt lat="46.01759" lon="6.30477">
        <ele>1099.8000488281</ele>
        <time>2012-12-11T09:08:40.000Z</time>
      </trkpt>
      <trkpt lat="46.01756" lon="6.30477">
        <ele>1100.1999511719</ele>
        <time>2012-12-11T09:08:45.000Z</time>
      </trkpt>
      <trkpt lat="46.01751" lon="6.30477">
        <ele>1101.8000488281</ele>
        <time>2012-12-11T09:08:50.000Z</time>
      </trkpt>
      <trkpt lat="46.01746" lon="6.30476">
        <ele>1102.1999511719</ele>
        <time>2012-12-11T09:08:56.000Z</time>
      </trkpt>
      <trkpt lat="46.01741" lon="6.30474">
        <ele>1102.5999755859</ele>
        <time>2012-12-11T09:09:01.000Z</time>
      </trkpt>
      <trkpt lat="46.01734" lon="6.30472">
        <ele>1102.5999755859</ele>
        <time>2012-12-11T09:09:09.000Z</time>
      </trkpt>
      <trkpt lat="46.01728" lon="6.30469">
        <ele>1102.1999511719</ele>
        <time>2012-12-11T09:09:15.000Z</time>
      </trkpt>
      <trkpt lat="46.01724" lon="6.30468">
        <ele>1102.1999511719</ele>
        <time>2012-12-11T09:09:19.000Z</time>
      </trkpt>
      <trkpt lat="46.01719" lon="6.30465">
        <ele>1101.1999511719</ele>
        <time>2012-12-11T09:09:24.000Z</time>
      </trkpt>
      <trkpt lat="46.01712" lon="6.30462">
        <ele>1101.1999511719</ele>
        <time>2012-12-11T09:09:31.000Z</time>
      </trkpt>
      <trkpt lat="46.01708" lon="6.30461">
        <ele>1100.8000488281</ele>
        <time>2012-12-11T09:09:35.000Z</time>
      </trkpt>
      <trkpt lat="46.01702" lon="6.30459">
        <ele>1100.8000488281</ele>
        <time>2012-12-11T09:09:42.000Z</time>
      </trkpt>
      <trkpt lat="46.01698" lon="6.30458">
        <ele>1100.8000488281</ele>
        <time>2012-12-11T09:09:47.000Z</time>
      </trkpt>
      <trkpt lat="46.01692" lon="6.30457">
        <ele>1101.1999511719</ele>
        <time>2012-12-11T09:09:54.000Z</time>
      </trkpt>
      <trkpt lat="46.01687" lon="6.30458">
        <ele>1102.5999755859</ele>
        <time>2012-12-11T09:10:00.000Z</time>
      </trkpt>
      <trkpt lat="46.01681" lon="6.30461">
        <ele>1103.1999511719</ele>
        <time>2012-12-11T09:10:07.000Z</time>
      </trkpt>
      <trkpt lat="46.01679" lon="6.30462">
        <ele>1104.1999511719</ele>
        <time>2012-12-11T09:10:12.000Z</time>
      </trkpt>
      <trkpt lat="46.01676" lon="6.30464">
        <ele>1106</ele>
        <time>2012-12-11T09:10:21.000Z</time>
      </trkpt>
      <trkpt lat="46.01671" lon="6.30467">
        <ele>1107</ele>
        <time>2012-12-11T09:10:26.000Z</time>
      </trkpt>
      <trkpt lat="46.01666" lon="6.30471">
        <ele>1108.4000244141</ele>
        <time>2012-12-11T09:10:32.000Z</time>
      </trkpt>
      <trkpt lat="46.01661" lon="6.30475">
        <ele>1110.4000244141</ele>
        <time>2012-12-11T09:10:38.000Z</time>
      </trkpt>
      <trkpt lat="46.01659" lon="6.30477">
        <ele>1110.4000244141</ele>
        <time>2012-12-11T09:10:40.000Z</time>
      </trkpt>
      <trkpt lat="46.01654" lon="6.30481">
        <ele>1111.4000244141</ele>
        <time>2012-12-11T09:10:45.000Z</time>
      </trkpt>
      <trkpt lat="46.0165" lon="6.30482">
        <ele>1111.4000244141</ele>
        <time>2012-12-11T09:10:50.000Z</time>
      </trkpt>
      <trkpt lat="46.01646" lon="6.30484">
        <ele>1112.1999511719</ele>
        <time>2012-12-11T09:10:56.000Z</time>
      </trkpt>
      <trkpt lat="46.01642" lon="6.30487">
        <ele>1114.5999755859</ele>
        <time>2012-12-11T09:11:02.000Z</time>
      </trkpt>
      <trkpt lat="46.01639" lon="6.30489">
        <ele>1115.5999755859</ele>
        <time>2012-12-11T09:11:07.000Z</time>
      </trkpt>
      <trkpt lat="46.01635" lon="6.3049">
        <ele>1115.1999511719</ele>
        <time>2012-12-11T09:11:13.000Z</time>
      </trkpt>
      <trkpt lat="46.01631" lon="6.30493">
        <ele>1115.5999755859</ele>
        <time>2012-12-11T09:11:18.000Z</time>
      </trkpt>
      <trkpt lat="46.01627" lon="6.30495">
        <ele>1116.5999755859</ele>
        <time>2012-12-11T09:11:23.000Z</time>
      </trkpt>
      <trkpt lat="46.01624" lon="6.30496">
        <ele>1117.5999755859</ele>
        <time>2012-12-11T09:11:27.000Z</time>
      </trkpt>
      <trkpt lat="46.01621" lon="6.30499">
        <ele>1118.5999755859</ele>
        <time>2012-12-11T09:11:32.000Z</time>
      </trkpt>
      <trkpt lat="46.01617" lon="6.30501">
        <ele>1119.4000244141</ele>
        <time>2012-12-11T09:11:37.000Z</time>
      </trkpt>
      <trkpt lat="46.01613" lon="6.30503">
        <ele>1120.4000244141</ele>
        <time>2012-12-11T09:11:43.000Z</time>
      </trkpt>
      <trkpt lat="46.01611" lon="6.30503">
        <ele>1121</ele>
        <time>2012-12-11T09:11:47.000Z</time>
      </trkpt>
      <trkpt lat="46.01606" lon="6.30504">
        <ele>1121.4000244141</ele>
        <time>2012-12-11T09:11:54.000Z</time>
      </trkpt>
      <trkpt lat="46.01602" lon="6.30505">
        <ele>1121</ele>
        <time>2012-12-11T09:12:00.000Z</time>
      </trkpt>
      <trkpt lat="46.01599" lon="6.30507">
        <ele>1122.8000488281</ele>
        <time>2012-12-11T09:12:06.000Z</time>
      </trkpt>
      <trkpt lat="46.01595" lon="6.30508">
        <ele>1124.1999511719</ele>
        <time>2012-12-11T09:12:12.000Z</time>
      </trkpt>
      <trkpt lat="46.01592" lon="6.30507">
        <ele>1124.8000488281</ele>
        <time>2012-12-11T09:12:17.000Z</time>
      </trkpt>
      <trkpt lat="46.01589" lon="6.30508">
        <ele>1124.8000488281</ele>
        <time>2012-12-11T09:12:23.000Z</time>
      </trkpt>
      <trkpt lat="46.01585" lon="6.30508">
        <ele>1125.1999511719</ele>
        <time>2012-12-11T09:12:29.000Z</time>
      </trkpt>
      <trkpt lat="46.01581" lon="6.30508">
        <ele>1125.1999511719</ele>
        <time>2012-12-11T09:12:34.000Z</time>
      </trkpt>
      <trkpt lat="46.01577" lon="6.30507">
        <ele>1125.1999511719</ele>
        <time>2012-12-11T09:12:39.000Z</time>
      </trkpt>
      <trkpt lat="46.01572" lon="6.30508">
        <ele>1124.8000488281</ele>
        <time>2012-12-11T09:12:47.000Z</time>
      </trkpt>
      <trkpt lat="46.01567" lon="6.30508">
        <ele>1126.1999511719</ele>
        <time>2012-12-11T09:12:53.000Z</time>
      </trkpt>
      <trkpt lat="46.01563" lon="6.30509">
        <ele>1126.8000488281</ele>
        <time>2012-12-11T09:12:59.000Z</time>
      </trkpt>
      <trkpt lat="46.0156" lon="6.30509">
        <ele>1127.5999755859</ele>
        <time>2012-12-11T09:13:06.000Z</time>
      </trkpt>
      <trkpt lat="46.01558" lon="6.30511">
        <ele>1128.1999511719</ele>
        <time>2012-12-11T09:13:13.000Z</time>
      </trkpt>
      <trkpt lat="46.01555" lon="6.30512">
        <ele>1128.5999755859</ele>
        <time>2012-12-11T09:13:19.000Z</time>
      </trkpt>
      <trkpt lat="46.01553" lon="6.30515">
        <ele>1129.1999511719</ele>
        <time>2012-12-11T09:13:26.000Z</time>
      </trkpt>
      <trkpt lat="46.01552" lon="6.30515">
        <ele>1128.5999755859</ele>
        <time>2012-12-11T09:13:33.000Z</time>
      </trkpt>
      <trkpt lat="46.01553" lon="6.30516">
        <ele>1128.5999755859</ele>
        <time>2012-12-11T09:14:08.000Z</time>
      </trkpt>
      <trkpt lat="46.01551" lon="6.30518">
        <ele>1128.5999755859</ele>
        <time>2012-12-11T09:14:39.000Z</time>
      </trkpt>
      <trkpt lat="46.01546" lon="6.30521">
        <ele>1129.5999755859</ele>
        <time>2012-12-11T09:14:46.000Z</time>
      </trkpt>
      <trkpt lat="46.01541" lon="6.30521">
        <ele>1131</ele>
        <time>2012-12-11T09:14:52.000Z</time>
      </trkpt>
      <trkpt lat="46.01536" lon="6.30519">
        <ele>1131.5999755859</ele>
        <time>2012-12-11T09:14:59.000Z</time>
      </trkpt>
      <trkpt lat="46.01532" lon="6.30515">
        <ele>1131.5999755859</ele>
        <time>2012-12-11T09:15:05.000Z</time>
      </trkpt>
      <trkpt lat="46.01529" lon="6.30511">
        <ele>1131.5999755859</ele>
        <time>2012-12-11T09:15:11.000Z</time>
      </trkpt>
      <trkpt lat="46.01526" lon="6.30504">
        <ele>1131</ele>
        <time>2012-12-11T09:15:17.000Z</time>
      </trkpt>
      <trkpt lat="46.01522" lon="6.30499">
        <ele>1131</ele>
        <time>2012-12-11T09:15:23.000Z</time>
      </trkpt>
      <trkpt lat="46.0152" lon="6.30495">
        <ele>1131.5999755859</ele>
        <time>2012-12-11T09:15:27.000Z</time>
      </trkpt>
      <trkpt lat="46.01517" lon="6.30489">
        <ele>1131.5999755859</ele>
        <time>2012-12-11T09:15:33.000Z</time>
      </trkpt>
      <trkpt lat="46.01514" lon="6.30483">
        <ele>1132</ele>
        <time>2012-12-11T09:15:39.000Z</time>
      </trkpt>
      <trkpt lat="46.01509" lon="6.30474">
        <ele>1132.4000244141</ele>
        <time>2012-12-11T09:15:47.000Z</time>
      </trkpt>
      <trkpt lat="46.01506" lon="6.30469">
        <ele>1132</ele>
        <time>2012-12-11T09:15:52.000Z</time>
      </trkpt>
      <trkpt lat="46.01504" lon="6.30465">
        <ele>1132</ele>
        <time>2012-12-11T09:15:55.000Z</time>
      </trkpt>
      <trkpt lat="46.015" lon="6.30458">
        <ele>1132</ele>
        <time>2012-12-11T09:16:01.000Z</time>
      </trkpt>
      <trkpt lat="46.01495" lon="6.30451">
        <ele>1132</ele>
        <time>2012-12-11T09:16:07.000Z</time>
      </trkpt>
      <trkpt lat="46.01491" lon="6.30445">
        <ele>1132</ele>
        <time>2012-12-11T09:16:13.000Z</time>
      </trkpt>
      <trkpt lat="46.01487" lon="6.30438">
        <ele>1131.5999755859</ele>
        <time>2012-12-11T09:16:20.000Z</time>
      </trkpt>
      <trkpt lat="46.01483" lon="6.30433">
        <ele>1131.5999755859</ele>
        <time>2012-12-11T09:16:26.000Z</time>
      </trkpt>
      <trkpt lat="46.0148" lon="6.30426">
        <ele>1131.5999755859</ele>
        <time>2012-12-11T09:16:32.000Z</time>
      </trkpt>
      <trkpt lat="46.01477" lon="6.3042">
        <ele>1132</ele>
        <time>2012-12-11T09:16:37.000Z</time>
      </trkpt>
      <trkpt lat="46.01474" lon="6.30415">
        <ele>1132</ele>
        <time>2012-12-11T09:16:42.000Z</time>
      </trkpt>
      <trkpt lat="46.01471" lon="6.3041">
        <ele>1132.4000244141</ele>
        <time>2012-12-11T09:16:47.000Z</time>
      </trkpt>
      <trkpt lat="46.01468" lon="6.30403">
        <ele>1132.4000244141</ele>
        <time>2012-12-11T09:16:53.000Z</time>
      </trkpt>
      <trkpt lat="46.01466" lon="6.30399">
        <ele>1132</ele>
        <time>2012-12-11T09:16:58.000Z</time>
      </trkpt>
      <trkpt lat="46.01463" lon="6.30391">
        <ele>1132</ele>
        <time>2012-12-11T09:17:05.000Z</time>
      </trkpt>
      <trkpt lat="46.01459" lon="6.30383">
        <ele>1131.5999755859</ele>
        <time>2012-12-11T09:17:12.000Z</time>
      </trkpt>
      <trkpt lat="46.01457" lon="6.30377">
        <ele>1131</ele>
        <time>2012-12-11T09:17:17.000Z</time>
      </trkpt>
      <trkpt lat="46.01455" lon="6.30371">
        <ele>1131.5999755859</ele>
        <time>2012-12-11T09:17:22.000Z</time>
      </trkpt>
      <trkpt lat="46.01451" lon="6.30369">
        <ele>1131.5999755859</ele>
        <time>2012-12-11T09:17:25.000Z</time>
      </trkpt>
      <trkpt lat="46.01444" lon="6.30363">
        <ele>1132</ele>
        <time>2012-12-11T09:17:32.000Z</time>
      </trkpt>
      <trkpt lat="46.01438" lon="6.30358">
        <ele>1133</ele>
        <time>2012-12-11T09:17:40.000Z</time>
      </trkpt>
      <trkpt lat="46.01435" lon="6.30356">
        <ele>1133.4000244141</ele>
        <time>2012-12-11T09:17:44.000Z</time>
      </trkpt>
      <trkpt lat="46.01431" lon="6.30354">
        <ele>1134</ele>
        <time>2012-12-11T09:17:49.000Z</time>
      </trkpt>
      <trkpt lat="46.01428" lon="6.3035">
        <ele>1134.8000488281</ele>
        <time>2012-12-11T09:17:54.000Z</time>
      </trkpt>
      <trkpt lat="46.01425" lon="6.30348">
        <ele>1135.8000488281</ele>
        <time>2012-12-11T09:17:59.000Z</time>
      </trkpt>
      <trkpt lat="46.0142" lon="6.30346">
        <ele>1136.8000488281</ele>
        <time>2012-12-11T09:18:05.000Z</time>
      </trkpt>
      <trkpt lat="46.01415" lon="6.30348">
        <ele>1137.1999511719</ele>
        <time>2012-12-11T09:18:10.000Z</time>
      </trkpt>
      <trkpt lat="46.01411" lon="6.30348">
        <ele>1137.8000488281</ele>
        <time>2012-12-11T09:18:15.000Z</time>
      </trkpt>
      <trkpt lat="46.01407" lon="6.30347">
        <ele>1138.8000488281</ele>
        <time>2012-12-11T09:18:20.000Z</time>
      </trkpt>
      <trkpt lat="46.01403" lon="6.30348">
        <ele>1139.1999511719</ele>
        <time>2012-12-11T09:18:25.000Z</time>
      </trkpt>
      <trkpt lat="46.01399" lon="6.30348">
        <ele>1140.1999511719</ele>
        <time>2012-12-11T09:18:30.000Z</time>
      </trkpt>
      <trkpt lat="46.01395" lon="6.30348">
        <ele>1141.1999511719</ele>
        <time>2012-12-11T09:18:35.000Z</time>
      </trkpt>
      <trkpt lat="46.01391" lon="6.30349">
        <ele>1143.5999755859</ele>
        <time>2012-12-11T09:18:41.000Z</time>
      </trkpt>
      <trkpt lat="46.01387" lon="6.3035">
        <ele>1144</ele>
        <time>2012-12-11T09:18:47.000Z</time>
      </trkpt>
      <trkpt lat="46.01383" lon="6.30353">
        <ele>1144.4000244141</ele>
        <time>2012-12-11T09:18:53.000Z</time>
      </trkpt>
      <trkpt lat="46.01381" lon="6.30354">
        <ele>1145.4000244141</ele>
        <time>2012-12-11T09:18:58.000Z</time>
      </trkpt>
      <trkpt lat="46.01378" lon="6.30358">
        <ele>1146.4000244141</ele>
        <time>2012-12-11T09:19:03.000Z</time>
      </trkpt>
      <trkpt lat="46.01375" lon="6.30363">
        <ele>1146.8000488281</ele>
        <time>2012-12-11T09:19:09.000Z</time>
      </trkpt>
      <trkpt lat="46.01373" lon="6.30366">
        <ele>1146.4000244141</ele>
        <time>2012-12-11T09:19:13.000Z</time>
      </trkpt>
      <trkpt lat="46.01373" lon="6.30369">
        <ele>1148.4000244141</ele>
        <time>2012-12-11T09:19:16.000Z</time>
      </trkpt>
      <trkpt lat="46.01371" lon="6.30372">
        <ele>1149.8000488281</ele>
        <time>2012-12-11T09:19:21.000Z</time>
      </trkpt>
      <trkpt lat="46.01368" lon="6.30372">
        <ele>1149.8000488281</ele>
        <time>2012-12-11T09:19:26.000Z</time>
      </trkpt>
      <trkpt lat="46.01366" lon="6.3037">
        <ele>1150.1999511719</ele>
        <time>2012-12-11T09:19:33.000Z</time>
      </trkpt>
      <trkpt lat="46.01366" lon="6.30369">
        <ele>1151.1999511719</ele>
        <time>2012-12-11T09:19:49.000Z</time>
      </trkpt>
      <trkpt lat="46.01363" lon="6.30367">
        <ele>1151.1999511719</ele>
        <time>2012-12-11T09:19:54.000Z</time>
      </trkpt>
      <trkpt lat="46.01359" lon="6.30364">
        <ele>1151.1999511719</ele>
        <time>2012-12-11T09:20:00.000Z</time>
      </trkpt>
      <trkpt lat="46.01356" lon="6.30367">
        <ele>1150.8000488281</ele>
        <time>2012-12-11T09:20:07.000Z</time>
      </trkpt>
      <trkpt lat="46.01355" lon="6.30371">
        <ele>1150.8000488281</ele>
        <time>2012-12-11T09:20:13.000Z</time>
      </trkpt>
      <trkpt lat="46.01354" lon="6.30375">
        <ele>1151.1999511719</ele>
        <time>2012-12-11T09:20:18.000Z</time>
      </trkpt>
      <trkpt lat="46.01354" lon="6.30377">
        <ele>1152.5999755859</ele>
        <time>2012-12-11T09:20:22.000Z</time>
      </trkpt>
      <trkpt lat="46.01354" lon="6.3038">
        <ele>1153.1999511719</ele>
        <time>2012-12-11T09:20:25.000Z</time>
      </trkpt>
      <trkpt lat="46.01355" lon="6.30384">
        <ele>1154.1999511719</ele>
        <time>2012-12-11T09:20:29.000Z</time>
      </trkpt>
      <trkpt lat="46.01355" lon="6.30388">
        <ele>1155.5999755859</ele>
        <time>2012-12-11T09:20:35.000Z</time>
      </trkpt>
      <trkpt lat="46.01354" lon="6.30391">
        <ele>1155.5999755859</ele>
        <time>2012-12-11T09:20:39.000Z</time>
      </trkpt>
      <trkpt lat="46.01354" lon="6.30394">
        <ele>1155.5999755859</ele>
        <time>2012-12-11T09:20:43.000Z</time>
      </trkpt>
      <trkpt lat="46.01355" lon="6.30397">
        <ele>1157</ele>
        <time>2012-12-11T09:20:49.000Z</time>
      </trkpt>
      <trkpt lat="46.01354" lon="6.30399">
        <ele>1158</ele>
        <time>2012-12-11T09:20:58.000Z</time>
      </trkpt>
      <trkpt lat="46.01354" lon="6.30405">
        <ele>1159</ele>
        <time>2012-12-11T09:21:06.000Z</time>
      </trkpt>
      <trkpt lat="46.01354" lon="6.30409">
        <ele>1159.4000244141</ele>
        <time>2012-12-11T09:21:11.000Z</time>
      </trkpt>
      <trkpt lat="46.01353" lon="6.30413">
        <ele>1159.8000488281</ele>
        <time>2012-12-11T09:21:16.000Z</time>
      </trkpt>
      <trkpt lat="46.01354" lon="6.30419">
        <ele>1160.4000244141</ele>
        <time>2012-12-11T09:21:22.000Z</time>
      </trkpt>
      <trkpt lat="46.01354" lon="6.30426">
        <ele>1162.8000488281</ele>
        <time>2012-12-11T09:21:29.000Z</time>
      </trkpt>
      <trkpt lat="46.01356" lon="6.30432">
        <ele>1163.8000488281</ele>
        <time>2012-12-11T09:21:35.000Z</time>
      </trkpt>
      <trkpt lat="46.01357" lon="6.30438">
        <ele>1164.5999755859</ele>
        <time>2012-12-11T09:21:42.000Z</time>
      </trkpt>
      <trkpt lat="46.01355" lon="6.30444">
        <ele>1165.5999755859</ele>
        <time>2012-12-11T09:21:48.000Z</time>
      </trkpt>
      <trkpt lat="46.01355" lon="6.30452">
        <ele>1166.5999755859</ele>
        <time>2012-12-11T09:21:54.000Z</time>
      </trkpt>
      <trkpt lat="46.01355" lon="6.30458">
        <ele>1167</ele>
        <time>2012-12-11T09:21:59.000Z</time>
      </trkpt>
      <trkpt lat="46.01355" lon="6.30466">
        <ele>1166.5999755859</ele>
        <time>2012-12-11T09:22:04.000Z</time>
      </trkpt>
      <trkpt lat="46.01355" lon="6.30471">
        <ele>1166.1999511719</ele>
        <time>2012-12-11T09:22:08.000Z</time>
      </trkpt>
      <trkpt lat="46.01355" lon="6.30476">
        <ele>1167.5999755859</ele>
        <time>2012-12-11T09:22:14.000Z</time>
      </trkpt>
      <trkpt lat="46.01354" lon="6.3048">
        <ele>1168</ele>
        <time>2012-12-11T09:22:18.000Z</time>
      </trkpt>
      <trkpt lat="46.01354" lon="6.30485">
        <ele>1167.5999755859</ele>
        <time>2012-12-11T09:22:24.000Z</time>
      </trkpt>
      <trkpt lat="46.01353" lon="6.3049">
        <ele>1168.5999755859</ele>
        <time>2012-12-11T09:22:30.000Z</time>
      </trkpt>
      <trkpt lat="46.01352" lon="6.30496">
        <ele>1169</ele>
        <time>2012-12-11T09:22:37.000Z</time>
      </trkpt>
      <trkpt lat="46.01352" lon="6.305">
        <ele>1170.4000244141</ele>
        <time>2012-12-11T09:22:42.000Z</time>
      </trkpt>
      <trkpt lat="46.01352" lon="6.30505">
        <ele>1171.4000244141</ele>
        <time>2012-12-11T09:22:47.000Z</time>
      </trkpt>
      <trkpt lat="46.01353" lon="6.30508">
        <ele>1172.4000244141</ele>
        <time>2012-12-11T09:22:51.000Z</time>
      </trkpt>
      <trkpt lat="46.01355" lon="6.30513">
        <ele>1173.4000244141</ele>
        <time>2012-12-11T09:22:57.000Z</time>
      </trkpt>
      <trkpt lat="46.01358" lon="6.30519">
        <ele>1174.8000488281</ele>
        <time>2012-12-11T09:23:04.000Z</time>
      </trkpt>
      <trkpt lat="46.01358" lon="6.30523">
        <ele>1175.1999511719</ele>
        <time>2012-12-11T09:23:09.000Z</time>
      </trkpt>
      <trkpt lat="46.01359" lon="6.30527">
        <ele>1175.8000488281</ele>
        <time>2012-12-11T09:23:13.000Z</time>
      </trkpt>
      <trkpt lat="46.0136" lon="6.30533">
        <ele>1177.1999511719</ele>
        <time>2012-12-11T09:23:18.000Z</time>
      </trkpt>
      <trkpt lat="46.01362" lon="6.30538">
        <ele>1178.1999511719</ele>
        <time>2012-12-11T09:23:24.000Z</time>
      </trkpt>
      <trkpt lat="46.01364" lon="6.30544">
        <ele>1178.5999755859</ele>
        <time>2012-12-11T09:23:31.000Z</time>
      </trkpt>
      <trkpt lat="46.01365" lon="6.30549">
        <ele>1180</ele>
        <time>2012-12-11T09:23:36.000Z</time>
      </trkpt>
      <trkpt lat="46.01367" lon="6.30553">
        <ele>1181.4000244141</ele>
        <time>2012-12-11T09:23:41.000Z</time>
      </trkpt>
      <trkpt lat="46.01368" lon="6.30559">
        <ele>1182</ele>
        <time>2012-12-11T09:23:47.000Z</time>
      </trkpt>
      <trkpt lat="46.01369" lon="6.30563">
        <ele>1182</ele>
        <time>2012-12-11T09:23:51.000Z</time>
      </trkpt>
      <trkpt lat="46.01371" lon="6.30569">
        <ele>1182.4000244141</ele>
        <time>2012-12-11T09:23:57.000Z</time>
      </trkpt>
      <trkpt lat="46.01373" lon="6.30575">
        <ele>1182.4000244141</ele>
        <time>2012-12-11T09:24:02.000Z</time>
      </trkpt>
      <trkpt lat="46.01375" lon="6.30582">
        <ele>1183</ele>
        <time>2012-12-11T09:24:09.000Z</time>
      </trkpt>
      <trkpt lat="46.01376" lon="6.30587">
        <ele>1183</ele>
        <time>2012-12-11T09:24:15.000Z</time>
      </trkpt>
      <trkpt lat="46.01377" lon="6.30588">
        <ele>1184</ele>
        <time>2012-12-11T09:24:23.000Z</time>
      </trkpt>
      <trkpt lat="46.01378" lon="6.3059">
        <ele>1184.8000488281</ele>
        <time>2012-12-11T09:24:30.000Z</time>
      </trkpt>
      <trkpt lat="46.01378" lon="6.30595">
        <ele>1184.4000244141</ele>
        <time>2012-12-11T09:24:35.000Z</time>
      </trkpt>
      <trkpt lat="46.0138" lon="6.30602">
        <ele>1185.8000488281</ele>
        <time>2012-12-11T09:24:42.000Z</time>
      </trkpt>
      <trkpt lat="46.0138" lon="6.30607">
        <ele>1186.8000488281</ele>
        <time>2012-12-11T09:24:46.000Z</time>
      </trkpt>
      <trkpt lat="46.01381" lon="6.30612">
        <ele>1187.1999511719</ele>
        <time>2012-12-11T09:24:50.000Z</time>
      </trkpt>
      <trkpt lat="46.01382" lon="6.3062">
        <ele>1188.8000488281</ele>
        <time>2012-12-11T09:24:57.000Z</time>
      </trkpt>
      <trkpt lat="46.01383" lon="6.30628">
        <ele>1191.1999511719</ele>
        <time>2012-12-11T09:25:03.000Z</time>
      </trkpt>
      <trkpt lat="46.01383" lon="6.30635">
        <ele>1191.5999755859</ele>
        <time>2012-12-11T09:25:10.000Z</time>
      </trkpt>
      <trkpt lat="46.01383" lon="6.30641">
        <ele>1191.5999755859</ele>
        <time>2012-12-11T09:25:15.000Z</time>
      </trkpt>
      <trkpt lat="46.01382" lon="6.30645">
        <ele>1191.5999755859</ele>
        <time>2012-12-11T09:25:18.000Z</time>
      </trkpt>
      <trkpt lat="46.01381" lon="6.3065">
        <ele>1192</ele>
        <time>2012-12-11T09:25:23.000Z</time>
      </trkpt>
      <trkpt lat="46.01379" lon="6.30656">
        <ele>1192.5999755859</ele>
        <time>2012-12-11T09:25:28.000Z</time>
      </trkpt>
      <trkpt lat="46.01377" lon="6.30659">
        <ele>1192.5999755859</ele>
        <time>2012-12-11T09:25:32.000Z</time>
      </trkpt>
      <trkpt lat="46.01376" lon="6.30663">
        <ele>1193</ele>
        <time>2012-12-11T09:25:36.000Z</time>
      </trkpt>
      <trkpt lat="46.01374" lon="6.30668">
        <ele>1194</ele>
        <time>2012-12-11T09:25:41.000Z</time>
      </trkpt>
      <trkpt lat="46.01373" lon="6.30673">
        <ele>1194</ele>
        <time>2012-12-11T09:25:46.000Z</time>
      </trkpt>
      <trkpt lat="46.01373" lon="6.30679">
        <ele>1195.4000244141</ele>
        <time>2012-12-11T09:25:53.000Z</time>
      </trkpt>
      <trkpt lat="46.01374" lon="6.30685">
        <ele>1196.4000244141</ele>
        <time>2012-12-11T09:25:58.000Z</time>
      </trkpt>
      <trkpt lat="46.01374" lon="6.3069">
        <ele>1197.4000244141</ele>
        <time>2012-12-11T09:26:03.000Z</time>
      </trkpt>
      <trkpt lat="46.01376" lon="6.30693">
        <ele>1197.8000488281</ele>
        <time>2012-12-11T09:26:09.000Z</time>
      </trkpt>
      <trkpt lat="46.01381" lon="6.30692">
        <ele>1197.8000488281</ele>
        <time>2012-12-11T09:26:14.000Z</time>
      </trkpt>
      <trkpt lat="46.01382" lon="6.30693">
        <ele>1198.4000244141</ele>
        <time>2012-12-11T09:26:22.000Z</time>
      </trkpt>
      <trkpt lat="46.01382" lon="6.30696">
        <ele>1198.4000244141</ele>
        <time>2012-12-11T09:26:27.000Z</time>
      </trkpt>
      <trkpt lat="46.01382" lon="6.30697">
        <ele>1197.8000488281</ele>
        <time>2012-12-11T09:26:32.000Z</time>
      </trkpt>
      <trkpt lat="46.01381" lon="6.30696">
        <ele>1197.4000244141</ele>
        <time>2012-12-11T09:26:40.000Z</time>
      </trkpt>
      <trkpt lat="46.01381" lon="6.30695">
        <ele>1197.8000488281</ele>
        <time>2012-12-11T09:26:54.000Z</time>
      </trkpt>
      <trkpt lat="46.01381" lon="6.30695">
        <ele>1198.8000488281</ele>
        <time>2012-12-11T09:27:00.000Z</time>
      </trkpt>
      <trkpt lat="46.0138" lon="6.30695">
        <ele>1198.4000244141</ele>
        <time>2012-12-11T09:27:09.000Z</time>
      </trkpt>
      <trkpt lat="46.01379" lon="6.30695">
        <ele>1198.4000244141</ele>
        <time>2012-12-11T09:27:15.000Z</time>
      </trkpt>
      <trkpt lat="46.01379" lon="6.30694">
        <ele>1198.8000488281</ele>
        <time>2012-12-11T09:27:21.000Z</time>
      </trkpt>
      <trkpt lat="46.01379" lon="6.30695">
        <ele>1199.1999511719</ele>
        <time>2012-12-11T09:27:36.000Z</time>
      </trkpt>
      <trkpt lat="46.01378" lon="6.30695">
        <ele>1198.4000244141</ele>
        <time>2012-12-11T09:27:43.000Z</time>
      </trkpt>
      <trkpt lat="46.01378" lon="6.30695">
        <ele>1197.8000488281</ele>
        <time>2012-12-11T09:27:55.000Z</time>
      </trkpt>
      <trkpt lat="46.01378" lon="6.30695">
        <ele>1197.4000244141</ele>
        <time>2012-12-11T09:28:04.000Z</time>
      </trkpt>
      <trkpt lat="46.01379" lon="6.30695">
        <ele>1196.8000488281</ele>
        <time>2012-12-11T09:28:44.000Z</time>
      </trkpt>
      <trkpt lat="46.01378" lon="6.30694">
        <ele>1196</ele>
        <time>2012-12-11T09:29:04.000Z</time>
      </trkpt>
      <trkpt lat="46.01377" lon="6.30695">
        <ele>1194.4000244141</ele>
        <time>2012-12-11T09:29:25.000Z</time>
      </trkpt>
      <trkpt lat="46.01378" lon="6.30694">
        <ele>1195</ele>
        <time>2012-12-11T09:29:31.000Z</time>
      </trkpt>
      <trkpt lat="46.01378" lon="6.30695">
        <ele>1195.4000244141</ele>
        <time>2012-12-11T09:29:39.000Z</time>
      </trkpt>
      <trkpt lat="46.01375" lon="6.30696">
        <ele>1196.8000488281</ele>
        <time>2012-12-11T09:29:57.000Z</time>
      </trkpt>
      <trkpt lat="46.0137" lon="6.30694">
        <ele>1195.4000244141</ele>
        <time>2012-12-11T09:30:02.000Z</time>
      </trkpt>
      <trkpt lat="46.01366" lon="6.30693">
        <ele>1196.4000244141</ele>
        <time>2012-12-11T09:30:08.000Z</time>
      </trkpt>
      <trkpt lat="46.01362" lon="6.30693">
        <ele>1196.8000488281</ele>
        <time>2012-12-11T09:30:13.000Z</time>
      </trkpt>
      <trkpt lat="46.01358" lon="6.30693">
        <ele>1197.4000244141</ele>
        <time>2012-12-11T09:30:19.000Z</time>
      </trkpt>
      <trkpt lat="46.01354" lon="6.30694">
        <ele>1198.4000244141</ele>
        <time>2012-12-11T09:30:24.000Z</time>
      </trkpt>
      <trkpt lat="46.0135" lon="6.30693">
        <ele>1199.1999511719</ele>
        <time>2012-12-11T09:30:30.000Z</time>
      </trkpt>
      <trkpt lat="46.01347" lon="6.30692">
        <ele>1199.8000488281</ele>
        <time>2012-12-11T09:30:35.000Z</time>
      </trkpt>
      <trkpt lat="46.01344" lon="6.3069">
        <ele>1201.1999511719</ele>
        <time>2012-12-11T09:30:40.000Z</time>
      </trkpt>
      <trkpt lat="46.01339" lon="6.30686">
        <ele>1203.1999511719</ele>
        <time>2012-12-11T09:30:47.000Z</time>
      </trkpt>
      <trkpt lat="46.01336" lon="6.30683">
        <ele>1204.5999755859</ele>
        <time>2012-12-11T09:30:52.000Z</time>
      </trkpt>
      <trkpt lat="46.01333" lon="6.3068">
        <ele>1205.5999755859</ele>
        <time>2012-12-11T09:30:57.000Z</time>
      </trkpt>
      <trkpt lat="46.01331" lon="6.30676">
        <ele>1206</ele>
        <time>2012-12-11T09:31:01.000Z</time>
      </trkpt>
      <trkpt lat="46.01328" lon="6.30671">
        <ele>1206</ele>
        <time>2012-12-11T09:31:07.000Z</time>
      </trkpt>
      <trkpt lat="46.01326" lon="6.30667">
        <ele>1207.4000244141</ele>
        <time>2012-12-11T09:31:12.000Z</time>
      </trkpt>
      <trkpt lat="46.01324" lon="6.30663">
        <ele>1208.8000488281</ele>
        <time>2012-12-11T09:31:17.000Z</time>
      </trkpt>
      <trkpt lat="46.01323" lon="6.30658">
        <ele>1209.8000488281</ele>
        <time>2012-12-11T09:31:22.000Z</time>
      </trkpt>
      <trkpt lat="46.01321" lon="6.30655">
        <ele>1210.8000488281</ele>
        <time>2012-12-11T09:31:27.000Z</time>
      </trkpt>
      <trkpt lat="46.01319" lon="6.30653">
        <ele>1211.1999511719</ele>
        <time>2012-12-11T09:31:32.000Z</time>
      </trkpt>
      <trkpt lat="46.01317" lon="6.30652">
        <ele>1212.1999511719</ele>
        <time>2012-12-11T09:31:36.000Z</time>
      </trkpt>
      <trkpt lat="46.01314" lon="6.30651">
        <ele>1213.1999511719</ele>
        <time>2012-12-11T09:31:41.000Z</time>
      </trkpt>
      <trkpt lat="46.0131" lon="6.30652">
        <ele>1214.1999511719</ele>
        <time>2012-12-11T09:31:47.000Z</time>
      </trkpt>
      <trkpt lat="46.01307" lon="6.30652">
        <ele>1215.1999511719</ele>
        <time>2012-12-11T09:31:52.000Z</time>
      </trkpt>
      <trkpt lat="46.01302" lon="6.30651">
        <ele>1216.1999511719</ele>
        <time>2012-12-11T09:31:58.000Z</time>
      </trkpt>
      <trkpt lat="46.01299" lon="6.30649">
        <ele>1216.5999755859</ele>
        <time>2012-12-11T09:32:04.000Z</time>
      </trkpt>
      <trkpt lat="46.01295" lon="6.30649">
        <ele>1218</ele>
        <time>2012-12-11T09:32:09.000Z</time>
      </trkpt>
      <trkpt lat="46.01292" lon="6.30648">
        <ele>1219.4000244141</ele>
        <time>2012-12-11T09:32:14.000Z</time>
      </trkpt>
      <trkpt lat="46.01289" lon="6.30647">
        <ele>1220.4000244141</ele>
        <time>2012-12-11T09:32:18.000Z</time>
      </trkpt>
      <trkpt lat="46.01287" lon="6.30647">
        <ele>1221.4000244141</ele>
        <time>2012-12-11T09:32:22.000Z</time>
      </trkpt>
      <trkpt lat="46.01284" lon="6.30646">
        <ele>1222.4000244141</ele>
        <time>2012-12-11T09:32:27.000Z</time>
      </trkpt>
      <trkpt lat="46.01281" lon="6.30646">
        <ele>1223.8000488281</ele>
        <time>2012-12-11T09:32:32.000Z</time>
      </trkpt>
      <trkpt lat="46.01278" lon="6.30645">
        <ele>1225.8000488281</ele>
        <time>2012-12-11T09:32:37.000Z</time>
      </trkpt>
      <trkpt lat="46.01275" lon="6.30644">
        <ele>1226.1999511719</ele>
        <time>2012-12-11T09:32:41.000Z</time>
      </trkpt>
      <trkpt lat="46.0127" lon="6.30646">
        <ele>1226.5999755859</ele>
        <time>2012-12-11T09:32:47.000Z</time>
      </trkpt>
      <trkpt lat="46.01267" lon="6.30646">
        <ele>1227.5999755859</ele>
        <time>2012-12-11T09:32:52.000Z</time>
      </trkpt>
      <trkpt lat="46.01263" lon="6.30647">
        <ele>1228.1999511719</ele>
        <time>2012-12-11T09:32:57.000Z</time>
      </trkpt>
      <trkpt lat="46.0126" lon="6.30648">
        <ele>1229.5999755859</ele>
        <time>2012-12-11T09:33:02.000Z</time>
      </trkpt>
      <trkpt lat="46.01256" lon="6.30648">
        <ele>1230</ele>
        <time>2012-12-11T09:33:07.000Z</time>
      </trkpt>
      <trkpt lat="46.01253" lon="6.30648">
        <ele>1230.5999755859</ele>
        <time>2012-12-11T09:33:12.000Z</time>
      </trkpt>
      <trkpt lat="46.01248" lon="6.30647">
        <ele>1231.4000244141</ele>
        <time>2012-12-11T09:33:17.000Z</time>
      </trkpt>
      <trkpt lat="46.01243" lon="6.30645">
        <ele>1232.4000244141</ele>
        <time>2012-12-11T09:33:22.000Z</time>
      </trkpt>
      <trkpt lat="46.01239" lon="6.30645">
        <ele>1233</ele>
        <time>2012-12-11T09:33:26.000Z</time>
      </trkpt>
      <trkpt lat="46.01235" lon="6.30644">
        <ele>1233.8000488281</ele>
        <time>2012-12-11T09:33:31.000Z</time>
      </trkpt>
      <trkpt lat="46.0123" lon="6.30642">
        <ele>1234.4000244141</ele>
        <time>2012-12-11T09:33:36.000Z</time>
      </trkpt>
      <trkpt lat="46.01225" lon="6.30641">
        <ele>1235.4000244141</ele>
        <time>2012-12-11T09:33:41.000Z</time>
      </trkpt>
      <trkpt lat="46.01219" lon="6.30638">
        <ele>1236.1999511719</ele>
        <time>2012-12-11T09:33:47.000Z</time>
      </trkpt>
      <trkpt lat="46.01215" lon="6.30636">
        <ele>1237.1999511719</ele>
        <time>2012-12-11T09:33:51.000Z</time>
      </trkpt>
      <trkpt lat="46.01215" lon="6.30635">
        <ele>1236.8000488281</ele>
        <time>2012-12-11T09:33:52.000Z</time>
      </trkpt>
      <trkpt lat="46.01209" lon="6.30634">
        <ele>1236.8000488281</ele>
        <time>2012-12-11T09:33:57.000Z</time>
      </trkpt>
      <trkpt lat="46.01206" lon="6.30633">
        <ele>1237.1999511719</ele>
        <time>2012-12-11T09:34:02.000Z</time>
      </trkpt>
      <trkpt lat="46.01201" lon="6.30633">
        <ele>1238.5999755859</ele>
        <time>2012-12-11T09:34:08.000Z</time>
      </trkpt>
      <trkpt lat="46.01196" lon="6.30633">
        <ele>1240.1999511719</ele>
        <time>2012-12-11T09:34:14.000Z</time>
      </trkpt>
      <trkpt lat="46.01192" lon="6.30633">
        <ele>1242.5999755859</ele>
        <time>2012-12-11T09:34:20.000Z</time>
      </trkpt>
      <trkpt lat="46.01188" lon="6.30633">
        <ele>1242.5999755859</ele>
        <time>2012-12-11T09:34:25.000Z</time>
      </trkpt>
      <trkpt lat="46.01186" lon="6.30634">
        <ele>1242.5999755859</ele>
        <time>2012-12-11T09:34:30.000Z</time>
      </trkpt>
      <trkpt lat="46.01182" lon="6.30633">
        <ele>1242.5999755859</ele>
        <time>2012-12-11T09:34:35.000Z</time>
      </trkpt>
      <trkpt lat="46.01179" lon="6.30633">
        <ele>1243.5999755859</ele>
        <time>2012-12-11T09:34:40.000Z</time>
      </trkpt>
      <trkpt lat="46.01175" lon="6.30632">
        <ele>1244.4000244141</ele>
        <time>2012-12-11T09:34:44.000Z</time>
      </trkpt>
      <trkpt lat="46.01172" lon="6.30632">
        <ele>1245</ele>
        <time>2012-12-11T09:34:48.000Z</time>
      </trkpt>
      <trkpt lat="46.01169" lon="6.30631">
        <ele>1246</ele>
        <time>2012-12-11T09:34:52.000Z</time>
      </trkpt>
      <trkpt lat="46.01167" lon="6.30628">
        <ele>1246.4000244141</ele>
        <time>2012-12-11T09:34:56.000Z</time>
      </trkpt>
      <trkpt lat="46.01164" lon="6.30624">
        <ele>1246.4000244141</ele>
        <time>2012-12-11T09:35:02.000Z</time>
      </trkpt>
      <trkpt lat="46.01162" lon="6.30618">
        <ele>1248.4000244141</ele>
        <time>2012-12-11T09:35:09.000Z</time>
      </trkpt>
      <trkpt lat="46.01161" lon="6.30616">
        <ele>1248.8000488281</ele>
        <time>2012-12-11T09:35:12.000Z</time>
      </trkpt>
      <trkpt lat="46.01159" lon="6.30615">
        <ele>1249.1999511719</ele>
        <time>2012-12-11T09:35:16.000Z</time>
      </trkpt>
      <trkpt lat="46.01157" lon="6.30614">
        <ele>1250.1999511719</ele>
        <time>2012-12-11T09:35:21.000Z</time>
      </trkpt>
      <trkpt lat="46.01154" lon="6.30613">
        <ele>1250.8000488281</ele>
        <time>2012-12-11T09:35:26.000Z</time>
      </trkpt>
      <trkpt lat="46.01151" lon="6.30613">
        <ele>1251.5999755859</ele>
        <time>2012-12-11T09:35:31.000Z</time>
      </trkpt>
      <trkpt lat="46.01147" lon="6.30613">
        <ele>1251.5999755859</ele>
        <time>2012-12-11T09:35:36.000Z</time>
      </trkpt>
      <trkpt lat="46.01145" lon="6.30613">
        <ele>1252.5999755859</ele>
        <time>2012-12-11T09:35:41.000Z</time>
      </trkpt>
      <trkpt lat="46.01143" lon="6.30614">
        <ele>1252.5999755859</ele>
        <time>2012-12-11T09:35:45.000Z</time>
      </trkpt>
      <trkpt lat="46.01141" lon="6.30615">
        <ele>1253.1999511719</ele>
        <time>2012-12-11T09:35:49.000Z</time>
      </trkpt>
      <trkpt lat="46.01138" lon="6.30614">
        <ele>1255.5999755859</ele>
        <time>2012-12-11T09:35:56.000Z</time>
      </trkpt>
      <trkpt lat="46.01136" lon="6.30613">
        <ele>1256.4000244141</ele>
        <time>2012-12-11T09:36:00.000Z</time>
      </trkpt>
      <trkpt lat="46.01134" lon="6.3061">
        <ele>1258.4000244141</ele>
        <time>2012-12-11T09:36:05.000Z</time>
      </trkpt>
      <trkpt lat="46.01134" lon="6.30609">
        <ele>1258.8000488281</ele>
        <time>2012-12-11T09:36:09.000Z</time>
      </trkpt>
      <trkpt lat="46.01133" lon="6.30607">
        <ele>1258.4000244141</ele>
        <time>2012-12-11T09:36:15.000Z</time>
      </trkpt>
      <trkpt lat="46.01132" lon="6.30607">
        <ele>1258.4000244141</ele>
        <time>2012-12-11T09:36:18.000Z</time>
      </trkpt>
      <trkpt lat="46.01131" lon="6.30603">
        <ele>1258.8000488281</ele>
        <time>2012-12-11T09:36:22.000Z</time>
      </trkpt>
      <trkpt lat="46.0113" lon="6.30602">
        <ele>1259.8000488281</ele>
        <time>2012-12-11T09:36:27.000Z</time>
      </trkpt>
      <trkpt lat="46.01127" lon="6.30601">
        <ele>1260.8000488281</ele>
        <time>2012-12-11T09:36:32.000Z</time>
      </trkpt>
      <trkpt lat="46.01126" lon="6.306">
        <ele>1263.1999511719</ele>
        <time>2012-12-11T09:36:37.000Z</time>
      </trkpt>
      <trkpt lat="46.01123" lon="6.30602">
        <ele>1264.1999511719</ele>
        <time>2012-12-11T09:36:41.000Z</time>
      </trkpt>
      <trkpt lat="46.01121" lon="6.30603">
        <ele>1264.1999511719</ele>
        <time>2012-12-11T09:36:44.000Z</time>
      </trkpt>
      <trkpt lat="46.01119" lon="6.30605">
        <ele>1264.5999755859</ele>
        <time>2012-12-11T09:36:49.000Z</time>
      </trkpt>
      <trkpt lat="46.01116" lon="6.30604">
        <ele>1266.5999755859</ele>
        <time>2012-12-11T09:36:54.000Z</time>
      </trkpt>
      <trkpt lat="46.01114" lon="6.30603">
        <ele>1267.5999755859</ele>
        <time>2012-12-11T09:37:00.000Z</time>
      </trkpt>
      <trkpt lat="46.01111" lon="6.30603">
        <ele>1268.4000244141</ele>
        <time>2012-12-11T09:37:04.000Z</time>
      </trkpt>
      <trkpt lat="46.01109" lon="6.30604">
        <ele>1270.4000244141</ele>
        <time>2012-12-11T09:37:09.000Z</time>
      </trkpt>
      <trkpt lat="46.01108" lon="6.30605">
        <ele>1271.8000488281</ele>
        <time>2012-12-11T09:37:14.000Z</time>
      </trkpt>
      <trkpt lat="46.01107" lon="6.30607">
        <ele>1272.8000488281</ele>
        <time>2012-12-11T09:37:18.000Z</time>
      </trkpt>
      <trkpt lat="46.01107" lon="6.30607">
        <ele>1273.8000488281</ele>
        <time>2012-12-11T09:37:27.000Z</time>
      </trkpt>
      <trkpt lat="46.01107" lon="6.30607">
        <ele>1274.1999511719</ele>
        <time>2012-12-11T09:37:32.000Z</time>
      </trkpt>
      <trkpt lat="46.01106" lon="6.30609">
        <ele>1273.8000488281</ele>
        <time>2012-12-11T09:37:39.000Z</time>
      </trkpt>
      <trkpt lat="46.01104" lon="6.30612">
        <ele>1273.8000488281</ele>
        <time>2012-12-11T09:37:45.000Z</time>
      </trkpt>
      <trkpt lat="46.011" lon="6.30612">
        <ele>1273.4000244141</ele>
        <time>2012-12-11T09:37:51.000Z</time>
      </trkpt>
      <trkpt lat="46.01098" lon="6.30613">
        <ele>1274.1999511719</ele>
        <time>2012-12-11T09:37:56.000Z</time>
      </trkpt>
      <trkpt lat="46.01096" lon="6.30614">
        <ele>1274.1999511719</ele>
        <time>2012-12-11T09:38:01.000Z</time>
      </trkpt>
      <trkpt lat="46.01093" lon="6.30614">
        <ele>1274.1999511719</ele>
        <time>2012-12-11T09:38:06.000Z</time>
      </trkpt>
      <trkpt lat="46.01091" lon="6.30615">
        <ele>1276.5999755859</ele>
        <time>2012-12-11T09:38:11.000Z</time>
      </trkpt>
      <trkpt lat="46.01088" lon="6.30618">
        <ele>1278.1999511719</ele>
        <time>2012-12-11T09:38:16.000Z</time>
      </trkpt>
      <trkpt lat="46.01087" lon="6.3062">
        <ele>1279</ele>
        <time>2012-12-11T09:38:19.000Z</time>
      </trkpt>
      <trkpt lat="46.01084" lon="6.30622">
        <ele>1279</ele>
        <time>2012-12-11T09:38:24.000Z</time>
      </trkpt>
      <trkpt lat="46.01083" lon="6.30623">
        <ele>1280.5999755859</ele>
        <time>2012-12-11T09:38:29.000Z</time>
      </trkpt>
      <trkpt lat="46.01083" lon="6.30622">
        <ele>1281.4000244141</ele>
        <time>2012-12-11T09:38:36.000Z</time>
      </trkpt>
      <trkpt lat="46.01082" lon="6.30623">
        <ele>1283.4000244141</ele>
        <time>2012-12-11T09:38:41.000Z</time>
      </trkpt>
      <trkpt lat="46.0108" lon="6.30623">
        <ele>1285.4000244141</ele>
        <time>2012-12-11T09:38:46.000Z</time>
      </trkpt>
      <trkpt lat="46.01078" lon="6.30622">
        <ele>1287.8000488281</ele>
        <time>2012-12-11T09:38:52.000Z</time>
      </trkpt>
      <trkpt lat="46.01076" lon="6.30621">
        <ele>1288.5999755859</ele>
        <time>2012-12-11T09:38:57.000Z</time>
      </trkpt>
      <trkpt lat="46.01076" lon="6.30617">
        <ele>1290.1999511719</ele>
        <time>2012-12-11T09:39:01.000Z</time>
      </trkpt>
      <trkpt lat="46.01073" lon="6.30614">
        <ele>1292</ele>
        <time>2012-12-11T09:39:06.000Z</time>
      </trkpt>
      <trkpt lat="46.0107" lon="6.30614">
        <ele>1293.4000244141</ele>
        <time>2012-12-11T09:39:13.000Z</time>
      </trkpt>
      <trkpt lat="46.0107" lon="6.30616">
        <ele>1293.4000244141</ele>
        <time>2012-12-11T09:39:18.000Z</time>
      </trkpt>
      <trkpt lat="46.01069" lon="6.3062">
        <ele>1293</ele>
        <time>2012-12-11T09:39:22.000Z</time>
      </trkpt>
      <trkpt lat="46.01069" lon="6.30622">
        <ele>1293</ele>
        <time>2012-12-11T09:39:27.000Z</time>
      </trkpt>
      <trkpt lat="46.01074" lon="6.30621">
        <ele>1295.8000488281</ele>
        <time>2012-12-11T09:39:38.000Z</time>
      </trkpt>
      <trkpt lat="46.01077" lon="6.30623">
        <ele>1300.8000488281</ele>
        <time>2012-12-11T09:39:53.000Z</time>
      </trkpt>
      <trkpt lat="46.01076" lon="6.30625">
        <ele>1300.1999511719</ele>
        <time>2012-12-11T09:40:18.000Z</time>
      </trkpt>
      <trkpt lat="46.01074" lon="6.30623">
        <ele>1295</ele>
        <time>2012-12-11T09:40:32.000Z</time>
      </trkpt>
      <trkpt lat="46.01074" lon="6.30621">
        <ele>1297.8000488281</ele>
        <time>2012-12-11T09:41:32.000Z</time>
      </trkpt>
      <trkpt lat="46.01074" lon="6.30626">
        <ele>1296.4000244141</ele>
        <time>2012-12-11T09:41:38.000Z</time>
      </trkpt>
      <trkpt lat="46.01074" lon="6.3063">
        <ele>1296.8000488281</ele>
        <time>2012-12-11T09:41:42.000Z</time>
      </trkpt>
      <trkpt lat="46.01074" lon="6.30633">
        <ele>1296.8000488281</ele>
        <time>2012-12-11T09:41:45.000Z</time>
      </trkpt>
      <trkpt lat="46.01074" lon="6.30638">
        <ele>1297.8000488281</ele>
        <time>2012-12-11T09:41:52.000Z</time>
      </trkpt>
      <trkpt lat="46.01072" lon="6.30641">
        <ele>1298.8000488281</ele>
        <time>2012-12-11T09:41:56.000Z</time>
      </trkpt>
      <trkpt lat="46.01071" lon="6.30645">
        <ele>1298.8000488281</ele>
        <time>2012-12-11T09:42:01.000Z</time>
      </trkpt>
      <trkpt lat="46.01071" lon="6.3065">
        <ele>1298.8000488281</ele>
        <time>2012-12-11T09:42:06.000Z</time>
      </trkpt>
      <trkpt lat="46.01072" lon="6.30654">
        <ele>1299.1999511719</ele>
        <time>2012-12-11T09:42:10.000Z</time>
      </trkpt>
      <trkpt lat="46.01073" lon="6.30657">
        <ele>1299.8000488281</ele>
        <time>2012-12-11T09:42:14.000Z</time>
      </trkpt>
      <trkpt lat="46.01073" lon="6.3066">
        <ele>1300.8000488281</ele>
        <time>2012-12-11T09:42:19.000Z</time>
      </trkpt>
      <trkpt lat="46.01072" lon="6.30665">
        <ele>1300.8000488281</ele>
        <time>2012-12-11T09:42:25.000Z</time>
      </trkpt>
      <trkpt lat="46.0107" lon="6.30668">
        <ele>1301.1999511719</ele>
        <time>2012-12-11T09:42:30.000Z</time>
      </trkpt>
      <trkpt lat="46.01065" lon="6.3067">
        <ele>1301.5999755859</ele>
        <time>2012-12-11T09:42:36.000Z</time>
      </trkpt>
      <trkpt lat="46.01062" lon="6.30669">
        <ele>1302.1999511719</ele>
        <time>2012-12-11T09:42:41.000Z</time>
      </trkpt>
      <trkpt lat="46.01059" lon="6.30669">
        <ele>1302.5999755859</ele>
        <time>2012-12-11T09:42:46.000Z</time>
      </trkpt>
      <trkpt lat="46.01056" lon="6.30667">
        <ele>1303.5999755859</ele>
        <time>2012-12-11T09:42:51.000Z</time>
      </trkpt>
      <trkpt lat="46.01054" lon="6.30667">
        <ele>1303.5999755859</ele>
        <time>2012-12-11T09:42:55.000Z</time>
      </trkpt>
      <trkpt lat="46.01052" lon="6.30665">
        <ele>1304.5999755859</ele>
        <time>2012-12-11T09:43:01.000Z</time>
      </trkpt>
      <trkpt lat="46.01051" lon="6.30662">
        <ele>1304.5999755859</ele>
        <time>2012-12-11T09:43:06.000Z</time>
      </trkpt>
      <trkpt lat="46.01048" lon="6.3066">
        <ele>1306</ele>
        <time>2012-12-11T09:43:14.000Z</time>
      </trkpt>
      <trkpt lat="46.01046" lon="6.30659">
        <ele>1305.5999755859</ele>
        <time>2012-12-11T09:43:17.000Z</time>
      </trkpt>
      <trkpt lat="46.01044" lon="6.30659">
        <ele>1306</ele>
        <time>2012-12-11T09:43:21.000Z</time>
      </trkpt>
      <trkpt lat="46.01042" lon="6.30657">
        <ele>1307</ele>
        <time>2012-12-11T09:43:25.000Z</time>
      </trkpt>
      <trkpt lat="46.0104" lon="6.30656">
        <ele>1307</ele>
        <time>2012-12-11T09:43:30.000Z</time>
      </trkpt>
      <trkpt lat="46.01038" lon="6.30654">
        <ele>1308.8000488281</ele>
        <time>2012-12-11T09:43:35.000Z</time>
      </trkpt>
      <trkpt lat="46.01037" lon="6.30651">
        <ele>1309.8000488281</ele>
        <time>2012-12-11T09:43:40.000Z</time>
      </trkpt>
      <trkpt lat="46.01035" lon="6.30651">
        <ele>1309.8000488281</ele>
        <time>2012-12-11T09:43:44.000Z</time>
      </trkpt>
      <trkpt lat="46.01035" lon="6.3065">
        <ele>1308.4000244141</ele>
        <time>2012-12-11T09:43:49.000Z</time>
      </trkpt>
      <trkpt lat="46.01032" lon="6.30649">
        <ele>1309.4000244141</ele>
        <time>2012-12-11T09:43:55.000Z</time>
      </trkpt>
      <trkpt lat="46.01031" lon="6.30649">
        <ele>1309.8000488281</ele>
        <time>2012-12-11T09:43:59.000Z</time>
      </trkpt>
      <trkpt lat="46.01029" lon="6.30647">
        <ele>1310.8000488281</ele>
        <time>2012-12-11T09:44:04.000Z</time>
      </trkpt>
      <trkpt lat="46.01029" lon="6.30644">
        <ele>1311.8000488281</ele>
        <time>2012-12-11T09:44:09.000Z</time>
      </trkpt>
      <trkpt lat="46.01028" lon="6.30643">
        <ele>1313.1999511719</ele>
        <time>2012-12-11T09:44:13.000Z</time>
      </trkpt>
      <trkpt lat="46.01025" lon="6.30642">
        <ele>1314.1999511719</ele>
        <time>2012-12-11T09:44:18.000Z</time>
      </trkpt>
      <trkpt lat="46.01023" lon="6.30642">
        <ele>1314.5999755859</ele>
        <time>2012-12-11T09:44:22.000Z</time>
      </trkpt>
      <trkpt lat="46.01021" lon="6.30641">
        <ele>1316</ele>
        <time>2012-12-11T09:44:27.000Z</time>
      </trkpt>
      <trkpt lat="46.01021" lon="6.3064">
        <ele>1316.5999755859</ele>
        <time>2012-12-11T09:44:28.000Z</time>
      </trkpt>
      <trkpt lat="46.01019" lon="6.30639">
        <ele>1317</ele>
        <time>2012-12-11T09:44:32.000Z</time>
      </trkpt>
      <trkpt lat="46.01017" lon="6.30638">
        <ele>1318</ele>
        <time>2012-12-11T09:44:37.000Z</time>
      </trkpt>
      <trkpt lat="46.01015" lon="6.30638">
        <ele>1320</ele>
        <time>2012-12-11T09:44:41.000Z</time>
      </trkpt>
      <trkpt lat="46.01013" lon="6.30636">
        <ele>1321.4000244141</ele>
        <time>2012-12-11T09:44:45.000Z</time>
      </trkpt>
      <trkpt lat="46.01013" lon="6.30633">
        <ele>1322.8000488281</ele>
        <time>2012-12-11T09:44:48.000Z</time>
      </trkpt>
      <trkpt lat="46.01011" lon="6.30631">
        <ele>1324.8000488281</ele>
        <time>2012-12-11T09:44:52.000Z</time>
      </trkpt>
      <trkpt lat="46.01007" lon="6.30631">
        <ele>1324.8000488281</ele>
        <time>2012-12-11T09:44:58.000Z</time>
      </trkpt>
      <trkpt lat="46.01003" lon="6.30629">
        <ele>1325.1999511719</ele>
        <time>2012-12-11T09:45:05.000Z</time>
      </trkpt>
      <trkpt lat="46.01001" lon="6.30626">
        <ele>1326.1999511719</ele>
        <time>2012-12-11T09:45:10.000Z</time>
      </trkpt>
      <trkpt lat="46.00998" lon="6.30624">
        <ele>1328</ele>
        <time>2012-12-11T09:45:14.000Z</time>
      </trkpt>
      <trkpt lat="46.00995" lon="6.30621">
        <ele>1328.5999755859</ele>
        <time>2012-12-11T09:45:21.000Z</time>
      </trkpt>
      <trkpt lat="46.00992" lon="6.30619">
        <ele>1329</ele>
        <time>2012-12-11T09:45:26.000Z</time>
      </trkpt>
      <trkpt lat="46.0099" lon="6.30615">
        <ele>1330</ele>
        <time>2012-12-11T09:45:31.000Z</time>
      </trkpt>
      <trkpt lat="46.00988" lon="6.30613">
        <ele>1331</ele>
        <time>2012-12-11T09:45:37.000Z</time>
      </trkpt>
      <trkpt lat="46.00986" lon="6.30612">
        <ele>1331.4000244141</ele>
        <time>2012-12-11T09:45:41.000Z</time>
      </trkpt>
      <trkpt lat="46.00984" lon="6.30611">
        <ele>1332.4000244141</ele>
        <time>2012-12-11T09:45:45.000Z</time>
      </trkpt>
      <trkpt lat="46.00983" lon="6.3061">
        <ele>1333</ele>
        <time>2012-12-11T09:45:49.000Z</time>
      </trkpt>
      <trkpt lat="46.0098" lon="6.3061">
        <ele>1333.8000488281</ele>
        <time>2012-12-11T09:45:54.000Z</time>
      </trkpt>
      <trkpt lat="46.00977" lon="6.3061">
        <ele>1333.8000488281</ele>
        <time>2012-12-11T09:45:59.000Z</time>
      </trkpt>
      <trkpt lat="46.00974" lon="6.30609">
        <ele>1334.4000244141</ele>
        <time>2012-12-11T09:46:03.000Z</time>
      </trkpt>
      <trkpt lat="46.00971" lon="6.30607">
        <ele>1335.8000488281</ele>
        <time>2012-12-11T09:46:07.000Z</time>
      </trkpt>
      <trkpt lat="46.00968" lon="6.30605">
        <ele>1335.4000244141</ele>
        <time>2012-12-11T09:46:13.000Z</time>
      </trkpt>
      <trkpt lat="46.00967" lon="6.30602">
        <ele>1336.8000488281</ele>
        <time>2012-12-11T09:46:17.000Z</time>
      </trkpt>
      <trkpt lat="46.00965" lon="6.30597">
        <ele>1337.1999511719</ele>
        <time>2012-12-11T09:46:23.000Z</time>
      </trkpt>
      <trkpt lat="46.00963" lon="6.30593">
        <ele>1337.1999511719</ele>
        <time>2012-12-11T09:46:28.000Z</time>
      </trkpt>
      <trkpt lat="46.00962" lon="6.30588">
        <ele>1338.1999511719</ele>
        <time>2012-12-11T09:46:32.000Z</time>
      </trkpt>
      <trkpt lat="46.0096" lon="6.30582">
        <ele>1338.5999755859</ele>
        <time>2012-12-11T09:46:39.000Z</time>
      </trkpt>
      <trkpt lat="46.00959" lon="6.30578">
        <ele>1339.5999755859</ele>
        <time>2012-12-11T09:46:44.000Z</time>
      </trkpt>
      <trkpt lat="46.00958" lon="6.30576">
        <ele>1341</ele>
        <time>2012-12-11T09:46:50.000Z</time>
      </trkpt>
      <trkpt lat="46.00958" lon="6.30573">
        <ele>1342.5999755859</ele>
        <time>2012-12-11T09:46:59.000Z</time>
      </trkpt>
      <trkpt lat="46.00957" lon="6.30569">
        <ele>1343</ele>
        <time>2012-12-11T09:47:05.000Z</time>
      </trkpt>
      <trkpt lat="46.00955" lon="6.30567">
        <ele>1342.5999755859</ele>
        <time>2012-12-11T09:47:09.000Z</time>
      </trkpt>
      <trkpt lat="46.00954" lon="6.30564">
        <ele>1342.5999755859</ele>
        <time>2012-12-11T09:47:14.000Z</time>
      </trkpt>
      <trkpt lat="46.00952" lon="6.3056">
        <ele>1343</ele>
        <time>2012-12-11T09:47:19.000Z</time>
      </trkpt>
      <trkpt lat="46.00951" lon="6.30558">
        <ele>1344</ele>
        <time>2012-12-11T09:47:23.000Z</time>
      </trkpt>
      <trkpt lat="46.0095" lon="6.30557">
        <ele>1345</ele>
        <time>2012-12-11T09:47:27.000Z</time>
      </trkpt>
      <trkpt lat="46.00947" lon="6.30555">
        <ele>1345.4000244141</ele>
        <time>2012-12-11T09:47:32.000Z</time>
      </trkpt>
      <trkpt lat="46.00944" lon="6.30553">
        <ele>1346.4000244141</ele>
        <time>2012-12-11T09:47:38.000Z</time>
      </trkpt>
      <trkpt lat="46.00941" lon="6.30552">
        <ele>1346.8000488281</ele>
        <time>2012-12-11T09:47:43.000Z</time>
      </trkpt>
      <trkpt lat="46.00937" lon="6.3055">
        <ele>1346.8000488281</ele>
        <time>2012-12-11T09:47:49.000Z</time>
      </trkpt>
      <trkpt lat="46.00935" lon="6.30548">
        <ele>1347.4000244141</ele>
        <time>2012-12-11T09:47:54.000Z</time>
      </trkpt>
      <trkpt lat="46.00934" lon="6.30546">
        <ele>1347.8000488281</ele>
        <time>2012-12-11T09:47:58.000Z</time>
      </trkpt>
      <trkpt lat="46.00932" lon="6.30543">
        <ele>1349.1999511719</ele>
        <time>2012-12-11T09:48:03.000Z</time>
      </trkpt>
      <trkpt lat="46.00931" lon="6.3054">
        <ele>1350.1999511719</ele>
        <time>2012-12-11T09:48:07.000Z</time>
      </trkpt>
      <trkpt lat="46.00929" lon="6.3054">
        <ele>1350.5999755859</ele>
        <time>2012-12-11T09:48:11.000Z</time>
      </trkpt>
      <trkpt lat="46.00927" lon="6.30538">
        <ele>1351.1999511719</ele>
        <time>2012-12-11T09:48:15.000Z</time>
      </trkpt>
      <trkpt lat="46.00925" lon="6.30536">
        <ele>1352.1999511719</ele>
        <time>2012-12-11T09:48:18.000Z</time>
      </trkpt>
      <trkpt lat="46.00924" lon="6.30533">
        <ele>1353.5999755859</ele>
        <time>2012-12-11T09:48:21.000Z</time>
      </trkpt>
      <trkpt lat="46.0092" lon="6.30535">
        <ele>1355</ele>
        <time>2012-12-11T09:48:25.000Z</time>
      </trkpt>
      <trkpt lat="46.00917" lon="6.30534">
        <ele>1355.4000244141</ele>
        <time>2012-12-11T09:48:31.000Z</time>
      </trkpt>
      <trkpt lat="46.00915" lon="6.30533">
        <ele>1357</ele>
        <time>2012-12-11T09:48:36.000Z</time>
      </trkpt>
      <trkpt lat="46.00913" lon="6.30533">
        <ele>1357.8000488281</ele>
        <time>2012-12-11T09:48:41.000Z</time>
      </trkpt>
      <trkpt lat="46.00911" lon="6.30532">
        <ele>1358.8000488281</ele>
        <time>2012-12-11T09:48:45.000Z</time>
      </trkpt>
      <trkpt lat="46.00909" lon="6.30532">
        <ele>1360.4000244141</ele>
        <time>2012-12-11T09:48:50.000Z</time>
      </trkpt>
      <trkpt lat="46.00907" lon="6.30533">
        <ele>1361.1999511719</ele>
        <time>2012-12-11T09:48:53.000Z</time>
      </trkpt>
      <trkpt lat="46.00906" lon="6.30534">
        <ele>1362.1999511719</ele>
        <time>2012-12-11T09:48:58.000Z</time>
      </trkpt>
      <trkpt lat="46.00904" lon="6.30536">
        <ele>1362.1999511719</ele>
        <time>2012-12-11T09:49:03.000Z</time>
      </trkpt>
      <trkpt lat="46.00903" lon="6.30537">
        <ele>1363.1999511719</ele>
        <time>2012-12-11T09:49:07.000Z</time>
      </trkpt>
      <trkpt lat="46.00901" lon="6.30539">
        <ele>1365.1999511719</ele>
        <time>2012-12-11T09:49:11.000Z</time>
      </trkpt>
      <trkpt lat="46.009" lon="6.30542">
        <ele>1365.5999755859</ele>
        <time>2012-12-11T09:49:17.000Z</time>
      </trkpt>
      <trkpt lat="46.009" lon="6.30545">
        <ele>1365.5999755859</ele>
        <time>2012-12-11T09:49:20.000Z</time>
      </trkpt>
      <trkpt lat="46.00899" lon="6.30547">
        <ele>1366.5999755859</ele>
        <time>2012-12-11T09:49:25.000Z</time>
      </trkpt>
      <trkpt lat="46.00898" lon="6.3055">
        <ele>1367</ele>
        <time>2012-12-11T09:49:30.000Z</time>
      </trkpt>
      <trkpt lat="46.00898" lon="6.30552">
        <ele>1367</ele>
        <time>2012-12-11T09:49:35.000Z</time>
      </trkpt>
      <trkpt lat="46.00899" lon="6.30554">
        <ele>1367.5999755859</ele>
        <time>2012-12-11T09:49:39.000Z</time>
      </trkpt>
      <trkpt lat="46.00897" lon="6.30556">
        <ele>1368</ele>
        <time>2012-12-11T09:49:44.000Z</time>
      </trkpt>
      <trkpt lat="46.00896" lon="6.30559">
        <ele>1369.4000244141</ele>
        <time>2012-12-11T09:49:50.000Z</time>
      </trkpt>
      <trkpt lat="46.00894" lon="6.30559">
        <ele>1370.8000488281</ele>
        <time>2012-12-11T09:49:55.000Z</time>
      </trkpt>
      <trkpt lat="46.0089" lon="6.30559">
        <ele>1371.4000244141</ele>
        <time>2012-12-11T09:50:00.000Z</time>
      </trkpt>
      <trkpt lat="46.00889" lon="6.30559">
        <ele>1371.8000488281</ele>
        <time>2012-12-11T09:50:04.000Z</time>
      </trkpt>
      <trkpt lat="46.00886" lon="6.30558">
        <ele>1371.8000488281</ele>
        <time>2012-12-11T09:50:09.000Z</time>
      </trkpt>
      <trkpt lat="46.00882" lon="6.3056">
        <ele>1371.8000488281</ele>
        <time>2012-12-11T09:50:15.000Z</time>
      </trkpt>
      <trkpt lat="46.0088" lon="6.3056">
        <ele>1372.4000244141</ele>
        <time>2012-12-11T09:50:20.000Z</time>
      </trkpt>
      <trkpt lat="46.00877" lon="6.30558">
        <ele>1373.8000488281</ele>
        <time>2012-12-11T09:50:25.000Z</time>
      </trkpt>
      <trkpt lat="46.00874" lon="6.30556">
        <ele>1374.8000488281</ele>
        <time>2012-12-11T09:50:32.000Z</time>
      </trkpt>
      <trkpt lat="46.00872" lon="6.30555">
        <ele>1375.1999511719</ele>
        <time>2012-12-11T09:50:36.000Z</time>
      </trkpt>
      <trkpt lat="46.0087" lon="6.30553">
        <ele>1376.5999755859</ele>
        <time>2012-12-11T09:50:41.000Z</time>
      </trkpt>
      <trkpt lat="46.00867" lon="6.30552">
        <ele>1377.1999511719</ele>
        <time>2012-12-11T09:50:46.000Z</time>
      </trkpt>
      <trkpt lat="46.00864" lon="6.3055">
        <ele>1377.5999755859</ele>
        <time>2012-12-11T09:50:51.000Z</time>
      </trkpt>
      <trkpt lat="46.00859" lon="6.30548">
        <ele>1378.5999755859</ele>
        <time>2012-12-11T09:50:59.000Z</time>
      </trkpt>
      <trkpt lat="46.00855" lon="6.30545">
        <ele>1378.5999755859</ele>
        <time>2012-12-11T09:51:05.000Z</time>
      </trkpt>
      <trkpt lat="46.0085" lon="6.30543">
        <ele>1378.5999755859</ele>
        <time>2012-12-11T09:51:10.000Z</time>
      </trkpt>
      <trkpt lat="46.00847" lon="6.30541">
        <ele>1379.5999755859</ele>
        <time>2012-12-11T09:51:15.000Z</time>
      </trkpt>
      <trkpt lat="46.00843" lon="6.30539">
        <ele>1379.5999755859</ele>
        <time>2012-12-11T09:51:21.000Z</time>
      </trkpt>
      <trkpt lat="46.00838" lon="6.30538">
        <ele>1380.4000244141</ele>
        <time>2012-12-11T09:51:27.000Z</time>
      </trkpt>
      <trkpt lat="46.00834" lon="6.30536">
        <ele>1381.4000244141</ele>
        <time>2012-12-11T09:51:31.000Z</time>
      </trkpt>
      <trkpt lat="46.00831" lon="6.30534">
        <ele>1382</ele>
        <time>2012-12-11T09:51:36.000Z</time>
      </trkpt>
      <trkpt lat="46.00828" lon="6.30533">
        <ele>1382</ele>
        <time>2012-12-11T09:51:41.000Z</time>
      </trkpt>
      <trkpt lat="46.00826" lon="6.30533">
        <ele>1382</ele>
        <time>2012-12-11T09:51:46.000Z</time>
      </trkpt>
      <trkpt lat="46.00824" lon="6.30536">
        <ele>1382</ele>
        <time>2012-12-11T09:51:48.000Z</time>
      </trkpt>
      <trkpt lat="46.0082" lon="6.30536">
        <ele>1381.4000244141</ele>
        <time>2012-12-11T09:51:55.000Z</time>
      </trkpt>
      <trkpt lat="46.00816" lon="6.30536">
        <ele>1383.8000488281</ele>
        <time>2012-12-11T09:52:01.000Z</time>
      </trkpt>
      <trkpt lat="46.00814" lon="6.30536">
        <ele>1385.8000488281</ele>
        <time>2012-12-11T09:52:06.000Z</time>
      </trkpt>
      <trkpt lat="46.00809" lon="6.30536">
        <ele>1385.8000488281</ele>
        <time>2012-12-11T09:52:12.000Z</time>
      </trkpt>
      <trkpt lat="46.00805" lon="6.30536">
        <ele>1386.1999511719</ele>
        <time>2012-12-11T09:52:18.000Z</time>
      </trkpt>
      <trkpt lat="46.00802" lon="6.30537">
        <ele>1388.1999511719</ele>
        <time>2012-12-11T09:52:23.000Z</time>
      </trkpt>
      <trkpt lat="46.00801" lon="6.3054">
        <ele>1389.5999755859</ele>
        <time>2012-12-11T09:52:27.000Z</time>
      </trkpt>
      <trkpt lat="46.00802" lon="6.30544">
        <ele>1391</ele>
        <time>2012-12-11T09:52:33.000Z</time>
      </trkpt>
      <trkpt lat="46.00804" lon="6.30546">
        <ele>1392</ele>
        <time>2012-12-11T09:52:38.000Z</time>
      </trkpt>
      <trkpt lat="46.00804" lon="6.30547">
        <ele>1394</ele>
        <time>2012-12-11T09:52:47.000Z</time>
      </trkpt>
      <trkpt lat="46.00803" lon="6.3055">
        <ele>1394</ele>
        <time>2012-12-11T09:52:52.000Z</time>
      </trkpt>
      <trkpt lat="46.00802" lon="6.30551">
        <ele>1394.4000244141</ele>
        <time>2012-12-11T09:53:00.000Z</time>
      </trkpt>
      <trkpt lat="46.00801" lon="6.3055">
        <ele>1395.8000488281</ele>
        <time>2012-12-11T09:53:04.000Z</time>
      </trkpt>
      <trkpt lat="46.00798" lon="6.30549">
        <ele>1397.4000244141</ele>
        <time>2012-12-11T09:53:09.000Z</time>
      </trkpt>
      <trkpt lat="46.00795" lon="6.30551">
        <ele>1398.8000488281</ele>
        <time>2012-12-11T09:53:16.000Z</time>
      </trkpt>
      <trkpt lat="46.00793" lon="6.30552">
        <ele>1399.8000488281</ele>
        <time>2012-12-11T09:53:20.000Z</time>
      </trkpt>
      <trkpt lat="46.0079" lon="6.30552">
        <ele>1400.1999511719</ele>
        <time>2012-12-11T09:53:24.000Z</time>
      </trkpt>
      <trkpt lat="46.00785" lon="6.3055">
        <ele>1401.1999511719</ele>
        <time>2012-12-11T09:53:28.000Z</time>
      </trkpt>
      <trkpt lat="46.00781" lon="6.30549">
        <ele>1401.5999755859</ele>
        <time>2012-12-11T09:53:33.000Z</time>
      </trkpt>
      <trkpt lat="46.00776" lon="6.30547">
        <ele>1401.1999511719</ele>
        <time>2012-12-11T09:53:39.000Z</time>
      </trkpt>
      <trkpt lat="46.00769" lon="6.30544">
        <ele>1400.5999755859</ele>
        <time>2012-12-11T09:53:45.000Z</time>
      </trkpt>
      <trkpt lat="46.00764" lon="6.30543">
        <ele>1401.1999511719</ele>
        <time>2012-12-11T09:53:51.000Z</time>
      </trkpt>
      <trkpt lat="46.0076" lon="6.30542">
        <ele>1402.1999511719</ele>
        <time>2012-12-11T09:53:55.000Z</time>
      </trkpt>
      <trkpt lat="46.00758" lon="6.30542">
        <ele>1402.1999511719</ele>
        <time>2012-12-11T09:54:02.000Z</time>
      </trkpt>
      <trkpt lat="46.00756" lon="6.30543">
        <ele>1401.5999755859</ele>
        <time>2012-12-11T09:54:07.000Z</time>
      </trkpt>
      <trkpt lat="46.00753" lon="6.30546">
        <ele>1401.1999511719</ele>
        <time>2012-12-11T09:54:13.000Z</time>
      </trkpt>
      <trkpt lat="46.00752" lon="6.30549">
        <ele>1400.5999755859</ele>
        <time>2012-12-11T09:54:17.000Z</time>
      </trkpt>
      <trkpt lat="46.00749" lon="6.3055">
        <ele>1400.5999755859</ele>
        <time>2012-12-11T09:54:19.000Z</time>
      </trkpt>
      <trkpt lat="46.00747" lon="6.3055">
        <ele>1400.5999755859</ele>
        <time>2012-12-11T09:54:21.000Z</time>
      </trkpt>
      <trkpt lat="46.00746" lon="6.30553">
        <ele>1401.5999755859</ele>
        <time>2012-12-11T09:54:25.000Z</time>
      </trkpt>
      <trkpt lat="46.00745" lon="6.30555">
        <ele>1402.1999511719</ele>
        <time>2012-12-11T09:54:28.000Z</time>
      </trkpt>
      <trkpt lat="46.00745" lon="6.30557">
        <ele>1402.1999511719</ele>
        <time>2012-12-11T09:54:31.000Z</time>
      </trkpt>
      <trkpt lat="46.00745" lon="6.30558">
        <ele>1403.5999755859</ele>
        <time>2012-12-11T09:54:36.000Z</time>
      </trkpt>
      <trkpt lat="46.00744" lon="6.30562">
        <ele>1404</ele>
        <time>2012-12-11T09:54:41.000Z</time>
      </trkpt>
      <trkpt lat="46.00744" lon="6.30564">
        <ele>1405</ele>
        <time>2012-12-11T09:54:45.000Z</time>
      </trkpt>
      <trkpt lat="46.00743" lon="6.30565">
        <ele>1406</ele>
        <time>2012-12-11T09:54:49.000Z</time>
      </trkpt>
      <trkpt lat="46.0074" lon="6.30566">
        <ele>1407</ele>
        <time>2012-12-11T09:54:56.000Z</time>
      </trkpt>
      <trkpt lat="46.00738" lon="6.30566">
        <ele>1408.4000244141</ele>
        <time>2012-12-11T09:55:03.000Z</time>
      </trkpt>
      <trkpt lat="46.00737" lon="6.30566">
        <ele>1408.8000488281</ele>
        <time>2012-12-11T09:55:16.000Z</time>
      </trkpt>
      <trkpt lat="46.00735" lon="6.30565">
        <ele>1413.1999511719</ele>
        <time>2012-12-11T09:55:46.000Z</time>
      </trkpt>
      <trkpt lat="46.00732" lon="6.30567">
        <ele>1413.5999755859</ele>
        <time>2012-12-11T09:55:52.000Z</time>
      </trkpt>
      <trkpt lat="46.00726" lon="6.30568">
        <ele>1413.5999755859</ele>
        <time>2012-12-11T09:56:00.000Z</time>
      </trkpt>
      <trkpt lat="46.00723" lon="6.30568">
        <ele>1413.5999755859</ele>
        <time>2012-12-11T09:56:05.000Z</time>
      </trkpt>
      <trkpt lat="46.00719" lon="6.30567">
        <ele>1413.5999755859</ele>
        <time>2012-12-11T09:56:10.000Z</time>
      </trkpt>
      <trkpt lat="46.00717" lon="6.30566">
        <ele>1414.5999755859</ele>
        <time>2012-12-11T09:56:15.000Z</time>
      </trkpt>
      <trkpt lat="46.00716" lon="6.30565">
        <ele>1415</ele>
        <time>2012-12-11T09:56:20.000Z</time>
      </trkpt>
      <trkpt lat="46.00713" lon="6.30563">
        <ele>1415.5999755859</ele>
        <time>2012-12-11T09:56:26.000Z</time>
      </trkpt>
      <trkpt lat="46.00711" lon="6.30562">
        <ele>1416</ele>
        <time>2012-12-11T09:56:32.000Z</time>
      </trkpt>
      <trkpt lat="46.00708" lon="6.3056">
        <ele>1417.5999755859</ele>
        <time>2012-12-11T09:56:38.000Z</time>
      </trkpt>
      <trkpt lat="46.00705" lon="6.30559">
        <ele>1418</ele>
        <time>2012-12-11T09:56:45.000Z</time>
      </trkpt>
      <trkpt lat="46.00702" lon="6.30557">
        <ele>1418.4000244141</ele>
        <time>2012-12-11T09:56:52.000Z</time>
      </trkpt>
      <trkpt lat="46.007" lon="6.30556">
        <ele>1418.4000244141</ele>
        <time>2012-12-11T09:56:58.000Z</time>
      </trkpt>
      <trkpt lat="46.00697" lon="6.30554">
        <ele>1420</ele>
        <time>2012-12-11T09:57:04.000Z</time>
      </trkpt>
      <trkpt lat="46.00695" lon="6.30554">
        <ele>1420</ele>
        <time>2012-12-11T09:57:09.000Z</time>
      </trkpt>
      <trkpt lat="46.00692" lon="6.30553">
        <ele>1422.8000488281</ele>
        <time>2012-12-11T09:57:13.000Z</time>
      </trkpt>
      <trkpt lat="46.00691" lon="6.30552">
        <ele>1421.8000488281</ele>
        <time>2012-12-11T09:57:19.000Z</time>
      </trkpt>
      <trkpt lat="46.00688" lon="6.30551">
        <ele>1422.8000488281</ele>
        <time>2012-12-11T09:57:25.000Z</time>
      </trkpt>
      <trkpt lat="46.00687" lon="6.3055">
        <ele>1423.1999511719</ele>
        <time>2012-12-11T09:57:33.000Z</time>
      </trkpt>
      <trkpt lat="46.00685" lon="6.3055">
        <ele>1425.1999511719</ele>
        <time>2012-12-11T09:57:40.000Z</time>
      </trkpt>
      <trkpt lat="46.00683" lon="6.30548">
        <ele>1425.5999755859</ele>
        <time>2012-12-11T09:57:44.000Z</time>
      </trkpt>
      <trkpt lat="46.00681" lon="6.30547">
        <ele>1425.5999755859</ele>
        <time>2012-12-11T09:57:49.000Z</time>
      </trkpt>
      <trkpt lat="46.00678" lon="6.30545">
        <ele>1426.5999755859</ele>
        <time>2012-12-11T09:57:55.000Z</time>
      </trkpt>
      <trkpt lat="46.00675" lon="6.30544">
        <ele>1426.5999755859</ele>
        <time>2012-12-11T09:58:00.000Z</time>
      </trkpt>
      <trkpt lat="46.00672" lon="6.30543">
        <ele>1428</ele>
        <time>2012-12-11T09:58:05.000Z</time>
      </trkpt>
      <trkpt lat="46.00667" lon="6.30542">
        <ele>1430</ele>
        <time>2012-12-11T09:58:11.000Z</time>
      </trkpt>
      <trkpt lat="46.00664" lon="6.30543">
        <ele>1430.4000244141</ele>
        <time>2012-12-11T09:58:16.000Z</time>
      </trkpt>
      <trkpt lat="46.0066" lon="6.30543">
        <ele>1430</ele>
        <time>2012-12-11T09:58:20.000Z</time>
      </trkpt>
      <trkpt lat="46.00657" lon="6.30544">
        <ele>1430.4000244141</ele>
        <time>2012-12-11T09:58:26.000Z</time>
      </trkpt>
      <trkpt lat="46.00654" lon="6.30546">
        <ele>1431.4000244141</ele>
        <time>2012-12-11T09:58:30.000Z</time>
      </trkpt>
      <trkpt lat="46.00651" lon="6.30546">
        <ele>1432.4000244141</ele>
        <time>2012-12-11T09:58:34.000Z</time>
      </trkpt>
      <trkpt lat="46.00647" lon="6.30548">
        <ele>1432.8000488281</ele>
        <time>2012-12-11T09:58:40.000Z</time>
      </trkpt>
      <trkpt lat="46.00643" lon="6.30549">
        <ele>1432.4000244141</ele>
        <time>2012-12-11T09:58:45.000Z</time>
      </trkpt>
      <trkpt lat="46.0064" lon="6.30549">
        <ele>1432.8000488281</ele>
        <time>2012-12-11T09:58:50.000Z</time>
      </trkpt>
      <trkpt lat="46.00636" lon="6.3055">
        <ele>1433.8000488281</ele>
        <time>2012-12-11T09:58:55.000Z</time>
      </trkpt>
      <trkpt lat="46.00632" lon="6.3055">
        <ele>1435.8000488281</ele>
        <time>2012-12-11T09:59:00.000Z</time>
      </trkpt>
      <trkpt lat="46.00627" lon="6.30551">
        <ele>1435.1999511719</ele>
        <time>2012-12-11T09:59:05.000Z</time>
      </trkpt>
      <trkpt lat="46.00622" lon="6.30553">
        <ele>1434.8000488281</ele>
        <time>2012-12-11T09:59:10.000Z</time>
      </trkpt>
      <trkpt lat="46.00616" lon="6.30556">
        <ele>1435.8000488281</ele>
        <time>2012-12-11T09:59:17.000Z</time>
      </trkpt>
      <trkpt lat="46.00612" lon="6.30558">
        <ele>1437.1999511719</ele>
        <time>2012-12-11T09:59:22.000Z</time>
      </trkpt>
      <trkpt lat="46.0061" lon="6.30561">
        <ele>1436.1999511719</ele>
        <time>2012-12-11T09:59:26.000Z</time>
      </trkpt>
      <trkpt lat="46.00605" lon="6.30566">
        <ele>1435.8000488281</ele>
        <time>2012-12-11T09:59:32.000Z</time>
      </trkpt>
      <trkpt lat="46.00601" lon="6.30569">
        <ele>1437.1999511719</ele>
        <time>2012-12-11T09:59:37.000Z</time>
      </trkpt>
      <trkpt lat="46.00597" lon="6.30571">
        <ele>1437.5999755859</ele>
        <time>2012-12-11T09:59:42.000Z</time>
      </trkpt>
      <trkpt lat="46.00594" lon="6.30571">
        <ele>1438.1999511719</ele>
        <time>2012-12-11T09:59:46.000Z</time>
      </trkpt>
      <trkpt lat="46.0059" lon="6.30573">
        <ele>1437.1999511719</ele>
        <time>2012-12-11T09:59:50.000Z</time>
      </trkpt>
      <trkpt lat="46.00585" lon="6.30573">
        <ele>1439.5999755859</ele>
        <time>2012-12-11T09:59:56.000Z</time>
      </trkpt>
      <trkpt lat="46.00581" lon="6.30577">
        <ele>1442</ele>
        <time>2012-12-11T10:00:02.000Z</time>
      </trkpt>
      <trkpt lat="46.00579" lon="6.3058">
        <ele>1443</ele>
        <time>2012-12-11T10:00:05.000Z</time>
      </trkpt>
      <trkpt lat="46.00575" lon="6.30581">
        <ele>1444.8000488281</ele>
        <time>2012-12-11T10:00:09.000Z</time>
      </trkpt>
      <trkpt lat="46.00572" lon="6.30582">
        <ele>1446.4000244141</ele>
        <time>2012-12-11T10:00:14.000Z</time>
      </trkpt>
      <trkpt lat="46.00566" lon="6.30582">
        <ele>1445.4000244141</ele>
        <time>2012-12-11T10:00:19.000Z</time>
      </trkpt>
      <trkpt lat="46.00563" lon="6.30581">
        <ele>1445.4000244141</ele>
        <time>2012-12-11T10:00:24.000Z</time>
      </trkpt>
      <trkpt lat="46.00561" lon="6.30579">
        <ele>1445.4000244141</ele>
        <time>2012-12-11T10:00:29.000Z</time>
      </trkpt>
      <trkpt lat="46.00556" lon="6.30579">
        <ele>1445.4000244141</ele>
        <time>2012-12-11T10:00:35.000Z</time>
      </trkpt>
      <trkpt lat="46.00553" lon="6.3058">
        <ele>1446.4000244141</ele>
        <time>2012-12-11T10:00:39.000Z</time>
      </trkpt>
      <trkpt lat="46.00549" lon="6.30581">
        <ele>1446.8000488281</ele>
        <time>2012-12-11T10:00:43.000Z</time>
      </trkpt>
      <trkpt lat="46.00543" lon="6.30581">
        <ele>1446.8000488281</ele>
        <time>2012-12-11T10:00:50.000Z</time>
      </trkpt>
      <trkpt lat="46.00537" lon="6.30582">
        <ele>1447.8000488281</ele>
        <time>2012-12-11T10:00:57.000Z</time>
      </trkpt>
      <trkpt lat="46.00532" lon="6.30583">
        <ele>1447.8000488281</ele>
        <time>2012-12-11T10:01:03.000Z</time>
      </trkpt>
      <trkpt lat="46.00525" lon="6.30584">
        <ele>1445.8000488281</ele>
        <time>2012-12-11T10:01:10.000Z</time>
      </trkpt>
      <trkpt lat="46.00523" lon="6.30585">
        <ele>1445.4000244141</ele>
        <time>2012-12-11T10:01:11.000Z</time>
      </trkpt>
      <trkpt lat="46.00517" lon="6.30587">
        <ele>1445.8000488281</ele>
        <time>2012-12-11T10:01:17.000Z</time>
      </trkpt>
      <trkpt lat="46.00511" lon="6.30584">
        <ele>1448.1999511719</ele>
        <time>2012-12-11T10:01:23.000Z</time>
      </trkpt>
      <trkpt lat="46.00506" lon="6.30585">
        <ele>1448.1999511719</ele>
        <time>2012-12-11T10:01:29.000Z</time>
      </trkpt>
      <trkpt lat="46.00502" lon="6.30587">
        <ele>1448.8000488281</ele>
        <time>2012-12-11T10:01:34.000Z</time>
      </trkpt>
      <trkpt lat="46.00498" lon="6.30588">
        <ele>1448.8000488281</ele>
        <time>2012-12-11T10:01:40.000Z</time>
      </trkpt>
      <trkpt lat="46.00494" lon="6.30593">
        <ele>1449.8000488281</ele>
        <time>2012-12-11T10:01:47.000Z</time>
      </trkpt>
      <trkpt lat="46.0049" lon="6.30595">
        <ele>1451.1999511719</ele>
        <time>2012-12-11T10:01:52.000Z</time>
      </trkpt>
      <trkpt lat="46.00487" lon="6.30599">
        <ele>1452.5999755859</ele>
        <time>2012-12-11T10:01:56.000Z</time>
      </trkpt>
      <trkpt lat="46.00484" lon="6.30601">
        <ele>1454</ele>
        <time>2012-12-11T10:02:00.000Z</time>
      </trkpt>
      <trkpt lat="46.0048" lon="6.30603">
        <ele>1454.5999755859</ele>
        <time>2012-12-11T10:02:05.000Z</time>
      </trkpt>
      <trkpt lat="46.00476" lon="6.30607">
        <ele>1455</ele>
        <time>2012-12-11T10:02:12.000Z</time>
      </trkpt>
      <trkpt lat="46.00473" lon="6.30608">
        <ele>1455.4000244141</ele>
        <time>2012-12-11T10:02:16.000Z</time>
      </trkpt>
      <trkpt lat="46.00471" lon="6.30608">
        <ele>1456</ele>
        <time>2012-12-11T10:02:24.000Z</time>
      </trkpt>
      <trkpt lat="46.00469" lon="6.3061">
        <ele>1457.4000244141</ele>
        <time>2012-12-11T10:02:33.000Z</time>
      </trkpt>
      <trkpt lat="46.00463" lon="6.30611">
        <ele>1457.8000488281</ele>
        <time>2012-12-11T10:02:38.000Z</time>
      </trkpt>
      <trkpt lat="46.00461" lon="6.30611">
        <ele>1458.4000244141</ele>
        <time>2012-12-11T10:02:42.000Z</time>
      </trkpt>
      <trkpt lat="46.00458" lon="6.30611">
        <ele>1458.4000244141</ele>
        <time>2012-12-11T10:02:47.000Z</time>
      </trkpt>
      <trkpt lat="46.00457" lon="6.30612">
        <ele>1458.8000488281</ele>
        <time>2012-12-11T10:02:53.000Z</time>
      </trkpt>
      <trkpt lat="46.00457" lon="6.30614">
        <ele>1459.4000244141</ele>
        <time>2012-12-11T10:02:59.000Z</time>
      </trkpt>
      <trkpt lat="46.00456" lon="6.30618">
        <ele>1458.8000488281</ele>
        <time>2012-12-11T10:03:09.000Z</time>
      </trkpt>
      <trkpt lat="46.00457" lon="6.30625">
        <ele>1459.4000244141</ele>
        <time>2012-12-11T10:03:15.000Z</time>
      </trkpt>
      <trkpt lat="46.00458" lon="6.30629">
        <ele>1459.8000488281</ele>
        <time>2012-12-11T10:03:19.000Z</time>
      </trkpt>
      <trkpt lat="46.00458" lon="6.30631">
        <ele>1461.8000488281</ele>
        <time>2012-12-11T10:03:24.000Z</time>
      </trkpt>
      <trkpt lat="46.00459" lon="6.30636">
        <ele>1463.5999755859</ele>
        <time>2012-12-11T10:03:32.000Z</time>
      </trkpt>
      <trkpt lat="46.00458" lon="6.30636">
        <ele>1463.5999755859</ele>
        <time>2012-12-11T10:03:37.000Z</time>
      </trkpt>
      <trkpt lat="46.00458" lon="6.30636">
        <ele>1463.5999755859</ele>
        <time>2012-12-11T10:03:41.000Z</time>
      </trkpt>
      <trkpt lat="46.00457" lon="6.30634">
        <ele>1460.8000488281</ele>
        <time>2012-12-11T10:03:49.000Z</time>
      </trkpt>
      <trkpt lat="46.00456" lon="6.30632">
        <ele>1462.1999511719</ele>
        <time>2012-12-11T10:03:57.000Z</time>
      </trkpt>
      <trkpt lat="46.00457" lon="6.3063">
        <ele>1461.8000488281</ele>
        <time>2012-12-11T10:04:05.000Z</time>
      </trkpt>
      <trkpt lat="46.00456" lon="6.30629">
        <ele>1464.5999755859</ele>
        <time>2012-12-11T10:04:16.000Z</time>
      </trkpt>
      <trkpt lat="46.00457" lon="6.30631">
        <ele>1464.5999755859</ele>
        <time>2012-12-11T10:04:21.000Z</time>
      </trkpt>
      <trkpt lat="46.00457" lon="6.30635">
        <ele>1465</ele>
        <time>2012-12-11T10:04:26.000Z</time>
      </trkpt>
      <trkpt lat="46.00455" lon="6.30638">
        <ele>1463.5999755859</ele>
        <time>2012-12-11T10:04:29.000Z</time>
      </trkpt>
      <trkpt lat="46.00455" lon="6.30643">
        <ele>1463.1999511719</ele>
        <time>2012-12-11T10:04:35.000Z</time>
      </trkpt>
      <trkpt lat="46.00456" lon="6.30648">
        <ele>1462.1999511719</ele>
        <time>2012-12-11T10:04:40.000Z</time>
      </trkpt>
      <trkpt lat="46.00457" lon="6.30652">
        <ele>1462.1999511719</ele>
        <time>2012-12-11T10:04:45.000Z</time>
      </trkpt>
      <trkpt lat="46.00459" lon="6.30657">
        <ele>1461.8000488281</ele>
        <time>2012-12-11T10:04:49.000Z</time>
      </trkpt>
      <trkpt lat="46.0046" lon="6.30663">
        <ele>1462.1999511719</ele>
        <time>2012-12-11T10:04:55.000Z</time>
      </trkpt>
      <trkpt lat="46.00462" lon="6.3067">
        <ele>1461.8000488281</ele>
        <time>2012-12-11T10:05:01.000Z</time>
      </trkpt>
      <trkpt lat="46.00463" lon="6.30673">
        <ele>1462.1999511719</ele>
        <time>2012-12-11T10:05:04.000Z</time>
      </trkpt>
      <trkpt lat="46.00465" lon="6.30678">
        <ele>1463.1999511719</ele>
        <time>2012-12-11T10:05:08.000Z</time>
      </trkpt>
      <trkpt lat="46.00467" lon="6.30681">
        <ele>1464.5999755859</ele>
        <time>2012-12-11T10:05:12.000Z</time>
      </trkpt>
      <trkpt lat="46.0047" lon="6.30686">
        <ele>1466</ele>
        <time>2012-12-11T10:05:18.000Z</time>
      </trkpt>
      <trkpt lat="46.00473" lon="6.30689">
        <ele>1466.5999755859</ele>
        <time>2012-12-11T10:05:22.000Z</time>
      </trkpt>
      <trkpt lat="46.00476" lon="6.30692">
        <ele>1468</ele>
        <time>2012-12-11T10:05:27.000Z</time>
      </trkpt>
      <trkpt lat="46.00479" lon="6.30695">
        <ele>1468.4000244141</ele>
        <time>2012-12-11T10:05:31.000Z</time>
      </trkpt>
      <trkpt lat="46.0048" lon="6.30696">
        <ele>1469.4000244141</ele>
        <time>2012-12-11T10:05:34.000Z</time>
      </trkpt>
      <trkpt lat="46.00484" lon="6.307">
        <ele>1470.8000488281</ele>
        <time>2012-12-11T10:05:40.000Z</time>
      </trkpt>
      <trkpt lat="46.00487" lon="6.30701">
        <ele>1472.8000488281</ele>
        <time>2012-12-11T10:05:45.000Z</time>
      </trkpt>
      <trkpt lat="46.0049" lon="6.30704">
        <ele>1472.8000488281</ele>
        <time>2012-12-11T10:05:50.000Z</time>
      </trkpt>
      <trkpt lat="46.00495" lon="6.30708">
        <ele>1475.1999511719</ele>
        <time>2012-12-11T10:05:57.000Z</time>
      </trkpt>
      <trkpt lat="46.00497" lon="6.3071">
        <ele>1476.1999511719</ele>
        <time>2012-12-11T10:06:01.000Z</time>
      </trkpt>
      <trkpt lat="46.005" lon="6.30713">
        <ele>1477.1999511719</ele>
        <time>2012-12-11T10:06:07.000Z</time>
      </trkpt>
      <trkpt lat="46.00503" lon="6.30714">
        <ele>1479.5999755859</ele>
        <time>2012-12-11T10:06:14.000Z</time>
      </trkpt>
      <trkpt lat="46.00506" lon="6.30716">
        <ele>1480.4000244141</ele>
        <time>2012-12-11T10:06:21.000Z</time>
      </trkpt>
      <trkpt lat="46.00508" lon="6.30719">
        <ele>1481</ele>
        <time>2012-12-11T10:06:26.000Z</time>
      </trkpt>
      <trkpt lat="46.00511" lon="6.30719">
        <ele>1482.8000488281</ele>
        <time>2012-12-11T10:06:29.000Z</time>
      </trkpt>
      <trkpt lat="46.00517" lon="6.30722">
        <ele>1484.8000488281</ele>
        <time>2012-12-11T10:06:34.000Z</time>
      </trkpt>
      <trkpt lat="46.0052" lon="6.30725">
        <ele>1485.8000488281</ele>
        <time>2012-12-11T10:06:40.000Z</time>
      </trkpt>
      <trkpt lat="46.00522" lon="6.30728">
        <ele>1486.8000488281</ele>
        <time>2012-12-11T10:06:44.000Z</time>
      </trkpt>
      <trkpt lat="46.00524" lon="6.3073">
        <ele>1486.8000488281</ele>
        <time>2012-12-11T10:06:49.000Z</time>
      </trkpt>
      <trkpt lat="46.00527" lon="6.30731">
        <ele>1487.5999755859</ele>
        <time>2012-12-11T10:06:55.000Z</time>
      </trkpt>
      <trkpt lat="46.00531" lon="6.30733">
        <ele>1488.1999511719</ele>
        <time>2012-12-11T10:07:01.000Z</time>
      </trkpt>
      <trkpt lat="46.00534" lon="6.30734">
        <ele>1488.1999511719</ele>
        <time>2012-12-11T10:07:04.000Z</time>
      </trkpt>
      <trkpt lat="46.00537" lon="6.30735">
        <ele>1488.1999511719</ele>
        <time>2012-12-11T10:07:09.000Z</time>
      </trkpt>
      <trkpt lat="46.00542" lon="6.30734">
        <ele>1488.5999755859</ele>
        <time>2012-12-11T10:07:16.000Z</time>
      </trkpt>
      <trkpt lat="46.00545" lon="6.30734">
        <ele>1489.5999755859</ele>
        <time>2012-12-11T10:07:21.000Z</time>
      </trkpt>
      <trkpt lat="46.00547" lon="6.30735">
        <ele>1490.5999755859</ele>
        <time>2012-12-11T10:07:25.000Z</time>
      </trkpt>
      <trkpt lat="46.0055" lon="6.30736">
        <ele>1491</ele>
        <time>2012-12-11T10:07:30.000Z</time>
      </trkpt>
      <trkpt lat="46.00554" lon="6.30737">
        <ele>1492</ele>
        <time>2012-12-11T10:07:34.000Z</time>
      </trkpt>
      <trkpt lat="46.00555" lon="6.30739">
        <ele>1491.5999755859</ele>
        <time>2012-12-11T10:07:38.000Z</time>
      </trkpt>
      <trkpt lat="46.00557" lon="6.3074">
        <ele>1492</ele>
        <time>2012-12-11T10:07:42.000Z</time>
      </trkpt>
      <trkpt lat="46.00559" lon="6.30741">
        <ele>1492.4000244141</ele>
        <time>2012-12-11T10:07:45.000Z</time>
      </trkpt>
      <trkpt lat="46.00563" lon="6.30742">
        <ele>1493.4000244141</ele>
        <time>2012-12-11T10:07:50.000Z</time>
      </trkpt>
      <trkpt lat="46.00565" lon="6.30743">
        <ele>1494</ele>
        <time>2012-12-11T10:07:54.000Z</time>
      </trkpt>
      <trkpt lat="46.00568" lon="6.30744">
        <ele>1495.8000488281</ele>
        <time>2012-12-11T10:08:00.000Z</time>
      </trkpt>
      <trkpt lat="46.00572" lon="6.30744">
        <ele>1497.1999511719</ele>
        <time>2012-12-11T10:08:07.000Z</time>
      </trkpt>
      <trkpt lat="46.00574" lon="6.30744">
        <ele>1497.1999511719</ele>
        <time>2012-12-11T10:08:12.000Z</time>
      </trkpt>
      <trkpt lat="46.00577" lon="6.30744">
        <ele>1497.1999511719</ele>
        <time>2012-12-11T10:08:17.000Z</time>
      </trkpt>
      <trkpt lat="46.0058" lon="6.30745">
        <ele>1498.1999511719</ele>
        <time>2012-12-11T10:08:23.000Z</time>
      </trkpt>
      <trkpt lat="46.00583" lon="6.30747">
        <ele>1497.8000488281</ele>
        <time>2012-12-11T10:08:29.000Z</time>
      </trkpt>
      <trkpt lat="46.00586" lon="6.30748">
        <ele>1497.8000488281</ele>
        <time>2012-12-11T10:08:35.000Z</time>
      </trkpt>
      <trkpt lat="46.00588" lon="6.30749">
        <ele>1498.1999511719</ele>
        <time>2012-12-11T10:08:39.000Z</time>
      </trkpt>
      <trkpt lat="46.00593" lon="6.30752">
        <ele>1496.8000488281</ele>
        <time>2012-12-11T10:08:45.000Z</time>
      </trkpt>
      <trkpt lat="46.00598" lon="6.30755">
        <ele>1497.8000488281</ele>
        <time>2012-12-11T10:08:51.000Z</time>
      </trkpt>
      <trkpt lat="46.006" lon="6.30756">
        <ele>1500.5999755859</ele>
        <time>2012-12-11T10:08:56.000Z</time>
      </trkpt>
      <trkpt lat="46.00603" lon="6.30759">
        <ele>1501.1999511719</ele>
        <time>2012-12-11T10:09:01.000Z</time>
      </trkpt>
      <trkpt lat="46.00607" lon="6.30763">
        <ele>1502</ele>
        <time>2012-12-11T10:09:06.000Z</time>
      </trkpt>
      <trkpt lat="46.0061" lon="6.30765">
        <ele>1502.5999755859</ele>
        <time>2012-12-11T10:09:11.000Z</time>
      </trkpt>
      <trkpt lat="46.00615" lon="6.30768">
        <ele>1503.5999755859</ele>
        <time>2012-12-11T10:09:17.000Z</time>
      </trkpt>
      <trkpt lat="46.00618" lon="6.30769">
        <ele>1505</ele>
        <time>2012-12-11T10:09:23.000Z</time>
      </trkpt>
      <trkpt lat="46.00622" lon="6.3077">
        <ele>1506</ele>
        <time>2012-12-11T10:09:27.000Z</time>
      </trkpt>
      <trkpt lat="46.00626" lon="6.30772">
        <ele>1506.4000244141</ele>
        <time>2012-12-11T10:09:32.000Z</time>
      </trkpt>
      <trkpt lat="46.00627" lon="6.30773">
        <ele>1507.4000244141</ele>
        <time>2012-12-11T10:09:35.000Z</time>
      </trkpt>
      <trkpt lat="46.0063" lon="6.30775">
        <ele>1508.8000488281</ele>
        <time>2012-12-11T10:09:39.000Z</time>
      </trkpt>
      <trkpt lat="46.00633" lon="6.30778">
        <ele>1509.8000488281</ele>
        <time>2012-12-11T10:09:45.000Z</time>
      </trkpt>
      <trkpt lat="46.00639" lon="6.30782">
        <ele>1511.1999511719</ele>
        <time>2012-12-11T10:09:52.000Z</time>
      </trkpt>
      <trkpt lat="46.00644" lon="6.30786">
        <ele>1510.8000488281</ele>
        <time>2012-12-11T10:09:59.000Z</time>
      </trkpt>
      <trkpt lat="46.0065" lon="6.30791">
        <ele>1509.8000488281</ele>
        <time>2012-12-11T10:10:07.000Z</time>
      </trkpt>
      <trkpt lat="46.00654" lon="6.30793">
        <ele>1510.8000488281</ele>
        <time>2012-12-11T10:10:13.000Z</time>
      </trkpt>
      <trkpt lat="46.00657" lon="6.30794">
        <ele>1512.1999511719</ele>
        <time>2012-12-11T10:10:18.000Z</time>
      </trkpt>
      <trkpt lat="46.00661" lon="6.30799">
        <ele>1512.1999511719</ele>
        <time>2012-12-11T10:10:23.000Z</time>
      </trkpt>
      <trkpt lat="46.00665" lon="6.30803">
        <ele>1513.1999511719</ele>
        <time>2012-12-11T10:10:29.000Z</time>
      </trkpt>
      <trkpt lat="46.00668" lon="6.30805">
        <ele>1513.5999755859</ele>
        <time>2012-12-11T10:10:33.000Z</time>
      </trkpt>
      <trkpt lat="46.00672" lon="6.30811">
        <ele>1514.1999511719</ele>
        <time>2012-12-11T10:10:40.000Z</time>
      </trkpt>
      <trkpt lat="46.00675" lon="6.30816">
        <ele>1513.5999755859</ele>
        <time>2012-12-11T10:10:46.000Z</time>
      </trkpt>
      <trkpt lat="46.00677" lon="6.30821">
        <ele>1514.1999511719</ele>
        <time>2012-12-11T10:10:52.000Z</time>
      </trkpt>
      <trkpt lat="46.00679" lon="6.30826">
        <ele>1514.5999755859</ele>
        <time>2012-12-11T10:10:57.000Z</time>
      </trkpt>
      <trkpt lat="46.00681" lon="6.30831">
        <ele>1516.5999755859</ele>
        <time>2012-12-11T10:11:03.000Z</time>
      </trkpt>
      <trkpt lat="46.00682" lon="6.30837">
        <ele>1518</ele>
        <time>2012-12-11T10:11:09.000Z</time>
      </trkpt>
      <trkpt lat="46.00684" lon="6.30841">
        <ele>1519</ele>
        <time>2012-12-11T10:11:14.000Z</time>
      </trkpt>
      <trkpt lat="46.00684" lon="6.30846">
        <ele>1519</ele>
        <time>2012-12-11T10:11:19.000Z</time>
      </trkpt>
      <trkpt lat="46.00684" lon="6.3085">
        <ele>1519.4000244141</ele>
        <time>2012-12-11T10:11:25.000Z</time>
      </trkpt>
      <trkpt lat="46.00684" lon="6.30853">
        <ele>1520.4000244141</ele>
        <time>2012-12-11T10:11:29.000Z</time>
      </trkpt>
      <trkpt lat="46.00685" lon="6.30858">
        <ele>1521.8000488281</ele>
        <time>2012-12-11T10:11:34.000Z</time>
      </trkpt>
      <trkpt lat="46.00684" lon="6.30862">
        <ele>1523.8000488281</ele>
        <time>2012-12-11T10:11:39.000Z</time>
      </trkpt>
      <trkpt lat="46.00684" lon="6.30866">
        <ele>1524.5999755859</ele>
        <time>2012-12-11T10:11:43.000Z</time>
      </trkpt>
      <trkpt lat="46.00684" lon="6.3087">
        <ele>1524.5999755859</ele>
        <time>2012-12-11T10:11:47.000Z</time>
      </trkpt>
      <trkpt lat="46.00687" lon="6.30876">
        <ele>1524.1999511719</ele>
        <time>2012-12-11T10:11:52.000Z</time>
      </trkpt>
      <trkpt lat="46.00689" lon="6.3088">
        <ele>1524.5999755859</ele>
        <time>2012-12-11T10:11:56.000Z</time>
      </trkpt>
      <trkpt lat="46.0069" lon="6.30886">
        <ele>1525.5999755859</ele>
        <time>2012-12-11T10:12:03.000Z</time>
      </trkpt>
      <trkpt lat="46.00694" lon="6.30892">
        <ele>1526.5999755859</ele>
        <time>2012-12-11T10:12:08.000Z</time>
      </trkpt>
      <trkpt lat="46.00695" lon="6.30896">
        <ele>1527.5999755859</ele>
        <time>2012-12-11T10:12:13.000Z</time>
      </trkpt>
      <trkpt lat="46.00696" lon="6.30899">
        <ele>1529</ele>
        <time>2012-12-11T10:12:18.000Z</time>
      </trkpt>
      <trkpt lat="46.00697" lon="6.30903">
        <ele>1529.4000244141</ele>
        <time>2012-12-11T10:12:22.000Z</time>
      </trkpt>
      <trkpt lat="46.00697" lon="6.30908">
        <ele>1530</ele>
        <time>2012-12-11T10:12:26.000Z</time>
      </trkpt>
      <trkpt lat="46.00697" lon="6.30915">
        <ele>1529.4000244141</ele>
        <time>2012-12-11T10:12:32.000Z</time>
      </trkpt>
      <trkpt lat="46.00699" lon="6.30918">
        <ele>1530</ele>
        <time>2012-12-11T10:12:36.000Z</time>
      </trkpt>
      <trkpt lat="46.007" lon="6.30921">
        <ele>1530.4000244141</ele>
        <time>2012-12-11T10:12:41.000Z</time>
      </trkpt>
      <trkpt lat="46.007" lon="6.30925">
        <ele>1531</ele>
        <time>2012-12-11T10:12:46.000Z</time>
      </trkpt>
      <trkpt lat="46.00701" lon="6.3093">
        <ele>1531</ele>
        <time>2012-12-11T10:12:51.000Z</time>
      </trkpt>
      <trkpt lat="46.00704" lon="6.30934">
        <ele>1531</ele>
        <time>2012-12-11T10:12:56.000Z</time>
      </trkpt>
      <trkpt lat="46.00705" lon="6.30938">
        <ele>1530.4000244141</ele>
        <time>2012-12-11T10:13:00.000Z</time>
      </trkpt>
      <trkpt lat="46.00706" lon="6.30943">
        <ele>1530.4000244141</ele>
        <time>2012-12-11T10:13:05.000Z</time>
      </trkpt>
      <trkpt lat="46.00708" lon="6.30948">
        <ele>1531</ele>
        <time>2012-12-11T10:13:09.000Z</time>
      </trkpt>
      <trkpt lat="46.00709" lon="6.30953">
        <ele>1531.4000244141</ele>
        <time>2012-12-11T10:13:14.000Z</time>
      </trkpt>
      <trkpt lat="46.00711" lon="6.30956">
        <ele>1532.4000244141</ele>
        <time>2012-12-11T10:13:19.000Z</time>
      </trkpt>
      <trkpt lat="46.00712" lon="6.30958">
        <ele>1532.8000488281</ele>
        <time>2012-12-11T10:13:23.000Z</time>
      </trkpt>
      <trkpt lat="46.00711" lon="6.30963">
        <ele>1532.4000244141</ele>
        <time>2012-12-11T10:13:28.000Z</time>
      </trkpt>
      <trkpt lat="46.00709" lon="6.30964">
        <ele>1534.4000244141</ele>
        <time>2012-12-11T10:13:33.000Z</time>
      </trkpt>
      <trkpt lat="46.00707" lon="6.30963">
        <ele>1535.1999511719</ele>
        <time>2012-12-11T10:13:37.000Z</time>
      </trkpt>
      <trkpt lat="46.00705" lon="6.30961">
        <ele>1536.1999511719</ele>
        <time>2012-12-11T10:13:42.000Z</time>
      </trkpt>
      <trkpt lat="46.00702" lon="6.30959">
        <ele>1538.5999755859</ele>
        <time>2012-12-11T10:13:49.000Z</time>
      </trkpt>
      <trkpt lat="46.00699" lon="6.30957">
        <ele>1540.5999755859</ele>
        <time>2012-12-11T10:13:57.000Z</time>
      </trkpt>
      <trkpt lat="46.00698" lon="6.30956">
        <ele>1541</ele>
        <time>2012-12-11T10:14:02.000Z</time>
      </trkpt>
      <trkpt lat="46.00695" lon="6.30955">
        <ele>1542</ele>
        <time>2012-12-11T10:14:06.000Z</time>
      </trkpt>
      <trkpt lat="46.00693" lon="6.30954">
        <ele>1544</ele>
        <time>2012-12-11T10:14:10.000Z</time>
      </trkpt>
      <trkpt lat="46.00689" lon="6.30955">
        <ele>1544.4000244141</ele>
        <time>2012-12-11T10:14:15.000Z</time>
      </trkpt>
      <trkpt lat="46.00688" lon="6.30953">
        <ele>1545.4000244141</ele>
        <time>2012-12-11T10:14:19.000Z</time>
      </trkpt>
      <trkpt lat="46.00687" lon="6.30953">
        <ele>1546.4000244141</ele>
        <time>2012-12-11T10:14:24.000Z</time>
      </trkpt>
      <trkpt lat="46.00686" lon="6.30951">
        <ele>1546.8000488281</ele>
        <time>2012-12-11T10:14:30.000Z</time>
      </trkpt>
      <trkpt lat="46.00683" lon="6.3095">
        <ele>1546.8000488281</ele>
        <time>2012-12-11T10:14:36.000Z</time>
      </trkpt>
      <trkpt lat="46.00681" lon="6.30951">
        <ele>1546.8000488281</ele>
        <time>2012-12-11T10:14:41.000Z</time>
      </trkpt>
      <trkpt lat="46.00677" lon="6.30952">
        <ele>1547.1999511719</ele>
        <time>2012-12-11T10:14:46.000Z</time>
      </trkpt>
      <trkpt lat="46.00675" lon="6.30951">
        <ele>1547.8000488281</ele>
        <time>2012-12-11T10:14:50.000Z</time>
      </trkpt>
      <trkpt lat="46.00672" lon="6.30951">
        <ele>1548.1999511719</ele>
        <time>2012-12-11T10:14:57.000Z</time>
      </trkpt>
      <trkpt lat="46.0067" lon="6.30953">
        <ele>1548.8000488281</ele>
        <time>2012-12-11T10:15:02.000Z</time>
      </trkpt>
      <trkpt lat="46.00668" lon="6.30952">
        <ele>1549.5999755859</ele>
        <time>2012-12-11T10:15:07.000Z</time>
      </trkpt>
      <trkpt lat="46.00665" lon="6.30951">
        <ele>1551.1999511719</ele>
        <time>2012-12-11T10:15:11.000Z</time>
      </trkpt>
      <trkpt lat="46.00663" lon="6.30951">
        <ele>1552</ele>
        <time>2012-12-11T10:15:14.000Z</time>
      </trkpt>
      <trkpt lat="46.0066" lon="6.30951">
        <ele>1552.5999755859</ele>
        <time>2012-12-11T10:15:20.000Z</time>
      </trkpt>
      <trkpt lat="46.00657" lon="6.3095">
        <ele>1552.5999755859</ele>
        <time>2012-12-11T10:15:25.000Z</time>
      </trkpt>
      <trkpt lat="46.00655" lon="6.30949">
        <ele>1552.5999755859</ele>
        <time>2012-12-11T10:15:30.000Z</time>
      </trkpt>
      <trkpt lat="46.00653" lon="6.30949">
        <ele>1553</ele>
        <time>2012-12-11T10:15:35.000Z</time>
      </trkpt>
      <trkpt lat="46.0065" lon="6.30948">
        <ele>1553.5999755859</ele>
        <time>2012-12-11T10:15:41.000Z</time>
      </trkpt>
      <trkpt lat="46.00647" lon="6.30948">
        <ele>1554.4000244141</ele>
        <time>2012-12-11T10:15:45.000Z</time>
      </trkpt>
      <trkpt lat="46.00644" lon="6.30947">
        <ele>1556</ele>
        <time>2012-12-11T10:15:50.000Z</time>
      </trkpt>
      <trkpt lat="46.00644" lon="6.30947">
        <ele>1556.4000244141</ele>
        <time>2012-12-11T10:15:53.000Z</time>
      </trkpt>
      <trkpt lat="46.00642" lon="6.30947">
        <ele>1556.4000244141</ele>
        <time>2012-12-11T10:15:57.000Z</time>
      </trkpt>
      <trkpt lat="46.00639" lon="6.30947">
        <ele>1557.4000244141</ele>
        <time>2012-12-11T10:16:00.000Z</time>
      </trkpt>
      <trkpt lat="46.00636" lon="6.30946">
        <ele>1558.8000488281</ele>
        <time>2012-12-11T10:16:06.000Z</time>
      </trkpt>
      <trkpt lat="46.00636" lon="6.30946">
        <ele>1559.1999511719</ele>
        <time>2012-12-11T10:16:11.000Z</time>
      </trkpt>
      <trkpt lat="46.00638" lon="6.30949">
        <ele>1559.1999511719</ele>
        <time>2012-12-11T10:16:16.000Z</time>
      </trkpt>
      <trkpt lat="46.0064" lon="6.30953">
        <ele>1560.1999511719</ele>
        <time>2012-12-11T10:16:22.000Z</time>
      </trkpt>
      <trkpt lat="46.00642" lon="6.30956">
        <ele>1560.8000488281</ele>
        <time>2012-12-11T10:16:26.000Z</time>
      </trkpt>
      <trkpt lat="46.00644" lon="6.30961">
        <ele>1560.8000488281</ele>
        <time>2012-12-11T10:16:32.000Z</time>
      </trkpt>
      <trkpt lat="46.00645" lon="6.30966">
        <ele>1561.1999511719</ele>
        <time>2012-12-11T10:16:37.000Z</time>
      </trkpt>
      <trkpt lat="46.00646" lon="6.30969">
        <ele>1561.5999755859</ele>
        <time>2012-12-11T10:16:41.000Z</time>
      </trkpt>
      <trkpt lat="46.00647" lon="6.30975">
        <ele>1562.5999755859</ele>
        <time>2012-12-11T10:16:47.000Z</time>
      </trkpt>
      <trkpt lat="46.00647" lon="6.30979">
        <ele>1564.1999511719</ele>
        <time>2012-12-11T10:16:52.000Z</time>
      </trkpt>
      <trkpt lat="46.00645" lon="6.30978">
        <ele>1564.1999511719</ele>
        <time>2012-12-11T10:16:55.000Z</time>
      </trkpt>
      <trkpt lat="46.00642" lon="6.30976">
        <ele>1565.5999755859</ele>
        <time>2012-12-11T10:16:59.000Z</time>
      </trkpt>
      <trkpt lat="46.00637" lon="6.30973">
        <ele>1567</ele>
        <time>2012-12-11T10:17:04.000Z</time>
      </trkpt>
      <trkpt lat="46.00634" lon="6.3097">
        <ele>1568</ele>
        <time>2012-12-11T10:17:09.000Z</time>
      </trkpt>
      <trkpt lat="46.00631" lon="6.30969">
        <ele>1568</ele>
        <time>2012-12-11T10:17:14.000Z</time>
      </trkpt>
      <trkpt lat="46.00627" lon="6.30966">
        <ele>1568.4000244141</ele>
        <time>2012-12-11T10:17:20.000Z</time>
      </trkpt>
      <trkpt lat="46.00623" lon="6.30966">
        <ele>1569</ele>
        <time>2012-12-11T10:17:24.000Z</time>
      </trkpt>
      <trkpt lat="46.00619" lon="6.30966">
        <ele>1570.4000244141</ele>
        <time>2012-12-11T10:17:30.000Z</time>
      </trkpt>
      <trkpt lat="46.00616" lon="6.30965">
        <ele>1570.4000244141</ele>
        <time>2012-12-11T10:17:35.000Z</time>
      </trkpt>
      <trkpt lat="46.00614" lon="6.30965">
        <ele>1570.4000244141</ele>
        <time>2012-12-11T10:17:40.000Z</time>
      </trkpt>
      <trkpt lat="46.0061" lon="6.30963">
        <ele>1570.4000244141</ele>
        <time>2012-12-11T10:17:46.000Z</time>
      </trkpt>
      <trkpt lat="46.00607" lon="6.30961">
        <ele>1570.8000488281</ele>
        <time>2012-12-11T10:17:52.000Z</time>
      </trkpt>
      <trkpt lat="46.00603" lon="6.30961">
        <ele>1571.8000488281</ele>
        <time>2012-12-11T10:17:58.000Z</time>
      </trkpt>
      <trkpt lat="46.006" lon="6.3096">
        <ele>1572.8000488281</ele>
        <time>2012-12-11T10:18:04.000Z</time>
      </trkpt>
      <trkpt lat="46.00596" lon="6.30961">
        <ele>1573.1999511719</ele>
        <time>2012-12-11T10:18:09.000Z</time>
      </trkpt>
      <trkpt lat="46.00593" lon="6.30962">
        <ele>1574.1999511719</ele>
        <time>2012-12-11T10:18:13.000Z</time>
      </trkpt>
      <trkpt lat="46.00589" lon="6.30961">
        <ele>1576.1999511719</ele>
        <time>2012-12-11T10:18:19.000Z</time>
      </trkpt>
      <trkpt lat="46.00585" lon="6.30961">
        <ele>1577.5999755859</ele>
        <time>2012-12-11T10:18:25.000Z</time>
      </trkpt>
      <trkpt lat="46.00582" lon="6.3096">
        <ele>1578</ele>
        <time>2012-12-11T10:18:30.000Z</time>
      </trkpt>
      <trkpt lat="46.00581" lon="6.30959">
        <ele>1579</ele>
        <time>2012-12-11T10:18:34.000Z</time>
      </trkpt>
      <trkpt lat="46.00577" lon="6.30957">
        <ele>1580</ele>
        <time>2012-12-11T10:18:40.000Z</time>
      </trkpt>
      <trkpt lat="46.00574" lon="6.30955">
        <ele>1580</ele>
        <time>2012-12-11T10:18:46.000Z</time>
      </trkpt>
      <trkpt lat="46.00571" lon="6.30954">
        <ele>1579.4000244141</ele>
        <time>2012-12-11T10:18:52.000Z</time>
      </trkpt>
      <trkpt lat="46.00566" lon="6.30953">
        <ele>1581</ele>
        <time>2012-12-11T10:18:59.000Z</time>
      </trkpt>
      <trkpt lat="46.00562" lon="6.30953">
        <ele>1582.4000244141</ele>
        <time>2012-12-11T10:19:05.000Z</time>
      </trkpt>
      <trkpt lat="46.0056" lon="6.30951">
        <ele>1583.8000488281</ele>
        <time>2012-12-11T10:19:10.000Z</time>
      </trkpt>
      <trkpt lat="46.00556" lon="6.30948">
        <ele>1583.8000488281</ele>
        <time>2012-12-11T10:19:16.000Z</time>
      </trkpt>
      <trkpt lat="46.00552" lon="6.30947">
        <ele>1582.4000244141</ele>
        <time>2012-12-11T10:19:21.000Z</time>
      </trkpt>
      <trkpt lat="46.0055" lon="6.30946">
        <ele>1582.8000488281</ele>
        <time>2012-12-11T10:19:25.000Z</time>
      </trkpt>
      <trkpt lat="46.00548" lon="6.30945">
        <ele>1583.8000488281</ele>
        <time>2012-12-11T10:19:30.000Z</time>
      </trkpt>
      <trkpt lat="46.00544" lon="6.30945">
        <ele>1583.8000488281</ele>
        <time>2012-12-11T10:19:35.000Z</time>
      </trkpt>
      <trkpt lat="46.00542" lon="6.30945">
        <ele>1584.1999511719</ele>
        <time>2012-12-11T10:19:41.000Z</time>
      </trkpt>
      <trkpt lat="46.00539" lon="6.30944">
        <ele>1585.8000488281</ele>
        <time>2012-12-11T10:19:46.000Z</time>
      </trkpt>
      <trkpt lat="46.00537" lon="6.30943">
        <ele>1588.1999511719</ele>
        <time>2012-12-11T10:19:52.000Z</time>
      </trkpt>
      <trkpt lat="46.00539" lon="6.30945">
        <ele>1589.5999755859</ele>
        <time>2012-12-11T10:19:58.000Z</time>
      </trkpt>
      <trkpt lat="46.00541" lon="6.30948">
        <ele>1589.5999755859</ele>
        <time>2012-12-11T10:20:03.000Z</time>
      </trkpt>
      <trkpt lat="46.00543" lon="6.30953">
        <ele>1589.5999755859</ele>
        <time>2012-12-11T10:20:08.000Z</time>
      </trkpt>
      <trkpt lat="46.00545" lon="6.30958">
        <ele>1589.5999755859</ele>
        <time>2012-12-11T10:20:15.000Z</time>
      </trkpt>
      <trkpt lat="46.00546" lon="6.3096">
        <ele>1591.4000244141</ele>
        <time>2012-12-11T10:20:19.000Z</time>
      </trkpt>
      <trkpt lat="46.00546" lon="6.30964">
        <ele>1592.4000244141</ele>
        <time>2012-12-11T10:20:23.000Z</time>
      </trkpt>
      <trkpt lat="46.00547" lon="6.30968">
        <ele>1594</ele>
        <time>2012-12-11T10:20:28.000Z</time>
      </trkpt>
      <trkpt lat="46.00549" lon="6.30972">
        <ele>1594.8000488281</ele>
        <time>2012-12-11T10:20:33.000Z</time>
      </trkpt>
      <trkpt lat="46.0055" lon="6.30976">
        <ele>1594.8000488281</ele>
        <time>2012-12-11T10:20:38.000Z</time>
      </trkpt>
      <trkpt lat="46.00551" lon="6.30978">
        <ele>1594.4000244141</ele>
        <time>2012-12-11T10:20:43.000Z</time>
      </trkpt>
      <trkpt lat="46.00552" lon="6.30982">
        <ele>1594.8000488281</ele>
        <time>2012-12-11T10:20:48.000Z</time>
      </trkpt>
      <trkpt lat="46.00554" lon="6.30987">
        <ele>1594.8000488281</ele>
        <time>2012-12-11T10:20:53.000Z</time>
      </trkpt>
      <trkpt lat="46.00557" lon="6.30991">
        <ele>1596.8000488281</ele>
        <time>2012-12-11T10:20:58.000Z</time>
      </trkpt>
      <trkpt lat="46.00559" lon="6.30995">
        <ele>1596.8000488281</ele>
        <time>2012-12-11T10:21:03.000Z</time>
      </trkpt>
      <trkpt lat="46.00561" lon="6.31">
        <ele>1597.8000488281</ele>
        <time>2012-12-11T10:21:10.000Z</time>
      </trkpt>
      <trkpt lat="46.00564" lon="6.31003">
        <ele>1597.8000488281</ele>
        <time>2012-12-11T10:21:15.000Z</time>
      </trkpt>
      <trkpt lat="46.00566" lon="6.31007">
        <ele>1598.8000488281</ele>
        <time>2012-12-11T10:21:20.000Z</time>
      </trkpt>
      <trkpt lat="46.00568" lon="6.3101">
        <ele>1599.1999511719</ele>
        <time>2012-12-11T10:21:26.000Z</time>
      </trkpt>
      <trkpt lat="46.0057" lon="6.31013">
        <ele>1599.5999755859</ele>
        <time>2012-12-11T10:21:32.000Z</time>
      </trkpt>
      <trkpt lat="46.00573" lon="6.31016">
        <ele>1600.1999511719</ele>
        <time>2012-12-11T10:21:37.000Z</time>
      </trkpt>
      <trkpt lat="46.00575" lon="6.31019">
        <ele>1600.5999755859</ele>
        <time>2012-12-11T10:21:42.000Z</time>
      </trkpt>
      <trkpt lat="46.00577" lon="6.31023">
        <ele>1600.1999511719</ele>
        <time>2012-12-11T10:21:47.000Z</time>
      </trkpt>
      <trkpt lat="46.00581" lon="6.31028">
        <ele>1599.5999755859</ele>
        <time>2012-12-11T10:21:53.000Z</time>
      </trkpt>
      <trkpt lat="46.00581" lon="6.31034">
        <ele>1599.1999511719</ele>
        <time>2012-12-11T10:22:00.000Z</time>
      </trkpt>
      <trkpt lat="46.00582" lon="6.31037">
        <ele>1601.1999511719</ele>
        <time>2012-12-11T10:22:05.000Z</time>
      </trkpt>
      <trkpt lat="46.00585" lon="6.31042">
        <ele>1601.5999755859</ele>
        <time>2012-12-11T10:22:09.000Z</time>
      </trkpt>
      <trkpt lat="46.00586" lon="6.31047">
        <ele>1603</ele>
        <time>2012-12-11T10:22:14.000Z</time>
      </trkpt>
      <trkpt lat="46.00587" lon="6.3105">
        <ele>1604.4000244141</ele>
        <time>2012-12-11T10:22:19.000Z</time>
      </trkpt>
      <trkpt lat="46.00588" lon="6.31051">
        <ele>1606.4000244141</ele>
        <time>2012-12-11T10:22:25.000Z</time>
      </trkpt>
      <trkpt lat="46.00587" lon="6.31051">
        <ele>1611.1999511719</ele>
        <time>2012-12-11T10:22:34.000Z</time>
      </trkpt>
      <trkpt lat="46.00592" lon="6.31051">
        <ele>1619.4000244141</ele>
        <time>2012-12-11T10:22:51.000Z</time>
      </trkpt>
      <trkpt lat="46.00598" lon="6.31048">
        <ele>1622.1999511719</ele>
        <time>2012-12-11T10:23:08.000Z</time>
      </trkpt>
      <trkpt lat="46.00597" lon="6.31049">
        <ele>1622.1999511719</ele>
        <time>2012-12-11T10:23:15.000Z</time>
      </trkpt>
      <trkpt lat="46.00597" lon="6.3105">
        <ele>1621.8000488281</ele>
        <time>2012-12-11T10:23:22.000Z</time>
      </trkpt>
      <trkpt lat="46.00596" lon="6.31051">
        <ele>1620.4000244141</ele>
        <time>2012-12-11T10:23:29.000Z</time>
      </trkpt>
      <trkpt lat="46.00596" lon="6.31053">
        <ele>1619.8000488281</ele>
        <time>2012-12-11T10:23:35.000Z</time>
      </trkpt>
      <trkpt lat="46.00595" lon="6.31054">
        <ele>1618.8000488281</ele>
        <time>2012-12-11T10:23:42.000Z</time>
      </trkpt>
      <trkpt lat="46.00593" lon="6.31055">
        <ele>1618</ele>
        <time>2012-12-11T10:23:48.000Z</time>
      </trkpt>
      <trkpt lat="46.00593" lon="6.31056">
        <ele>1617.4000244141</ele>
        <time>2012-12-11T10:23:50.000Z</time>
      </trkpt>
      <trkpt lat="46.00594" lon="6.3106">
        <ele>1617</ele>
        <time>2012-12-11T10:23:55.000Z</time>
      </trkpt>
      <trkpt lat="46.00594" lon="6.31064">
        <ele>1616</ele>
        <time>2012-12-11T10:23:59.000Z</time>
      </trkpt>
      <trkpt lat="46.00595" lon="6.3107">
        <ele>1616</ele>
        <time>2012-12-11T10:24:04.000Z</time>
      </trkpt>
      <trkpt lat="46.00596" lon="6.31074">
        <ele>1616</ele>
        <time>2012-12-11T10:24:10.000Z</time>
      </trkpt>
      <trkpt lat="46.00595" lon="6.31079">
        <ele>1616</ele>
        <time>2012-12-11T10:24:18.000Z</time>
      </trkpt>
      <trkpt lat="46.00596" lon="6.31084">
        <ele>1615.5999755859</ele>
        <time>2012-12-11T10:24:24.000Z</time>
      </trkpt>
      <trkpt lat="46.00597" lon="6.31088">
        <ele>1616.4000244141</ele>
        <time>2012-12-11T10:24:29.000Z</time>
      </trkpt>
      <trkpt lat="46.00599" lon="6.31093">
        <ele>1617.4000244141</ele>
        <time>2012-12-11T10:24:34.000Z</time>
      </trkpt>
      <trkpt lat="46.006" lon="6.31096">
        <ele>1616</ele>
        <time>2012-12-11T10:24:38.000Z</time>
      </trkpt>
      <trkpt lat="46.00599" lon="6.31103">
        <ele>1615.5999755859</ele>
        <time>2012-12-11T10:24:47.000Z</time>
      </trkpt>
      <trkpt lat="46.00599" lon="6.31106">
        <ele>1616</ele>
        <time>2012-12-11T10:24:52.000Z</time>
      </trkpt>
      <trkpt lat="46.00597" lon="6.31109">
        <ele>1617</ele>
        <time>2012-12-11T10:24:56.000Z</time>
      </trkpt>
      <trkpt lat="46.00598" lon="6.31114">
        <ele>1616.4000244141</ele>
        <time>2012-12-11T10:25:02.000Z</time>
      </trkpt>
      <trkpt lat="46.00598" lon="6.31118">
        <ele>1616.4000244141</ele>
        <time>2012-12-11T10:25:08.000Z</time>
      </trkpt>
      <trkpt lat="46.00599" lon="6.31121">
        <ele>1617</ele>
        <time>2012-12-11T10:25:13.000Z</time>
      </trkpt>
      <trkpt lat="46.00599" lon="6.31125">
        <ele>1617</ele>
        <time>2012-12-11T10:25:20.000Z</time>
      </trkpt>
      <trkpt lat="46.00599" lon="6.31127">
        <ele>1617</ele>
        <time>2012-12-11T10:25:26.000Z</time>
      </trkpt>
      <trkpt lat="46.00599" lon="6.3113">
        <ele>1616</ele>
        <time>2012-12-11T10:25:32.000Z</time>
      </trkpt>
      <trkpt lat="46.006" lon="6.31132">
        <ele>1616.4000244141</ele>
        <time>2012-12-11T10:25:36.000Z</time>
      </trkpt>
      <trkpt lat="46.00601" lon="6.31136">
        <ele>1617.4000244141</ele>
        <time>2012-12-11T10:25:41.000Z</time>
      </trkpt>
      <trkpt lat="46.00602" lon="6.31138">
        <ele>1618.4000244141</ele>
        <time>2012-12-11T10:25:45.000Z</time>
      </trkpt>
      <trkpt lat="46.00603" lon="6.31144">
        <ele>1618</ele>
        <time>2012-12-11T10:25:55.000Z</time>
      </trkpt>
      <trkpt lat="46.00604" lon="6.31148">
        <ele>1618</ele>
        <time>2012-12-11T10:26:00.000Z</time>
      </trkpt>
      <trkpt lat="46.00605" lon="6.31152">
        <ele>1619.4000244141</ele>
        <time>2012-12-11T10:26:07.000Z</time>
      </trkpt>
      <trkpt lat="46.00606" lon="6.31156">
        <ele>1620.8000488281</ele>
        <time>2012-12-11T10:26:12.000Z</time>
      </trkpt>
      <trkpt lat="46.00606" lon="6.31161">
        <ele>1621.8000488281</ele>
        <time>2012-12-11T10:26:17.000Z</time>
      </trkpt>
      <trkpt lat="46.00606" lon="6.31164">
        <ele>1621.8000488281</ele>
        <time>2012-12-11T10:26:21.000Z</time>
      </trkpt>
      <trkpt lat="46.00607" lon="6.31168">
        <ele>1622.1999511719</ele>
        <time>2012-12-11T10:26:26.000Z</time>
      </trkpt>
      <trkpt lat="46.00608" lon="6.31171">
        <ele>1623.1999511719</ele>
        <time>2012-12-11T10:26:30.000Z</time>
      </trkpt>
      <trkpt lat="46.00608" lon="6.31175">
        <ele>1623.8000488281</ele>
        <time>2012-12-11T10:26:35.000Z</time>
      </trkpt>
      <trkpt lat="46.00608" lon="6.31178">
        <ele>1622.8000488281</ele>
        <time>2012-12-11T10:26:38.000Z</time>
      </trkpt>
      <trkpt lat="46.00607" lon="6.31179">
        <ele>1622.1999511719</ele>
        <time>2012-12-11T10:26:44.000Z</time>
      </trkpt>
      <trkpt lat="46.00608" lon="6.3118">
        <ele>1622.1999511719</ele>
        <time>2012-12-11T10:26:53.000Z</time>
      </trkpt>
      <trkpt lat="46.00609" lon="6.31183">
        <ele>1623.8000488281</ele>
        <time>2012-12-11T10:26:58.000Z</time>
      </trkpt>
      <trkpt lat="46.0061" lon="6.31183">
        <ele>1627.5999755859</ele>
        <time>2012-12-11T10:27:07.000Z</time>
      </trkpt>
      <trkpt lat="46.00612" lon="6.31187">
        <ele>1631.8000488281</ele>
        <time>2012-12-11T10:27:16.000Z</time>
      </trkpt>
      <trkpt lat="46.00613" lon="6.31188">
        <ele>1631.8000488281</ele>
        <time>2012-12-11T10:27:21.000Z</time>
      </trkpt>
      <trkpt lat="46.00614" lon="6.31187">
        <ele>1632.8000488281</ele>
        <time>2012-12-11T10:27:32.000Z</time>
      </trkpt>
      <trkpt lat="46.00614" lon="6.31185">
        <ele>1632.4000244141</ele>
        <time>2012-12-11T10:28:03.000Z</time>
      </trkpt>
      <trkpt lat="46.00612" lon="6.31186">
        <ele>1628.5999755859</ele>
        <time>2012-12-11T10:29:18.000Z</time>
      </trkpt>
      <trkpt lat="46.00613" lon="6.3119">
        <ele>1628</ele>
        <time>2012-12-11T10:29:49.000Z</time>
      </trkpt>
      <trkpt lat="46.00612" lon="6.31192">
        <ele>1628.5999755859</ele>
        <time>2012-12-11T10:29:52.000Z</time>
      </trkpt>
      <trkpt lat="46.00614" lon="6.31194">
        <ele>1628</ele>
        <time>2012-12-11T10:29:56.000Z</time>
      </trkpt>
      <trkpt lat="46.00615" lon="6.31198">
        <ele>1629.4000244141</ele>
        <time>2012-12-11T10:30:01.000Z</time>
      </trkpt>
      <trkpt lat="46.00616" lon="6.31202">
        <ele>1630.4000244141</ele>
        <time>2012-12-11T10:30:06.000Z</time>
      </trkpt>
      <trkpt lat="46.00617" lon="6.31206">
        <ele>1631.4000244141</ele>
        <time>2012-12-11T10:30:12.000Z</time>
      </trkpt>
      <trkpt lat="46.00617" lon="6.31209">
        <ele>1632.4000244141</ele>
        <time>2012-12-11T10:30:17.000Z</time>
      </trkpt>
      <trkpt lat="46.00616" lon="6.31216">
        <ele>1632.4000244141</ele>
        <time>2012-12-11T10:30:23.000Z</time>
      </trkpt>
      <trkpt lat="46.00618" lon="6.31219">
        <ele>1634.1999511719</ele>
        <time>2012-12-11T10:30:27.000Z</time>
      </trkpt>
      <trkpt lat="46.00618" lon="6.3122">
        <ele>1634.8000488281</ele>
        <time>2012-12-11T10:30:30.000Z</time>
      </trkpt>
      <trkpt lat="46.00622" lon="6.31221">
        <ele>1635.1999511719</ele>
        <time>2012-12-11T10:30:32.000Z</time>
      </trkpt>
      <trkpt lat="46.00624" lon="6.31225">
        <ele>1637.5999755859</ele>
        <time>2012-12-11T10:30:37.000Z</time>
      </trkpt>
      <trkpt lat="46.00625" lon="6.3123">
        <ele>1638.5999755859</ele>
        <time>2012-12-11T10:30:43.000Z</time>
      </trkpt>
      <trkpt lat="46.00628" lon="6.31234">
        <ele>1638.5999755859</ele>
        <time>2012-12-11T10:30:49.000Z</time>
      </trkpt>
      <trkpt lat="46.00629" lon="6.31237">
        <ele>1639</ele>
        <time>2012-12-11T10:30:55.000Z</time>
      </trkpt>
      <trkpt lat="46.0063" lon="6.31241">
        <ele>1638.5999755859</ele>
        <time>2012-12-11T10:31:01.000Z</time>
      </trkpt>
      <trkpt lat="46.00631" lon="6.31244">
        <ele>1639.5999755859</ele>
        <time>2012-12-11T10:31:06.000Z</time>
      </trkpt>
      <trkpt lat="46.00633" lon="6.31248">
        <ele>1640.5999755859</ele>
        <time>2012-12-11T10:31:11.000Z</time>
      </trkpt>
      <trkpt lat="46.00634" lon="6.31251">
        <ele>1641.4000244141</ele>
        <time>2012-12-11T10:31:16.000Z</time>
      </trkpt>
      <trkpt lat="46.00635" lon="6.31254">
        <ele>1642</ele>
        <time>2012-12-11T10:31:22.000Z</time>
      </trkpt>
      <trkpt lat="46.00637" lon="6.31258">
        <ele>1642.4000244141</ele>
        <time>2012-12-11T10:31:27.000Z</time>
      </trkpt>
      <trkpt lat="46.00639" lon="6.31263">
        <ele>1643.4000244141</ele>
        <time>2012-12-11T10:31:34.000Z</time>
      </trkpt>
      <trkpt lat="46.00641" lon="6.31265">
        <ele>1647.1999511719</ele>
        <time>2012-12-11T10:31:39.000Z</time>
      </trkpt>
      <trkpt lat="46.00643" lon="6.31268">
        <ele>1648.1999511719</ele>
        <time>2012-12-11T10:31:44.000Z</time>
      </trkpt>
      <trkpt lat="46.00644" lon="6.31271">
        <ele>1648.5999755859</ele>
        <time>2012-12-11T10:31:49.000Z</time>
      </trkpt>
      <trkpt lat="46.00644" lon="6.31275">
        <ele>1649.1999511719</ele>
        <time>2012-12-11T10:31:55.000Z</time>
      </trkpt>
      <trkpt lat="46.00645" lon="6.31278">
        <ele>1649.1999511719</ele>
        <time>2012-12-11T10:32:04.000Z</time>
      </trkpt>
      <trkpt lat="46.00644" lon="6.31279">
        <ele>1648.1999511719</ele>
        <time>2012-12-11T10:32:09.000Z</time>
      </trkpt>
      <trkpt lat="46.00646" lon="6.31283">
        <ele>1648.1999511719</ele>
        <time>2012-12-11T10:32:14.000Z</time>
      </trkpt>
      <trkpt lat="46.00647" lon="6.31286">
        <ele>1649.5999755859</ele>
        <time>2012-12-11T10:32:20.000Z</time>
      </trkpt>
      <trkpt lat="46.00649" lon="6.31289">
        <ele>1650.5999755859</ele>
        <time>2012-12-11T10:32:25.000Z</time>
      </trkpt>
      <trkpt lat="46.0065" lon="6.31292">
        <ele>1651.1999511719</ele>
        <time>2012-12-11T10:32:32.000Z</time>
      </trkpt>
      <trkpt lat="46.00652" lon="6.31295">
        <ele>1651.5999755859</ele>
        <time>2012-12-11T10:32:37.000Z</time>
      </trkpt>
      <trkpt lat="46.00653" lon="6.31297">
        <ele>1652.5999755859</ele>
        <time>2012-12-11T10:32:43.000Z</time>
      </trkpt>
      <trkpt lat="46.00654" lon="6.31299">
        <ele>1654</ele>
        <time>2012-12-11T10:32:50.000Z</time>
      </trkpt>
      <trkpt lat="46.00656" lon="6.31303">
        <ele>1653.5999755859</ele>
        <time>2012-12-11T10:32:56.000Z</time>
      </trkpt>
      <trkpt lat="46.00659" lon="6.31307">
        <ele>1653</ele>
        <time>2012-12-11T10:33:02.000Z</time>
      </trkpt>
      <trkpt lat="46.0066" lon="6.31311">
        <ele>1653</ele>
        <time>2012-12-11T10:33:07.000Z</time>
      </trkpt>
      <trkpt lat="46.00661" lon="6.31314">
        <ele>1654</ele>
        <time>2012-12-11T10:33:13.000Z</time>
      </trkpt>
      <trkpt lat="46.00663" lon="6.31318">
        <ele>1655.4000244141</ele>
        <time>2012-12-11T10:33:19.000Z</time>
      </trkpt>
      <trkpt lat="46.00664" lon="6.31322">
        <ele>1655.4000244141</ele>
        <time>2012-12-11T10:33:24.000Z</time>
      </trkpt>
      <trkpt lat="46.00665" lon="6.31326">
        <ele>1656.4000244141</ele>
        <time>2012-12-11T10:33:29.000Z</time>
      </trkpt>
      <trkpt lat="46.00665" lon="6.31329">
        <ele>1656</ele>
        <time>2012-12-11T10:33:34.000Z</time>
      </trkpt>
      <trkpt lat="46.00666" lon="6.31334">
        <ele>1657.4000244141</ele>
        <time>2012-12-11T10:33:41.000Z</time>
      </trkpt>
      <trkpt lat="46.00667" lon="6.31337">
        <ele>1658.4000244141</ele>
        <time>2012-12-11T10:33:45.000Z</time>
      </trkpt>
      <trkpt lat="46.00668" lon="6.3134">
        <ele>1659.8000488281</ele>
        <time>2012-12-11T10:33:51.000Z</time>
      </trkpt>
      <trkpt lat="46.00668" lon="6.31342">
        <ele>1660.1999511719</ele>
        <time>2012-12-11T10:33:55.000Z</time>
      </trkpt>
      <trkpt lat="46.00668" lon="6.31344">
        <ele>1660.8000488281</ele>
        <time>2012-12-11T10:34:02.000Z</time>
      </trkpt>
      <trkpt lat="46.00669" lon="6.31349">
        <ele>1660.8000488281</ele>
        <time>2012-12-11T10:34:08.000Z</time>
      </trkpt>
      <trkpt lat="46.00671" lon="6.31355">
        <ele>1661.1999511719</ele>
        <time>2012-12-11T10:34:14.000Z</time>
      </trkpt>
      <trkpt lat="46.00672" lon="6.31356">
        <ele>1662.1999511719</ele>
        <time>2012-12-11T10:34:19.000Z</time>
      </trkpt>
      <trkpt lat="46.00674" lon="6.31359">
        <ele>1663.1999511719</ele>
        <time>2012-12-11T10:34:22.000Z</time>
      </trkpt>
      <trkpt lat="46.00675" lon="6.31362">
        <ele>1664</ele>
        <time>2012-12-11T10:34:28.000Z</time>
      </trkpt>
      <trkpt lat="46.00675" lon="6.31365">
        <ele>1665</ele>
        <time>2012-12-11T10:34:35.000Z</time>
      </trkpt>
      <trkpt lat="46.00674" lon="6.31368">
        <ele>1664.5999755859</ele>
        <time>2012-12-11T10:34:40.000Z</time>
      </trkpt>
      <trkpt lat="46.00674" lon="6.31371">
        <ele>1665</ele>
        <time>2012-12-11T10:34:44.000Z</time>
      </trkpt>
      <trkpt lat="46.00673" lon="6.31373">
        <ele>1667</ele>
        <time>2012-12-11T10:34:51.000Z</time>
      </trkpt>
      <trkpt lat="46.00675" lon="6.31374">
        <ele>1667.4000244141</ele>
        <time>2012-12-11T10:34:59.000Z</time>
      </trkpt>
      <trkpt lat="46.00675" lon="6.31376">
        <ele>1667.4000244141</ele>
        <time>2012-12-11T10:35:05.000Z</time>
      </trkpt>
      <trkpt lat="46.00675" lon="6.31379">
        <ele>1668</ele>
        <time>2012-12-11T10:35:09.000Z</time>
      </trkpt>
      <trkpt lat="46.00677" lon="6.31383">
        <ele>1668.4000244141</ele>
        <time>2012-12-11T10:35:14.000Z</time>
      </trkpt>
      <trkpt lat="46.00678" lon="6.31386">
        <ele>1668</ele>
        <time>2012-12-11T10:35:17.000Z</time>
      </trkpt>
      <trkpt lat="46.00677" lon="6.31387">
        <ele>1668.4000244141</ele>
        <time>2012-12-11T10:35:27.000Z</time>
      </trkpt>
      <trkpt lat="46.00673" lon="6.31386">
        <ele>1668.8000488281</ele>
        <time>2012-12-11T10:35:34.000Z</time>
      </trkpt>
      <trkpt lat="46.0067" lon="6.31384">
        <ele>1669.4000244141</ele>
        <time>2012-12-11T10:35:38.000Z</time>
      </trkpt>
      <trkpt lat="46.0067" lon="6.31385">
        <ele>1670.8000488281</ele>
        <time>2012-12-11T10:35:43.000Z</time>
      </trkpt>
      <trkpt lat="46.0067" lon="6.31383">
        <ele>1671.1999511719</ele>
        <time>2012-12-11T10:35:50.000Z</time>
      </trkpt>
      <trkpt lat="46.00671" lon="6.31383">
        <ele>1671.1999511719</ele>
        <time>2012-12-11T10:36:07.000Z</time>
      </trkpt>
      <trkpt lat="46.00669" lon="6.31382">
        <ele>1672.1999511719</ele>
        <time>2012-12-11T10:36:14.000Z</time>
      </trkpt>
      <trkpt lat="46.00666" lon="6.31381">
        <ele>1672.1999511719</ele>
        <time>2012-12-11T10:36:17.000Z</time>
      </trkpt>
      <trkpt lat="46.00664" lon="6.31378">
        <ele>1672.1999511719</ele>
        <time>2012-12-11T10:36:21.000Z</time>
      </trkpt>
      <trkpt lat="46.00662" lon="6.31375">
        <ele>1675.1999511719</ele>
        <time>2012-12-11T10:36:26.000Z</time>
      </trkpt>
      <trkpt lat="46.00661" lon="6.31374">
        <ele>1676.5999755859</ele>
        <time>2012-12-11T10:36:31.000Z</time>
      </trkpt>
      <trkpt lat="46.0066" lon="6.31375">
        <ele>1678.4000244141</ele>
        <time>2012-12-11T10:36:36.000Z</time>
      </trkpt>
      <trkpt lat="46.00658" lon="6.31375">
        <ele>1680</ele>
        <time>2012-12-11T10:36:42.000Z</time>
      </trkpt>
      <trkpt lat="46.00656" lon="6.31373">
        <ele>1680.4000244141</ele>
        <time>2012-12-11T10:36:46.000Z</time>
      </trkpt>
      <trkpt lat="46.00654" lon="6.3137">
        <ele>1681</ele>
        <time>2012-12-11T10:36:50.000Z</time>
      </trkpt>
      <trkpt lat="46.00653" lon="6.31367">
        <ele>1681</ele>
        <time>2012-12-11T10:36:55.000Z</time>
      </trkpt>
      <trkpt lat="46.00652" lon="6.31365">
        <ele>1681.8000488281</ele>
        <time>2012-12-11T10:36:59.000Z</time>
      </trkpt>
      <trkpt lat="46.0065" lon="6.31364">
        <ele>1681.8000488281</ele>
        <time>2012-12-11T10:37:03.000Z</time>
      </trkpt>
      <trkpt lat="46.00648" lon="6.31363">
        <ele>1681.4000244141</ele>
        <time>2012-12-11T10:37:08.000Z</time>
      </trkpt>
      <trkpt lat="46.00646" lon="6.31362">
        <ele>1681.8000488281</ele>
        <time>2012-12-11T10:37:12.000Z</time>
      </trkpt>
      <trkpt lat="46.00646" lon="6.31361">
        <ele>1682.4000244141</ele>
        <time>2012-12-11T10:37:21.000Z</time>
      </trkpt>
      <trkpt lat="46.00645" lon="6.31359">
        <ele>1682.4000244141</ele>
        <time>2012-12-11T10:37:27.000Z</time>
      </trkpt>
      <trkpt lat="46.00644" lon="6.31357">
        <ele>1683.4000244141</ele>
        <time>2012-12-11T10:37:32.000Z</time>
      </trkpt>
      <trkpt lat="46.00644" lon="6.31356">
        <ele>1683.4000244141</ele>
        <time>2012-12-11T10:37:38.000Z</time>
      </trkpt>
      <trkpt lat="46.00644" lon="6.31356">
        <ele>1683.4000244141</ele>
        <time>2012-12-11T10:37:44.000Z</time>
      </trkpt>
      <trkpt lat="46.00642" lon="6.31352">
        <ele>1682.8000488281</ele>
        <time>2012-12-11T10:37:50.000Z</time>
      </trkpt>
      <trkpt lat="46.00638" lon="6.3135">
        <ele>1682.8000488281</ele>
        <time>2012-12-11T10:37:56.000Z</time>
      </trkpt>
      <trkpt lat="46.00636" lon="6.31348">
        <ele>1683.8000488281</ele>
        <time>2012-12-11T10:38:03.000Z</time>
      </trkpt>
      <trkpt lat="46.00634" lon="6.31348">
        <ele>1684.1999511719</ele>
        <time>2012-12-11T10:38:08.000Z</time>
      </trkpt>
      <trkpt lat="46.00631" lon="6.31345">
        <ele>1687.1999511719</ele>
        <time>2012-12-11T10:38:42.000Z</time>
      </trkpt>
      <trkpt lat="46.00629" lon="6.31347">
        <ele>1687.5999755859</ele>
        <time>2012-12-11T10:38:46.000Z</time>
      </trkpt>
      <trkpt lat="46.00628" lon="6.31346">
        <ele>1687.1999511719</ele>
        <time>2012-12-11T10:38:51.000Z</time>
      </trkpt>
      <trkpt lat="46.00628" lon="6.31346">
        <ele>1687.5999755859</ele>
        <time>2012-12-11T10:38:52.000Z</time>
      </trkpt>
      <trkpt lat="46.00625" lon="6.31346">
        <ele>1687.1999511719</ele>
        <time>2012-12-11T10:38:56.000Z</time>
      </trkpt>
      <trkpt lat="46.00622" lon="6.31346">
        <ele>1687.1999511719</ele>
        <time>2012-12-11T10:39:01.000Z</time>
      </trkpt>
      <trkpt lat="46.00621" lon="6.31346">
        <ele>1687.5999755859</ele>
        <time>2012-12-11T10:39:06.000Z</time>
      </trkpt>
      <trkpt lat="46.00619" lon="6.31345">
        <ele>1689</ele>
        <time>2012-12-11T10:39:12.000Z</time>
      </trkpt>
      <trkpt lat="46.00615" lon="6.31345">
        <ele>1689</ele>
        <time>2012-12-11T10:39:16.000Z</time>
      </trkpt>
      <trkpt lat="46.00613" lon="6.31344">
        <ele>1689.5999755859</ele>
        <time>2012-12-11T10:39:21.000Z</time>
      </trkpt>
      <trkpt lat="46.00611" lon="6.31343">
        <ele>1690.5999755859</ele>
        <time>2012-12-11T10:39:26.000Z</time>
      </trkpt>
      <trkpt lat="46.00611" lon="6.31342">
        <ele>1691.4000244141</ele>
        <time>2012-12-11T10:39:33.000Z</time>
      </trkpt>
      <trkpt lat="46.00612" lon="6.31338">
        <ele>1693.8000488281</ele>
        <time>2012-12-11T10:39:56.000Z</time>
      </trkpt>
      <trkpt lat="46.00612" lon="6.31339">
        <ele>1693.8000488281</ele>
        <time>2012-12-11T10:40:13.000Z</time>
      </trkpt>
      <trkpt lat="46.00614" lon="6.31341">
        <ele>1693</ele>
        <time>2012-12-11T10:40:32.000Z</time>
      </trkpt>
      <trkpt lat="46.00615" lon="6.31342">
        <ele>1693</ele>
        <time>2012-12-11T10:40:39.000Z</time>
      </trkpt>
      <trkpt lat="46.00614" lon="6.31341">
        <ele>1693</ele>
        <time>2012-12-11T10:40:47.000Z</time>
      </trkpt>
      <trkpt lat="46.00617" lon="6.31336">
        <ele>1701</ele>
        <time>2012-12-11T10:41:02.000Z</time>
      </trkpt>
      <trkpt lat="46.00617" lon="6.31336">
        <ele>1700.5999755859</ele>
        <time>2012-12-11T10:41:11.000Z</time>
      </trkpt>
      <trkpt lat="46.00619" lon="6.31334">
        <ele>1703.4000244141</ele>
        <time>2012-12-11T10:41:21.000Z</time>
      </trkpt>
      <trkpt lat="46.00618" lon="6.31337">
        <ele>1702</ele>
        <time>2012-12-11T10:41:38.000Z</time>
      </trkpt>
      <trkpt lat="46.00618" lon="6.31338">
        <ele>1701.5999755859</ele>
        <time>2012-12-11T10:41:46.000Z</time>
      </trkpt>
      <trkpt lat="46.00618" lon="6.31337">
        <ele>1699.5999755859</ele>
        <time>2012-12-11T10:41:55.000Z</time>
      </trkpt>
      <trkpt lat="46.00617" lon="6.31339">
        <ele>1697.1999511719</ele>
        <time>2012-12-11T10:42:03.000Z</time>
      </trkpt>
      <trkpt lat="46.00616" lon="6.3134">
        <ele>1695.8000488281</ele>
        <time>2012-12-11T10:42:15.000Z</time>
      </trkpt>
      <trkpt lat="46.00613" lon="6.31342">
        <ele>1693.8000488281</ele>
        <time>2012-12-11T10:42:24.000Z</time>
      </trkpt>
      <trkpt lat="46.00616" lon="6.31342">
        <ele>1693.8000488281</ele>
        <time>2012-12-11T10:42:35.000Z</time>
      </trkpt>
      <trkpt lat="46.00616" lon="6.31341">
        <ele>1694.4000244141</ele>
        <time>2012-12-11T10:42:44.000Z</time>
      </trkpt>
      <trkpt lat="46.00617" lon="6.31343">
        <ele>1694.4000244141</ele>
        <time>2012-12-11T10:43:18.000Z</time>
      </trkpt>
      <trkpt lat="46.00614" lon="6.31343">
        <ele>1693.4000244141</ele>
        <time>2012-12-11T10:43:25.000Z</time>
      </trkpt>
      <trkpt lat="46.00616" lon="6.31343">
        <ele>1693.8000488281</ele>
        <time>2012-12-11T10:43:31.000Z</time>
      </trkpt>
      <trkpt lat="46.00618" lon="6.3134">
        <ele>1697.8000488281</ele>
        <time>2012-12-11T10:43:42.000Z</time>
      </trkpt>
      <trkpt lat="46.00618" lon="6.31341">
        <ele>1697.1999511719</ele>
        <time>2012-12-11T10:43:52.000Z</time>
      </trkpt>
      <trkpt lat="46.00619" lon="6.31343">
        <ele>1695.8000488281</ele>
        <time>2012-12-11T10:44:08.000Z</time>
      </trkpt>
      <trkpt lat="46.00618" lon="6.31345">
        <ele>1693.4000244141</ele>
        <time>2012-12-11T10:44:12.000Z</time>
      </trkpt>
      <trkpt lat="46.00619" lon="6.31344">
        <ele>1693.4000244141</ele>
        <time>2012-12-11T10:44:26.000Z</time>
      </trkpt>
      <trkpt lat="46.00618" lon="6.31344">
        <ele>1693.4000244141</ele>
        <time>2012-12-11T10:44:29.000Z</time>
      </trkpt>
      <trkpt lat="46.00617" lon="6.31341">
        <ele>1696.8000488281</ele>
        <time>2012-12-11T10:44:43.000Z</time>
      </trkpt>
      <trkpt lat="46.00615" lon="6.31343">
        <ele>1694.8000488281</ele>
        <time>2012-12-11T10:44:59.000Z</time>
      </trkpt>
      <trkpt lat="46.00616" lon="6.31342">
        <ele>1695.8000488281</ele>
        <time>2012-12-11T10:45:11.000Z</time>
      </trkpt>
      <trkpt lat="46.00616" lon="6.31341">
        <ele>1695.8000488281</ele>
        <time>2012-12-11T10:45:18.000Z</time>
      </trkpt>
      <trkpt lat="46.00617" lon="6.31343">
        <ele>1693.8000488281</ele>
        <time>2012-12-11T10:45:32.000Z</time>
      </trkpt>
      <trkpt lat="46.00616" lon="6.31342">
        <ele>1695.4000244141</ele>
        <time>2012-12-11T10:45:47.000Z</time>
      </trkpt>
      <trkpt lat="46.00616" lon="6.31342">
        <ele>1695.8000488281</ele>
        <time>2012-12-11T10:45:56.000Z</time>
      </trkpt>
      <trkpt lat="46.00616" lon="6.31343">
        <ele>1694.4000244141</ele>
        <time>2012-12-11T10:46:06.000Z</time>
      </trkpt>
      <trkpt lat="46.00617" lon="6.31343">
        <ele>1694.8000488281</ele>
        <time>2012-12-11T10:46:10.000Z</time>
      </trkpt>
      <trkpt lat="46.00619" lon="6.31341">
        <ele>1695.4000244141</ele>
        <time>2012-12-11T10:46:14.000Z</time>
      </trkpt>
      <trkpt lat="46.00618" lon="6.3134">
        <ele>1696.1999511719</ele>
        <time>2012-12-11T10:46:28.000Z</time>
      </trkpt>
      <trkpt lat="46.00618" lon="6.31339">
        <ele>1696.8000488281</ele>
        <time>2012-12-11T10:46:40.000Z</time>
      </trkpt>
      <trkpt lat="46.00617" lon="6.31341">
        <ele>1695.4000244141</ele>
        <time>2012-12-11T10:47:07.000Z</time>
      </trkpt>
      <trkpt lat="46.00618" lon="6.31343">
        <ele>1692.4000244141</ele>
        <time>2012-12-11T10:47:20.000Z</time>
      </trkpt>
      <trkpt lat="46.00618" lon="6.31344">
        <ele>1692</ele>
        <time>2012-12-11T10:48:22.000Z</time>
      </trkpt>
      <trkpt lat="46.00618" lon="6.31341">
        <ele>1693</ele>
        <time>2012-12-11T10:48:40.000Z</time>
      </trkpt>
      <trkpt lat="46.00614" lon="6.31324">
        <ele>1691</ele>
        <time>2012-12-11T10:48:44.000Z</time>
      </trkpt>
      <trkpt lat="46.00612" lon="6.31322">
        <ele>1691.4000244141</ele>
        <time>2012-12-11T10:49:02.000Z</time>
      </trkpt>
      <trkpt lat="46.00611" lon="6.3132">
        <ele>1692.4000244141</ele>
        <time>2012-12-11T10:49:13.000Z</time>
      </trkpt>
      <trkpt lat="46.00611" lon="6.31318">
        <ele>1691</ele>
        <time>2012-12-11T10:49:17.000Z</time>
      </trkpt>
      <trkpt lat="46.0061" lon="6.31315">
        <ele>1690</ele>
        <time>2012-12-11T10:49:23.000Z</time>
      </trkpt>
      <trkpt lat="46.00609" lon="6.3131">
        <ele>1688.5999755859</ele>
        <time>2012-12-11T10:49:34.000Z</time>
      </trkpt>
      <trkpt lat="46.00614" lon="6.31292">
        <ele>1677.5999755859</ele>
        <time>2012-12-11T10:49:38.000Z</time>
      </trkpt>
      <trkpt lat="46.00622" lon="6.31285">
        <ele>1672.1999511719</ele>
        <time>2012-12-11T10:49:40.000Z</time>
      </trkpt>
      <trkpt lat="46.00625" lon="6.31267">
        <ele>1666</ele>
        <time>2012-12-11T10:49:42.000Z</time>
      </trkpt>
      <trkpt lat="46.0061" lon="6.31248">
        <ele>1658.4000244141</ele>
        <time>2012-12-11T10:49:45.000Z</time>
      </trkpt>
      <trkpt lat="46.00606" lon="6.31244">
        <ele>1656</ele>
        <time>2012-12-11T10:49:47.000Z</time>
      </trkpt>
      <trkpt lat="46.00603" lon="6.31243">
        <ele>1653.5999755859</ele>
        <time>2012-12-11T10:49:52.000Z</time>
      </trkpt>
      <trkpt lat="46.00601" lon="6.31242">
        <ele>1652.5999755859</ele>
        <time>2012-12-11T10:50:27.000Z</time>
      </trkpt>
      <trkpt lat="46.00602" lon="6.31232">
        <ele>1648.5999755859</ele>
        <time>2012-12-11T10:50:29.000Z</time>
      </trkpt>
      <trkpt lat="46.00606" lon="6.31218">
        <ele>1643.4000244141</ele>
        <time>2012-12-11T10:50:32.000Z</time>
      </trkpt>
      <trkpt lat="46.00609" lon="6.31208">
        <ele>1638.5999755859</ele>
        <time>2012-12-11T10:50:35.000Z</time>
      </trkpt>
      <trkpt lat="46.00609" lon="6.31205">
        <ele>1636.5999755859</ele>
        <time>2012-12-11T10:50:37.000Z</time>
      </trkpt>
      <trkpt lat="46.00605" lon="6.31202">
        <ele>1634.8000488281</ele>
        <time>2012-12-11T10:50:46.000Z</time>
      </trkpt>
      <trkpt lat="46.00603" lon="6.31199">
        <ele>1633.4000244141</ele>
        <time>2012-12-11T10:50:50.000Z</time>
      </trkpt>
      <trkpt lat="46.00603" lon="6.31198">
        <ele>1633.4000244141</ele>
        <time>2012-12-11T10:50:56.000Z</time>
      </trkpt>
      <trkpt lat="46.00601" lon="6.31182">
        <ele>1631.4000244141</ele>
        <time>2012-12-11T10:51:00.000Z</time>
      </trkpt>
      <trkpt lat="46.00599" lon="6.31174">
        <ele>1630.4000244141</ele>
        <time>2012-12-11T10:51:03.000Z</time>
      </trkpt>
      <trkpt lat="46.00599" lon="6.31168">
        <ele>1630</ele>
        <time>2012-12-11T10:51:08.000Z</time>
      </trkpt>
      <trkpt lat="46.006" lon="6.31168">
        <ele>1630.4000244141</ele>
        <time>2012-12-11T10:51:14.000Z</time>
      </trkpt>
      <trkpt lat="46.00604" lon="6.31161">
        <ele>1625.5999755859</ele>
        <time>2012-12-11T10:51:19.000Z</time>
      </trkpt>
      <trkpt lat="46.00605" lon="6.31162">
        <ele>1624.5999755859</ele>
        <time>2012-12-11T10:51:20.000Z</time>
      </trkpt>
      <trkpt lat="46.00605" lon="6.31152">
        <ele>1620.4000244141</ele>
        <time>2012-12-11T10:51:24.000Z</time>
      </trkpt>
      <trkpt lat="46.00604" lon="6.31148">
        <ele>1618.4000244141</ele>
        <time>2012-12-11T10:51:27.000Z</time>
      </trkpt>
      <trkpt lat="46.00602" lon="6.31141">
        <ele>1617</ele>
        <time>2012-12-11T10:51:31.000Z</time>
      </trkpt>
      <trkpt lat="46.00602" lon="6.3114">
        <ele>1617.4000244141</ele>
        <time>2012-12-11T10:51:37.000Z</time>
      </trkpt>
      <trkpt lat="46.00602" lon="6.31138">
        <ele>1618.4000244141</ele>
        <time>2012-12-11T10:51:49.000Z</time>
      </trkpt>
      <trkpt lat="46.00602" lon="6.31137">
        <ele>1618</ele>
        <time>2012-12-11T10:51:50.000Z</time>
      </trkpt>
      <trkpt lat="46.00604" lon="6.31114">
        <ele>1616.4000244141</ele>
        <time>2012-12-11T10:51:55.000Z</time>
      </trkpt>
      <trkpt lat="46.00602" lon="6.31099">
        <ele>1614.5999755859</ele>
        <time>2012-12-11T10:51:58.000Z</time>
      </trkpt>
      <trkpt lat="46.00602" lon="6.3108">
        <ele>1612.1999511719</ele>
        <time>2012-12-11T10:52:03.000Z</time>
      </trkpt>
      <trkpt lat="46.00598" lon="6.31058">
        <ele>1610.1999511719</ele>
        <time>2012-12-11T10:52:06.000Z</time>
      </trkpt>
      <trkpt lat="46.0059" lon="6.31037">
        <ele>1607.8000488281</ele>
        <time>2012-12-11T10:52:10.000Z</time>
      </trkpt>
      <trkpt lat="46.00584" lon="6.31029">
        <ele>1604.4000244141</ele>
        <time>2012-12-11T10:52:12.000Z</time>
      </trkpt>
      <trkpt lat="46.00579" lon="6.31023">
        <ele>1603</ele>
        <time>2012-12-11T10:52:15.000Z</time>
      </trkpt>
      <trkpt lat="46.00575" lon="6.31019">
        <ele>1601.1999511719</ele>
        <time>2012-12-11T10:52:23.000Z</time>
      </trkpt>
      <trkpt lat="46.00574" lon="6.31018">
        <ele>1601.5999755859</ele>
        <time>2012-12-11T10:52:30.000Z</time>
      </trkpt>
      <trkpt lat="46.00574" lon="6.31016">
        <ele>1604</ele>
        <time>2012-12-11T10:52:40.000Z</time>
      </trkpt>
      <trkpt lat="46.00574" lon="6.31014">
        <ele>1603.5999755859</ele>
        <time>2012-12-11T10:52:43.000Z</time>
      </trkpt>
      <trkpt lat="46.00581" lon="6.31002">
        <ele>1600.5999755859</ele>
        <time>2012-12-11T10:52:47.000Z</time>
      </trkpt>
      <trkpt lat="46.00583" lon="6.30994">
        <ele>1597.1999511719</ele>
        <time>2012-12-11T10:52:50.000Z</time>
      </trkpt>
      <trkpt lat="46.00584" lon="6.30985">
        <ele>1594.8000488281</ele>
        <time>2012-12-11T10:52:52.000Z</time>
      </trkpt>
      <trkpt lat="46.00586" lon="6.30973">
        <ele>1589</ele>
        <time>2012-12-11T10:52:55.000Z</time>
      </trkpt>
      <trkpt lat="46.00587" lon="6.30961">
        <ele>1583.8000488281</ele>
        <time>2012-12-11T10:52:58.000Z</time>
      </trkpt>
      <trkpt lat="46.00586" lon="6.30957">
        <ele>1581</ele>
        <time>2012-12-11T10:53:01.000Z</time>
      </trkpt>
      <trkpt lat="46.00582" lon="6.30956">
        <ele>1578.5999755859</ele>
        <time>2012-12-11T10:53:10.000Z</time>
      </trkpt>
      <trkpt lat="46.0058" lon="6.30947">
        <ele>1576.5999755859</ele>
        <time>2012-12-11T10:53:13.000Z</time>
      </trkpt>
      <trkpt lat="46.00591" lon="6.3093">
        <ele>1572.8000488281</ele>
        <time>2012-12-11T10:53:17.000Z</time>
      </trkpt>
      <trkpt lat="46.00598" lon="6.3092">
        <ele>1568</ele>
        <time>2012-12-11T10:53:20.000Z</time>
      </trkpt>
      <trkpt lat="46.00604" lon="6.30912">
        <ele>1564.5999755859</ele>
        <time>2012-12-11T10:53:22.000Z</time>
      </trkpt>
      <trkpt lat="46.00613" lon="6.30909">
        <ele>1561.1999511719</ele>
        <time>2012-12-11T10:53:24.000Z</time>
      </trkpt>
      <trkpt lat="46.00617" lon="6.30901">
        <ele>1556.4000244141</ele>
        <time>2012-12-11T10:53:26.000Z</time>
      </trkpt>
      <trkpt lat="46.00623" lon="6.30888">
        <ele>1547.1999511719</ele>
        <time>2012-12-11T10:53:29.000Z</time>
      </trkpt>
      <trkpt lat="46.00637" lon="6.30878">
        <ele>1539.5999755859</ele>
        <time>2012-12-11T10:53:32.000Z</time>
      </trkpt>
      <trkpt lat="46.00655" lon="6.30863">
        <ele>1528</ele>
        <time>2012-12-11T10:53:37.000Z</time>
      </trkpt>
      <trkpt lat="46.00663" lon="6.30857">
        <ele>1521.8000488281</ele>
        <time>2012-12-11T10:53:40.000Z</time>
      </trkpt>
      <trkpt lat="46.00673" lon="6.30842">
        <ele>1516.5999755859</ele>
        <time>2012-12-11T10:53:43.000Z</time>
      </trkpt>
      <trkpt lat="46.00673" lon="6.30837">
        <ele>1513.1999511719</ele>
        <time>2012-12-11T10:53:46.000Z</time>
      </trkpt>
      <trkpt lat="46.00682" lon="6.30839">
        <ele>1511.1999511719</ele>
        <time>2012-12-11T10:53:51.000Z</time>
      </trkpt>
      <trkpt lat="46.00685" lon="6.30841">
        <ele>1512.1999511719</ele>
        <time>2012-12-11T10:53:54.000Z</time>
      </trkpt>
      <trkpt lat="46.00687" lon="6.30841">
        <ele>1515</ele>
        <time>2012-12-11T10:54:00.000Z</time>
      </trkpt>
      <trkpt lat="46.00701" lon="6.30841">
        <ele>1512.5999755859</ele>
        <time>2012-12-11T10:54:04.000Z</time>
      </trkpt>
      <trkpt lat="46.00711" lon="6.30828">
        <ele>1508.8000488281</ele>
        <time>2012-12-11T10:54:07.000Z</time>
      </trkpt>
      <trkpt lat="46.00719" lon="6.30814">
        <ele>1504.5999755859</ele>
        <time>2012-12-11T10:54:10.000Z</time>
      </trkpt>
      <trkpt lat="46.00718" lon="6.30805">
        <ele>1502</ele>
        <time>2012-12-11T10:54:12.000Z</time>
      </trkpt>
      <trkpt lat="46.00723" lon="6.30795">
        <ele>1499.1999511719</ele>
        <time>2012-12-11T10:54:14.000Z</time>
      </trkpt>
      <trkpt lat="46.0073" lon="6.30789">
        <ele>1494.8000488281</ele>
        <time>2012-12-11T10:54:17.000Z</time>
      </trkpt>
      <trkpt lat="46.00735" lon="6.30775">
        <ele>1489.5999755859</ele>
        <time>2012-12-11T10:54:20.000Z</time>
      </trkpt>
      <trkpt lat="46.00736" lon="6.30765">
        <ele>1484.4000244141</ele>
        <time>2012-12-11T10:54:23.000Z</time>
      </trkpt>
      <trkpt lat="46.00737" lon="6.30764">
        <ele>1484.4000244141</ele>
        <time>2012-12-11T10:54:26.000Z</time>
      </trkpt>
      <trkpt lat="46.00737" lon="6.30764">
        <ele>1484.4000244141</ele>
        <time>2012-12-11T10:54:32.000Z</time>
      </trkpt>
      <trkpt lat="46.00736" lon="6.30766">
        <ele>1484.8000488281</ele>
        <time>2012-12-11T10:54:43.000Z</time>
      </trkpt>
      <trkpt lat="46.00736" lon="6.30766">
        <ele>1485.8000488281</ele>
        <time>2012-12-11T10:54:49.000Z</time>
      </trkpt>
      <trkpt lat="46.00737" lon="6.30766">
        <ele>1485.8000488281</ele>
        <time>2012-12-11T10:55:02.000Z</time>
      </trkpt>
      <trkpt lat="46.00737" lon="6.30765">
        <ele>1485.8000488281</ele>
        <time>2012-12-11T10:55:03.000Z</time>
      </trkpt>
      <trkpt lat="46.00744" lon="6.30755">
        <ele>1483.8000488281</ele>
        <time>2012-12-11T10:55:08.000Z</time>
      </trkpt>
      <trkpt lat="46.00744" lon="6.30752">
        <ele>1482.8000488281</ele>
        <time>2012-12-11T10:55:09.000Z</time>
      </trkpt>
      <trkpt lat="46.00744" lon="6.30745">
        <ele>1481.4000244141</ele>
        <time>2012-12-11T10:55:11.000Z</time>
      </trkpt>
      <trkpt lat="46.00745" lon="6.30743">
        <ele>1479.5999755859</ele>
        <time>2012-12-11T10:55:15.000Z</time>
      </trkpt>
      <trkpt lat="46.00746" lon="6.30742">
        <ele>1477.5999755859</ele>
        <time>2012-12-11T10:55:27.000Z</time>
      </trkpt>
      <trkpt lat="46.00748" lon="6.3074">
        <ele>1476.5999755859</ele>
        <time>2012-12-11T10:55:31.000Z</time>
      </trkpt>
      <trkpt lat="46.00752" lon="6.30741">
        <ele>1475.1999511719</ele>
        <time>2012-12-11T10:55:35.000Z</time>
      </trkpt>
      <trkpt lat="46.00752" lon="6.30741">
        <ele>1475.1999511719</ele>
        <time>2012-12-11T10:55:42.000Z</time>
      </trkpt>
      <trkpt lat="46.00753" lon="6.30741">
        <ele>1474.5999755859</ele>
        <time>2012-12-11T10:55:43.000Z</time>
      </trkpt>
      <trkpt lat="46.00765" lon="6.30737">
        <ele>1473.1999511719</ele>
        <time>2012-12-11T10:55:47.000Z</time>
      </trkpt>
      <trkpt lat="46.00764" lon="6.30735">
        <ele>1471.8000488281</ele>
        <time>2012-12-11T10:55:50.000Z</time>
      </trkpt>
      <trkpt lat="46.00763" lon="6.30734">
        <ele>1471.4000244141</ele>
        <time>2012-12-11T10:55:54.000Z</time>
      </trkpt>
      <trkpt lat="46.00763" lon="6.30734">
        <ele>1472.1999511719</ele>
        <time>2012-12-11T10:56:05.000Z</time>
      </trkpt>
      <trkpt lat="46.00763" lon="6.30734">
        <ele>1472.1999511719</ele>
        <time>2012-12-11T10:56:14.000Z</time>
      </trkpt>
      <trkpt lat="46.00761" lon="6.30733">
        <ele>1471.8000488281</ele>
        <time>2012-12-11T10:56:18.000Z</time>
      </trkpt>
      <trkpt lat="46.0076" lon="6.3073">
        <ele>1470.8000488281</ele>
        <time>2012-12-11T10:56:23.000Z</time>
      </trkpt>
      <trkpt lat="46.00759" lon="6.30731">
        <ele>1469.8000488281</ele>
        <time>2012-12-11T10:56:30.000Z</time>
      </trkpt>
      <trkpt lat="46.00758" lon="6.30731">
        <ele>1469</ele>
        <time>2012-12-11T10:56:47.000Z</time>
      </trkpt>
      <trkpt lat="46.00757" lon="6.30731">
        <ele>1468.4000244141</ele>
        <time>2012-12-11T10:56:54.000Z</time>
      </trkpt>
      <trkpt lat="46.00757" lon="6.30729">
        <ele>1468.4000244141</ele>
        <time>2012-12-11T10:56:59.000Z</time>
      </trkpt>
      <trkpt lat="46.00757" lon="6.30729">
        <ele>1469</ele>
        <time>2012-12-11T10:57:09.000Z</time>
      </trkpt>
      <trkpt lat="46.00758" lon="6.30726">
        <ele>1468</ele>
        <time>2012-12-11T10:57:15.000Z</time>
      </trkpt>
      <trkpt lat="46.00765" lon="6.30712">
        <ele>1464.1999511719</ele>
        <time>2012-12-11T10:57:19.000Z</time>
      </trkpt>
      <trkpt lat="46.00768" lon="6.30708">
        <ele>1462.1999511719</ele>
        <time>2012-12-11T10:57:20.000Z</time>
      </trkpt>
      <trkpt lat="46.00775" lon="6.30698">
        <ele>1457.8000488281</ele>
        <time>2012-12-11T10:57:24.000Z</time>
      </trkpt>
      <trkpt lat="46.00784" lon="6.30695">
        <ele>1452.5999755859</ele>
        <time>2012-12-11T10:57:28.000Z</time>
      </trkpt>
      <trkpt lat="46.00792" lon="6.30685">
        <ele>1447.8000488281</ele>
        <time>2012-12-11T10:57:31.000Z</time>
      </trkpt>
      <trkpt lat="46.00797" lon="6.30679">
        <ele>1444.4000244141</ele>
        <time>2012-12-11T10:57:34.000Z</time>
      </trkpt>
      <trkpt lat="46.00802" lon="6.30671">
        <ele>1439.5999755859</ele>
        <time>2012-12-11T10:57:37.000Z</time>
      </trkpt>
      <trkpt lat="46.00805" lon="6.30668">
        <ele>1437.1999511719</ele>
        <time>2012-12-11T10:57:38.000Z</time>
      </trkpt>
      <trkpt lat="46.00818" lon="6.30666">
        <ele>1429</ele>
        <time>2012-12-11T10:57:43.000Z</time>
      </trkpt>
      <trkpt lat="46.0082" lon="6.30661">
        <ele>1426.5999755859</ele>
        <time>2012-12-11T10:57:46.000Z</time>
      </trkpt>
      <trkpt lat="46.0082" lon="6.30661">
        <ele>1427.5999755859</ele>
        <time>2012-12-11T10:57:51.000Z</time>
      </trkpt>
      <trkpt lat="46.00822" lon="6.30661">
        <ele>1427.5999755859</ele>
        <time>2012-12-11T10:57:59.000Z</time>
      </trkpt>
      <trkpt lat="46.00822" lon="6.30662">
        <ele>1427.5999755859</ele>
        <time>2012-12-11T10:58:05.000Z</time>
      </trkpt>
      <trkpt lat="46.00822" lon="6.30663">
        <ele>1427.1999511719</ele>
        <time>2012-12-11T10:58:19.000Z</time>
      </trkpt>
      <trkpt lat="46.00834" lon="6.30657">
        <ele>1424.1999511719</ele>
        <time>2012-12-11T10:58:24.000Z</time>
      </trkpt>
      <trkpt lat="46.00834" lon="6.30651">
        <ele>1422.8000488281</ele>
        <time>2012-12-11T10:58:28.000Z</time>
      </trkpt>
      <trkpt lat="46.00836" lon="6.30651">
        <ele>1423.1999511719</ele>
        <time>2012-12-11T10:58:37.000Z</time>
      </trkpt>
      <trkpt lat="46.00837" lon="6.30654">
        <ele>1420.8000488281</ele>
        <time>2012-12-11T10:59:02.000Z</time>
      </trkpt>
      <trkpt lat="46.00838" lon="6.30653">
        <ele>1421.8000488281</ele>
        <time>2012-12-11T10:59:10.000Z</time>
      </trkpt>
      <trkpt lat="46.00839" lon="6.30653">
        <ele>1421.4000244141</ele>
        <time>2012-12-11T10:59:18.000Z</time>
      </trkpt>
      <trkpt lat="46.00839" lon="6.30652">
        <ele>1420.8000488281</ele>
        <time>2012-12-11T10:59:24.000Z</time>
      </trkpt>
      <trkpt lat="46.0084" lon="6.30652">
        <ele>1420.4000244141</ele>
        <time>2012-12-11T10:59:30.000Z</time>
      </trkpt>
      <trkpt lat="46.00841" lon="6.30651">
        <ele>1420.8000488281</ele>
        <time>2012-12-11T10:59:39.000Z</time>
      </trkpt>
      <trkpt lat="46.00842" lon="6.3065">
        <ele>1420</ele>
        <time>2012-12-11T11:00:01.000Z</time>
      </trkpt>
      <trkpt lat="46.00841" lon="6.30649">
        <ele>1419</ele>
        <time>2012-12-11T11:00:07.000Z</time>
      </trkpt>
      <trkpt lat="46.00841" lon="6.30649">
        <ele>1419</ele>
        <time>2012-12-11T11:00:10.000Z</time>
      </trkpt>
      <trkpt lat="46.00844" lon="6.30639">
        <ele>1417</ele>
        <time>2012-12-11T11:00:14.000Z</time>
      </trkpt>
      <trkpt lat="46.00847" lon="6.30641">
        <ele>1416</ele>
        <time>2012-12-11T11:00:18.000Z</time>
      </trkpt>
      <trkpt lat="46.00853" lon="6.30646">
        <ele>1414.1999511719</ele>
        <time>2012-12-11T11:00:21.000Z</time>
      </trkpt>
      <trkpt lat="46.00858" lon="6.30643">
        <ele>1413.5999755859</ele>
        <time>2012-12-11T11:00:25.000Z</time>
      </trkpt>
      <trkpt lat="46.00858" lon="6.30638">
        <ele>1413.1999511719</ele>
        <time>2012-12-11T11:00:31.000Z</time>
      </trkpt>
      <trkpt lat="46.00858" lon="6.30634">
        <ele>1412.1999511719</ele>
        <time>2012-12-11T11:00:38.000Z</time>
      </trkpt>
      <trkpt lat="46.00858" lon="6.30628">
        <ele>1410.8000488281</ele>
        <time>2012-12-11T11:00:41.000Z</time>
      </trkpt>
      <trkpt lat="46.00865" lon="6.30629">
        <ele>1407.4000244141</ele>
        <time>2012-12-11T11:00:45.000Z</time>
      </trkpt>
      <trkpt lat="46.00866" lon="6.3063">
        <ele>1406.4000244141</ele>
        <time>2012-12-11T11:00:47.000Z</time>
      </trkpt>
      <trkpt lat="46.00869" lon="6.30629">
        <ele>1405.4000244141</ele>
        <time>2012-12-11T11:00:49.000Z</time>
      </trkpt>
      <trkpt lat="46.0088" lon="6.30634">
        <ele>1403</ele>
        <time>2012-12-11T11:00:52.000Z</time>
      </trkpt>
      <trkpt lat="46.00893" lon="6.30628">
        <ele>1395.8000488281</ele>
        <time>2012-12-11T11:00:57.000Z</time>
      </trkpt>
      <trkpt lat="46.00898" lon="6.30618">
        <ele>1392</ele>
        <time>2012-12-11T11:01:00.000Z</time>
      </trkpt>
      <trkpt lat="46.00903" lon="6.30614">
        <ele>1388.5999755859</ele>
        <time>2012-12-11T11:01:03.000Z</time>
      </trkpt>
      <trkpt lat="46.00904" lon="6.30614">
        <ele>1388.5999755859</ele>
        <time>2012-12-11T11:01:05.000Z</time>
      </trkpt>
      <trkpt lat="46.00902" lon="6.30612">
        <ele>1386.1999511719</ele>
        <time>2012-12-11T11:01:11.000Z</time>
      </trkpt>
      <trkpt lat="46.00901" lon="6.30606">
        <ele>1384.4000244141</ele>
        <time>2012-12-11T11:01:16.000Z</time>
      </trkpt>
      <trkpt lat="46.00908" lon="6.30605">
        <ele>1382</ele>
        <time>2012-12-11T11:01:19.000Z</time>
      </trkpt>
      <trkpt lat="46.00912" lon="6.30598">
        <ele>1379</ele>
        <time>2012-12-11T11:01:22.000Z</time>
      </trkpt>
      <trkpt lat="46.00919" lon="6.30593">
        <ele>1376.1999511719</ele>
        <time>2012-12-11T11:01:24.000Z</time>
      </trkpt>
      <trkpt lat="46.0092" lon="6.30592">
        <ele>1375.1999511719</ele>
        <time>2012-12-11T11:01:25.000Z</time>
      </trkpt>
      <trkpt lat="46.00922" lon="6.30593">
        <ele>1372.4000244141</ele>
        <time>2012-12-11T11:01:30.000Z</time>
      </trkpt>
      <trkpt lat="46.00925" lon="6.30595">
        <ele>1370.8000488281</ele>
        <time>2012-12-11T11:01:34.000Z</time>
      </trkpt>
      <trkpt lat="46.00925" lon="6.30595">
        <ele>1370</ele>
        <time>2012-12-11T11:01:42.000Z</time>
      </trkpt>
      <trkpt lat="46.00925" lon="6.30597">
        <ele>1368</ele>
        <time>2012-12-11T11:01:59.000Z</time>
      </trkpt>
      <trkpt lat="46.00925" lon="6.30597">
        <ele>1367.5999755859</ele>
        <time>2012-12-11T11:02:08.000Z</time>
      </trkpt>
      <trkpt lat="46.00926" lon="6.30597">
        <ele>1367</ele>
        <time>2012-12-11T11:02:28.000Z</time>
      </trkpt>
      <trkpt lat="46.00926" lon="6.30597">
        <ele>1367.5999755859</ele>
        <time>2012-12-11T11:02:35.000Z</time>
      </trkpt>
      <trkpt lat="46.00926" lon="6.30596">
        <ele>1367</ele>
        <time>2012-12-11T11:02:38.000Z</time>
      </trkpt>
      <trkpt lat="46.00929" lon="6.30594">
        <ele>1366.5999755859</ele>
        <time>2012-12-11T11:02:43.000Z</time>
      </trkpt>
      <trkpt lat="46.00931" lon="6.3059">
        <ele>1365.1999511719</ele>
        <time>2012-12-11T11:02:51.000Z</time>
      </trkpt>
      <trkpt lat="46.00933" lon="6.30568">
        <ele>1361.1999511719</ele>
        <time>2012-12-11T11:02:56.000Z</time>
      </trkpt>
      <trkpt lat="46.00933" lon="6.30567">
        <ele>1360.4000244141</ele>
        <time>2012-12-11T11:02:57.000Z</time>
      </trkpt>
      <trkpt lat="46.00932" lon="6.30565">
        <ele>1357.4000244141</ele>
        <time>2012-12-11T11:03:02.000Z</time>
      </trkpt>
      <trkpt lat="46.00932" lon="6.30561">
        <ele>1356</ele>
        <time>2012-12-11T11:03:07.000Z</time>
      </trkpt>
      <trkpt lat="46.00932" lon="6.3056">
        <ele>1356.4000244141</ele>
        <time>2012-12-11T11:03:15.000Z</time>
      </trkpt>
      <trkpt lat="46.00932" lon="6.30559">
        <ele>1356.4000244141</ele>
        <time>2012-12-11T11:03:21.000Z</time>
      </trkpt>
      <trkpt lat="46.00932" lon="6.30556">
        <ele>1357.8000488281</ele>
        <time>2012-12-11T11:03:30.000Z</time>
      </trkpt>
      <trkpt lat="46.00936" lon="6.30547">
        <ele>1355</ele>
        <time>2012-12-11T11:03:34.000Z</time>
      </trkpt>
      <trkpt lat="46.00939" lon="6.30547">
        <ele>1353.5999755859</ele>
        <time>2012-12-11T11:03:35.000Z</time>
      </trkpt>
      <trkpt lat="46.00959" lon="6.30565">
        <ele>1346.8000488281</ele>
        <time>2012-12-11T11:03:40.000Z</time>
      </trkpt>
      <trkpt lat="46.00962" lon="6.30572">
        <ele>1345.8000488281</ele>
        <time>2012-12-11T11:03:41.000Z</time>
      </trkpt>
      <trkpt lat="46.00968" lon="6.30588">
        <ele>1343.4000244141</ele>
        <time>2012-12-11T11:03:43.000Z</time>
      </trkpt>
      <trkpt lat="46.00985" lon="6.3061">
        <ele>1338.5999755859</ele>
        <time>2012-12-11T11:03:47.000Z</time>
      </trkpt>
      <trkpt lat="46.0099" lon="6.30611">
        <ele>1334.4000244141</ele>
        <time>2012-12-11T11:03:49.000Z</time>
      </trkpt>
      <trkpt lat="46.00989" lon="6.30611">
        <ele>1332.4000244141</ele>
        <time>2012-12-11T11:03:58.000Z</time>
      </trkpt>
      <trkpt lat="46.00992" lon="6.30614">
        <ele>1331</ele>
        <time>2012-12-11T11:04:06.000Z</time>
      </trkpt>
      <trkpt lat="46.01004" lon="6.30627">
        <ele>1329.5999755859</ele>
        <time>2012-12-11T11:04:10.000Z</time>
      </trkpt>
      <trkpt lat="46.0101" lon="6.30632">
        <ele>1328.5999755859</ele>
        <time>2012-12-11T11:04:12.000Z</time>
      </trkpt>
      <trkpt lat="46.01012" lon="6.30631">
        <ele>1327.1999511719</ele>
        <time>2012-12-11T11:04:18.000Z</time>
      </trkpt>
      <trkpt lat="46.01013" lon="6.30631">
        <ele>1327.5999755859</ele>
        <time>2012-12-11T11:04:25.000Z</time>
      </trkpt>
      <trkpt lat="46.01013" lon="6.30631">
        <ele>1326.5999755859</ele>
        <time>2012-12-11T11:04:39.000Z</time>
      </trkpt>
      <trkpt lat="46.01014" lon="6.30633">
        <ele>1325.5999755859</ele>
        <time>2012-12-11T11:04:41.000Z</time>
      </trkpt>
      <trkpt lat="46.01025" lon="6.30643">
        <ele>1323.8000488281</ele>
        <time>2012-12-11T11:04:45.000Z</time>
      </trkpt>
      <trkpt lat="46.01039" lon="6.30649">
        <ele>1320.4000244141</ele>
        <time>2012-12-11T11:04:48.000Z</time>
      </trkpt>
      <trkpt lat="46.01045" lon="6.30653">
        <ele>1319.4000244141</ele>
        <time>2012-12-11T11:04:49.000Z</time>
      </trkpt>
      <trkpt lat="46.01063" lon="6.30665">
        <ele>1313.5999755859</ele>
        <time>2012-12-11T11:04:52.000Z</time>
      </trkpt>
      <trkpt lat="46.01078" lon="6.30668">
        <ele>1308</ele>
        <time>2012-12-11T11:04:56.000Z</time>
      </trkpt>
      <trkpt lat="46.01078" lon="6.30672">
        <ele>1306</ele>
        <time>2012-12-11T11:04:59.000Z</time>
      </trkpt>
      <trkpt lat="46.01077" lon="6.30682">
        <ele>1300.1999511719</ele>
        <time>2012-12-11T11:05:06.000Z</time>
      </trkpt>
      <trkpt lat="46.01078" lon="6.30686">
        <ele>1298.1999511719</ele>
        <time>2012-12-11T11:05:11.000Z</time>
      </trkpt>
      <trkpt lat="46.01079" lon="6.30687">
        <ele>1297.8000488281</ele>
        <time>2012-12-11T11:05:16.000Z</time>
      </trkpt>
      <trkpt lat="46.01081" lon="6.30689">
        <ele>1298.1999511719</ele>
        <time>2012-12-11T11:05:21.000Z</time>
      </trkpt>
      <trkpt lat="46.01083" lon="6.30692">
        <ele>1299.1999511719</ele>
        <time>2012-12-11T11:05:26.000Z</time>
      </trkpt>
      <trkpt lat="46.01085" lon="6.30696">
        <ele>1299.1999511719</ele>
        <time>2012-12-11T11:05:30.000Z</time>
      </trkpt>
      <trkpt lat="46.01086" lon="6.307">
        <ele>1297.8000488281</ele>
        <time>2012-12-11T11:05:33.000Z</time>
      </trkpt>
      <trkpt lat="46.0109" lon="6.30703">
        <ele>1297.8000488281</ele>
        <time>2012-12-11T11:05:38.000Z</time>
      </trkpt>
      <trkpt lat="46.01091" lon="6.30704">
        <ele>1296.4000244141</ele>
        <time>2012-12-11T11:05:45.000Z</time>
      </trkpt>
      <trkpt lat="46.01092" lon="6.30701">
        <ele>1300.1999511719</ele>
        <time>2012-12-11T11:05:55.000Z</time>
      </trkpt>
      <trkpt lat="46.0109" lon="6.30699">
        <ele>1299.8000488281</ele>
        <time>2012-12-11T11:06:00.000Z</time>
      </trkpt>
      <trkpt lat="46.01089" lon="6.30697">
        <ele>1299.1999511719</ele>
        <time>2012-12-11T11:06:05.000Z</time>
      </trkpt>
      <trkpt lat="46.01088" lon="6.30693">
        <ele>1298.8000488281</ele>
        <time>2012-12-11T11:06:10.000Z</time>
      </trkpt>
      <trkpt lat="46.01088" lon="6.30691">
        <ele>1302.1999511719</ele>
        <time>2012-12-11T11:06:30.000Z</time>
      </trkpt>
      <trkpt lat="46.01088" lon="6.30691">
        <ele>1301.1999511719</ele>
        <time>2012-12-11T11:06:36.000Z</time>
      </trkpt>
      <trkpt lat="46.01089" lon="6.3069">
        <ele>1303.5999755859</ele>
        <time>2012-12-11T11:06:49.000Z</time>
      </trkpt>
      <trkpt lat="46.0109" lon="6.30691">
        <ele>1303.5999755859</ele>
        <time>2012-12-11T11:06:53.000Z</time>
      </trkpt>
      <trkpt lat="46.01091" lon="6.3069">
        <ele>1302.5999755859</ele>
        <time>2012-12-11T11:06:55.000Z</time>
      </trkpt>
      <trkpt lat="46.01093" lon="6.30682">
        <ele>1299.8000488281</ele>
        <time>2012-12-11T11:07:00.000Z</time>
      </trkpt>
      <trkpt lat="46.01092" lon="6.3068">
        <ele>1298.1999511719</ele>
        <time>2012-12-11T11:07:07.000Z</time>
      </trkpt>
      <trkpt lat="46.01093" lon="6.30678">
        <ele>1297.4000244141</ele>
        <time>2012-12-11T11:07:10.000Z</time>
      </trkpt>
      <trkpt lat="46.01098" lon="6.30678">
        <ele>1295</ele>
        <time>2012-12-11T11:07:14.000Z</time>
      </trkpt>
      <trkpt lat="46.01102" lon="6.30676">
        <ele>1293.4000244141</ele>
        <time>2012-12-11T11:07:17.000Z</time>
      </trkpt>
      <trkpt lat="46.01106" lon="6.30673">
        <ele>1291.5999755859</ele>
        <time>2012-12-11T11:07:25.000Z</time>
      </trkpt>
      <trkpt lat="46.01108" lon="6.30674">
        <ele>1289.5999755859</ele>
        <time>2012-12-11T11:07:30.000Z</time>
      </trkpt>
      <trkpt lat="46.01109" lon="6.30675">
        <ele>1288.1999511719</ele>
        <time>2012-12-11T11:07:34.000Z</time>
      </trkpt>
      <trkpt lat="46.01113" lon="6.30677">
        <ele>1285.8000488281</ele>
        <time>2012-12-11T11:07:39.000Z</time>
      </trkpt>
      <trkpt lat="46.01118" lon="6.3068">
        <ele>1280.5999755859</ele>
        <time>2012-12-11T11:07:47.000Z</time>
      </trkpt>
      <trkpt lat="46.01126" lon="6.30689">
        <ele>1278.5999755859</ele>
        <time>2012-12-11T11:07:50.000Z</time>
      </trkpt>
      <trkpt lat="46.01132" lon="6.30689">
        <ele>1276.5999755859</ele>
        <time>2012-12-11T11:07:52.000Z</time>
      </trkpt>
      <trkpt lat="46.01131" lon="6.30687">
        <ele>1275.1999511719</ele>
        <time>2012-12-11T11:07:55.000Z</time>
      </trkpt>
      <trkpt lat="46.0113" lon="6.30686">
        <ele>1273.8000488281</ele>
        <time>2012-12-11T11:07:57.000Z</time>
      </trkpt>
      <trkpt lat="46.0114" lon="6.30685">
        <ele>1270</ele>
        <time>2012-12-11T11:08:03.000Z</time>
      </trkpt>
      <trkpt lat="46.01143" lon="6.30683">
        <ele>1269.4000244141</ele>
        <time>2012-12-11T11:08:06.000Z</time>
      </trkpt>
      <trkpt lat="46.01143" lon="6.30682">
        <ele>1269</ele>
        <time>2012-12-11T11:08:07.000Z</time>
      </trkpt>
      <trkpt lat="46.0115" lon="6.3068">
        <ele>1265.5999755859</ele>
        <time>2012-12-11T11:08:12.000Z</time>
      </trkpt>
      <trkpt lat="46.01157" lon="6.30673">
        <ele>1263.1999511719</ele>
        <time>2012-12-11T11:08:15.000Z</time>
      </trkpt>
      <trkpt lat="46.01166" lon="6.30666">
        <ele>1258.4000244141</ele>
        <time>2012-12-11T11:08:20.000Z</time>
      </trkpt>
      <trkpt lat="46.0117" lon="6.30659">
        <ele>1255</ele>
        <time>2012-12-11T11:08:24.000Z</time>
      </trkpt>
      <trkpt lat="46.01171" lon="6.30658">
        <ele>1253.5999755859</ele>
        <time>2012-12-11T11:08:29.000Z</time>
      </trkpt>
      <trkpt lat="46.01172" lon="6.30658">
        <ele>1253.1999511719</ele>
        <time>2012-12-11T11:08:36.000Z</time>
      </trkpt>
      <trkpt lat="46.01173" lon="6.30657">
        <ele>1253.1999511719</ele>
        <time>2012-12-11T11:08:42.000Z</time>
      </trkpt>
      <trkpt lat="46.01173" lon="6.30657">
        <ele>1252.5999755859</ele>
        <time>2012-12-11T11:08:55.000Z</time>
      </trkpt>
      <trkpt lat="46.01174" lon="6.30658">
        <ele>1253.5999755859</ele>
        <time>2012-12-11T11:09:06.000Z</time>
      </trkpt>
      <trkpt lat="46.01176" lon="6.30656">
        <ele>1252.1999511719</ele>
        <time>2012-12-11T11:09:12.000Z</time>
      </trkpt>
      <trkpt lat="46.01177" lon="6.30654">
        <ele>1252.1999511719</ele>
        <time>2012-12-11T11:09:17.000Z</time>
      </trkpt>
      <trkpt lat="46.01179" lon="6.30651">
        <ele>1251.5999755859</ele>
        <time>2012-12-11T11:09:21.000Z</time>
      </trkpt>
      <trkpt lat="46.01181" lon="6.3065">
        <ele>1250.1999511719</ele>
        <time>2012-12-11T11:09:26.000Z</time>
      </trkpt>
      <trkpt lat="46.01188" lon="6.30646">
        <ele>1247.8000488281</ele>
        <time>2012-12-11T11:09:29.000Z</time>
      </trkpt>
      <trkpt lat="46.01189" lon="6.30645">
        <ele>1246.8000488281</ele>
        <time>2012-12-11T11:09:30.000Z</time>
      </trkpt>
      <trkpt lat="46.01188" lon="6.3063">
        <ele>1242.5999755859</ele>
        <time>2012-12-11T11:09:34.000Z</time>
      </trkpt>
      <trkpt lat="46.01188" lon="6.30628">
        <ele>1241.5999755859</ele>
        <time>2012-12-11T11:09:36.000Z</time>
      </trkpt>
      <trkpt lat="46.01189" lon="6.3063">
        <ele>1241.5999755859</ele>
        <time>2012-12-11T11:09:40.000Z</time>
      </trkpt>
      <trkpt lat="46.0119" lon="6.30631">
        <ele>1242</ele>
        <time>2012-12-11T11:09:46.000Z</time>
      </trkpt>
      <trkpt lat="46.01191" lon="6.30632">
        <ele>1241.5999755859</ele>
        <time>2012-12-11T11:09:52.000Z</time>
      </trkpt>
      <trkpt lat="46.01203" lon="6.30632">
        <ele>1240.1999511719</ele>
        <time>2012-12-11T11:09:56.000Z</time>
      </trkpt>
      <trkpt lat="46.0122" lon="6.30635">
        <ele>1236.1999511719</ele>
        <time>2012-12-11T11:10:00.000Z</time>
      </trkpt>
      <trkpt lat="46.01243" lon="6.30645">
        <ele>1232.4000244141</ele>
        <time>2012-12-11T11:10:05.000Z</time>
      </trkpt>
      <trkpt lat="46.01263" lon="6.30648">
        <ele>1228.5999755859</ele>
        <time>2012-12-11T11:10:09.000Z</time>
      </trkpt>
      <trkpt lat="46.01269" lon="6.30646">
        <ele>1226.1999511719</ele>
        <time>2012-12-11T11:10:12.000Z</time>
      </trkpt>
      <trkpt lat="46.0127" lon="6.30646">
        <ele>1225.8000488281</ele>
        <time>2012-12-11T11:10:19.000Z</time>
      </trkpt>
      <trkpt lat="46.01273" lon="6.30645">
        <ele>1225.1999511719</ele>
        <time>2012-12-11T11:10:22.000Z</time>
      </trkpt>
      <trkpt lat="46.01287" lon="6.30645">
        <ele>1222.4000244141</ele>
        <time>2012-12-11T11:10:26.000Z</time>
      </trkpt>
      <trkpt lat="46.01304" lon="6.30651">
        <ele>1217.5999755859</ele>
        <time>2012-12-11T11:10:29.000Z</time>
      </trkpt>
      <trkpt lat="46.0131" lon="6.30653">
        <ele>1216.1999511719</ele>
        <time>2012-12-11T11:10:30.000Z</time>
      </trkpt>
      <trkpt lat="46.01321" lon="6.30651">
        <ele>1213.1999511719</ele>
        <time>2012-12-11T11:10:32.000Z</time>
      </trkpt>
      <trkpt lat="46.0133" lon="6.30671">
        <ele>1208</ele>
        <time>2012-12-11T11:10:36.000Z</time>
      </trkpt>
      <trkpt lat="46.01343" lon="6.30687">
        <ele>1204</ele>
        <time>2012-12-11T11:10:39.000Z</time>
      </trkpt>
      <trkpt lat="46.01349" lon="6.30691">
        <ele>1202.5999755859</ele>
        <time>2012-12-11T11:10:40.000Z</time>
      </trkpt>
      <trkpt lat="46.01367" lon="6.30692">
        <ele>1198.4000244141</ele>
        <time>2012-12-11T11:10:43.000Z</time>
      </trkpt>
      <trkpt lat="46.0138" lon="6.30692">
        <ele>1195.4000244141</ele>
        <time>2012-12-11T11:10:45.000Z</time>
      </trkpt>
      <trkpt lat="46.01393" lon="6.30694">
        <ele>1192</ele>
        <time>2012-12-11T11:10:49.000Z</time>
      </trkpt>
      <trkpt lat="46.01397" lon="6.30696">
        <ele>1191.1999511719</ele>
        <time>2012-12-11T11:10:50.000Z</time>
      </trkpt>
      <trkpt lat="46.01407" lon="6.30704">
        <ele>1188.1999511719</ele>
        <time>2012-12-11T11:10:53.000Z</time>
      </trkpt>
      <trkpt lat="46.01427" lon="6.30711">
        <ele>1182</ele>
        <time>2012-12-11T11:10:57.000Z</time>
      </trkpt>
      <trkpt lat="46.01438" lon="6.3071">
        <ele>1178.1999511719</ele>
        <time>2012-12-11T11:11:00.000Z</time>
      </trkpt>
      <trkpt lat="46.01447" lon="6.30706">
        <ele>1175.8000488281</ele>
        <time>2012-12-11T11:11:03.000Z</time>
      </trkpt>
      <trkpt lat="46.01462" lon="6.30714">
        <ele>1171.4000244141</ele>
        <time>2012-12-11T11:11:08.000Z</time>
      </trkpt>
      <trkpt lat="46.01472" lon="6.30721">
        <ele>1169</ele>
        <time>2012-12-11T11:11:11.000Z</time>
      </trkpt>
      <trkpt lat="46.0148" lon="6.30724">
        <ele>1168.5999755859</ele>
        <time>2012-12-11T11:11:17.000Z</time>
      </trkpt>
      <trkpt lat="46.01482" lon="6.30723">
        <ele>1171</ele>
        <time>2012-12-11T11:11:29.000Z</time>
      </trkpt>
      <trkpt lat="46.01482" lon="6.30723">
        <ele>1172.8000488281</ele>
        <time>2012-12-11T11:11:37.000Z</time>
      </trkpt>
      <trkpt lat="46.01482" lon="6.3072">
        <ele>1173.4000244141</ele>
        <time>2012-12-11T11:11:42.000Z</time>
      </trkpt>
      <trkpt lat="46.01498" lon="6.30718">
        <ele>1170</ele>
        <time>2012-12-11T11:11:47.000Z</time>
      </trkpt>
      <trkpt lat="46.0151" lon="6.30723">
        <ele>1168</ele>
        <time>2012-12-11T11:11:49.000Z</time>
      </trkpt>
      <trkpt lat="46.01544" lon="6.30711">
        <ele>1159.8000488281</ele>
        <time>2012-12-11T11:11:53.000Z</time>
      </trkpt>
      <trkpt lat="46.01553" lon="6.30708">
        <ele>1157.4000244141</ele>
        <time>2012-12-11T11:11:54.000Z</time>
      </trkpt>
      <trkpt lat="46.01599" lon="6.30694">
        <ele>1147.4000244141</ele>
        <time>2012-12-11T11:11:59.000Z</time>
      </trkpt>
      <trkpt lat="46.01625" lon="6.30679">
        <ele>1140.5999755859</ele>
        <time>2012-12-11T11:12:02.000Z</time>
      </trkpt>
      <trkpt lat="46.0165" lon="6.30668">
        <ele>1134.8000488281</ele>
        <time>2012-12-11T11:12:05.000Z</time>
      </trkpt>
      <trkpt lat="46.01658" lon="6.30666">
        <ele>1133.4000244141</ele>
        <time>2012-12-11T11:12:06.000Z</time>
      </trkpt>
      <trkpt lat="46.01688" lon="6.30671">
        <ele>1128.1999511719</ele>
        <time>2012-12-11T11:12:10.000Z</time>
      </trkpt>
      <trkpt lat="46.0173" lon="6.30692">
        <ele>1121</ele>
        <time>2012-12-11T11:12:16.000Z</time>
      </trkpt>
      <trkpt lat="46.01753" lon="6.30703">
        <ele>1118.5999755859</ele>
        <time>2012-12-11T11:12:20.000Z</time>
      </trkpt>
      <trkpt lat="46.0177" lon="6.30709">
        <ele>1117.5999755859</ele>
        <time>2012-12-11T11:12:24.000Z</time>
      </trkpt>
      <trkpt lat="46.01798" lon="6.30711">
        <ele>1114.1999511719</ele>
        <time>2012-12-11T11:12:31.000Z</time>
      </trkpt>
      <trkpt lat="46.01806" lon="6.3071">
        <ele>1112.8000488281</ele>
        <time>2012-12-11T11:12:33.000Z</time>
      </trkpt>
      <trkpt lat="46.0184" lon="6.30691">
        <ele>1110.4000244141</ele>
        <time>2012-12-11T11:12:40.000Z</time>
      </trkpt>
      <trkpt lat="46.01861" lon="6.30674">
        <ele>1106.5999755859</ele>
        <time>2012-12-11T11:12:44.000Z</time>
      </trkpt>
      <trkpt lat="46.01878" lon="6.30657">
        <ele>1100.8000488281</ele>
        <time>2012-12-11T11:12:47.000Z</time>
      </trkpt>
      <trkpt lat="46.01893" lon="6.30641">
        <ele>1095.4000244141</ele>
        <time>2012-12-11T11:12:49.000Z</time>
      </trkpt>
      <trkpt lat="46.01906" lon="6.30626">
        <ele>1092.5999755859</ele>
        <time>2012-12-11T11:12:51.000Z</time>
      </trkpt>
      <trkpt lat="46.01919" lon="6.30618">
        <ele>1087.1999511719</ele>
        <time>2012-12-11T11:12:53.000Z</time>
      </trkpt>
      <trkpt lat="46.01929" lon="6.306">
        <ele>1083</ele>
        <time>2012-12-11T11:12:55.000Z</time>
      </trkpt>
      <trkpt lat="46.01949" lon="6.30572">
        <ele>1072.4000244141</ele>
        <time>2012-12-11T11:12:58.000Z</time>
      </trkpt>
      <trkpt lat="46.01959" lon="6.30545">
        <ele>1068</ele>
        <time>2012-12-11T11:13:00.000Z</time>
      </trkpt>
      <trkpt lat="46.01983" lon="6.3053">
        <ele>1061.4000244141</ele>
        <time>2012-12-11T11:13:03.000Z</time>
      </trkpt>
      <trkpt lat="46.01999" lon="6.3053">
        <ele>1058.4000244141</ele>
        <time>2012-12-11T11:13:05.000Z</time>
      </trkpt>
      <trkpt lat="46.02017" lon="6.30526">
        <ele>1054.5999755859</ele>
        <time>2012-12-11T11:13:08.000Z</time>
      </trkpt>
      <trkpt lat="46.02037" lon="6.30515">
        <ele>1051.1999511719</ele>
        <time>2012-12-11T11:13:12.000Z</time>
      </trkpt>
      <trkpt lat="46.02074" lon="6.30489">
        <ele>1046</ele>
        <time>2012-12-11T11:13:21.000Z</time>
      </trkpt>
      <trkpt lat="46.02092" lon="6.30473">
        <ele>1043.5999755859</ele>
        <time>2012-12-11T11:13:25.000Z</time>
      </trkpt>
      <trkpt lat="46.02106" lon="6.30461">
        <ele>1041.5999755859</ele>
        <time>2012-12-11T11:13:29.000Z</time>
      </trkpt>
      <trkpt lat="46.02106" lon="6.30465">
        <ele>1041.1999511719</ele>
        <time>2012-12-11T11:13:32.000Z</time>
      </trkpt>
      <trkpt lat="46.02105" lon="6.30462">
        <ele>1041.1999511719</ele>
        <time>2012-12-11T11:13:37.000Z</time>
      </trkpt>
      <trkpt lat="46.02106" lon="6.30459">
        <ele>1040.5999755859</ele>
        <time>2012-12-11T11:13:41.000Z</time>
      </trkpt>
      <trkpt lat="46.02115" lon="6.30457">
        <ele>1040.1999511719</ele>
        <time>2012-12-11T11:13:46.000Z</time>
      </trkpt>
      <trkpt lat="46.02118" lon="6.30459">
        <ele>1040.5999755859</ele>
        <time>2012-12-11T11:13:53.000Z</time>
      </trkpt>
      <trkpt lat="46.02118" lon="6.3046">
        <ele>1040.1999511719</ele>
        <time>2012-12-11T11:14:01.000Z</time>
      </trkpt>
      <trkpt lat="46.02118" lon="6.30461">
        <ele>1040.5999755859</ele>
        <time>2012-12-11T11:14:07.000Z</time>
      </trkpt>
      <trkpt lat="46.02117" lon="6.30461">
        <ele>1041.1999511719</ele>
        <time>2012-12-11T11:14:21.000Z</time>
      </trkpt>
      <trkpt lat="46.02117" lon="6.30463">
        <ele>1040.5999755859</ele>
        <time>2012-12-11T11:14:29.000Z</time>
      </trkpt>
      <trkpt lat="46.02117" lon="6.30462">
        <ele>1040.1999511719</ele>
        <time>2012-12-11T11:14:37.000Z</time>
      </trkpt>
      <trkpt lat="46.02117" lon="6.30463">
        <ele>1040.1999511719</ele>
        <time>2012-12-11T11:14:44.000Z</time>
      </trkpt>
      <trkpt lat="46.02116" lon="6.30461">
        <ele>1039.8000488281</ele>
        <time>2012-12-11T11:14:53.000Z</time>
      </trkpt>
      <trkpt lat="46.02118" lon="6.30461">
        <ele>1040.1999511719</ele>
        <time>2012-12-11T11:15:06.000Z</time>
      </trkpt>
      <trkpt lat="46.02117" lon="6.30461">
        <ele>1039.1999511719</ele>
        <time>2012-12-11T11:15:12.000Z</time>
      </trkpt>
      <trkpt lat="46.02117" lon="6.30461">
        <ele>1037.8000488281</ele>
        <time>2012-12-11T11:15:17.000Z</time>
      </trkpt>
      <trkpt lat="46.02116" lon="6.3046">
        <ele>1038.8000488281</ele>
        <time>2012-12-11T11:15:26.000Z</time>
      </trkpt>
      <trkpt lat="46.02117" lon="6.30461">
        <ele>1039.1999511719</ele>
        <time>2012-12-11T11:15:28.000Z</time>
      </trkpt>
    </trkseg>
  </trk>
</gpx>